Darstellungsparameter: Aktuell verwendete Einstellungen:
Skalierung der Graphiken ... ?
xyx+y,   Skalierungsfaktor:      Skalierung: Modus: x, Faktor: 1
Darstellungszeitraum ... ?
Vom - - bis: - -   Zeitraum: 08.03.2014 - 07.06.2014
Min/Max/Avg-Anzeige ... ?
Zeige MMA aktuell
Zeige MMA Monat
Zeige MMA alles
Zeige --A aktuell
Zeige --A Monat
Zeige --A alles
Keine MMA-Anzeige
MMA:
Keine MMA-Graphiken
MMA-Basis: 08.03.2014 - 07.06.2014
Quicknavigation für Darstellung... ?
Tage:      1T, 2T, 3T, 5T -1T -2T -3T -5T +1T +2T +3T +5T
Wochen: 1W, 2W, 3W -1W -2W -3W +1W +2W +3W
Monate: 1M, 3M, 6M -1M -3M -6M +1M +3M +6M
Jahre:    1J, 3J, 5J, 10J -1J -3J -5J -10J +1J +3J +5J +10J
Nutze für die Darstellung ... ?
Originaldaten oder Mittelwerte auf ...
Stundenbasis Tagesbasis Wochenbasis
Monatsbasis Jahresbasis      Datenbasis: Original-Daten
Darstellen als:
Statistik (Auto) Statistik J:M      Darstellung:
Zur Graphik,    zurück zur Übersicht aller Sensoren.
 
Tabellarische Datenbersicht: ?
 
Sensor: Nr:Datum:Temp:Abs-Feuchte:Windchill:Wind:
Aussen-T/F 1 08-03-2014 00:00:00 5.2 C 6.13 g/m*3 5.2 C 3.2 km/h
2 08-03-2014 00:05:00 5.2 C 6.06 g/m*3 5.2 C 0 km/h
3 08-03-2014 00:10:00 5.3 C 6.03 g/m*3 5.3 C 0 km/h
4 08-03-2014 00:15:00 5.2 C 5.99 g/m*3 5.2 C 0 km/h
5 08-03-2014 00:20:00 5.1 C 5.95 g/m*3 5.1 C 0 km/h
6 08-03-2014 00:25:00 4.9 C 5.87 g/m*3 4.9 C 0 km/h
7 08-03-2014 00:30:00 4.7 C 5.8 g/m*3 4.7 C 0 km/h
8 08-03-2014 00:35:00 4.5 C 5.78 g/m*3 4.5 C 0 km/h
9 08-03-2014 00:40:00 4.4 C 5.81 g/m*3 4.4 C 0 km/h
10 08-03-2014 00:45:00 4.4 C 5.81 g/m*3 4.4 C 0 km/h
11 08-03-2014 00:50:00 4.4 C 5.81 g/m*3 4.4 C 1.6 km/h
12 08-03-2014 00:55:00 4.3 C 5.77 g/m*3 4.3 C 1.6 km/h
13 08-03-2014 01:00:00 4.3 C 5.84 g/m*3 4.3 C 0 km/h
14 08-03-2014 01:05:00 4.4 C 5.88 g/m*3 4.4 C 0 km/h
15 08-03-2014 01:10:00 4.4 C 5.88 g/m*3 4.4 C 1.6 km/h
16 08-03-2014 01:15:00 4.4 C 5.88 g/m*3 4.4 C 1.6 km/h
17 08-03-2014 01:20:00 4.5 C 5.85 g/m*3 4.5 C 1.6 km/h
18 08-03-2014 01:25:00 4.5 C 5.85 g/m*3 4.5 C 0 km/h
19 08-03-2014 01:30:00 4.4 C 5.88 g/m*3 4.4 C 1.6 km/h
20 08-03-2014 01:35:00 4.4 C 5.88 g/m*3 4.4 C 1.6 km/h
21 08-03-2014 01:40:00 4.4 C 5.88 g/m*3 4.4 C 0 km/h
22 08-03-2014 01:45:00 4.4 C 5.88 g/m*3 4.4 C 3.2 km/h
23 08-03-2014 01:50:00 4.4 C 5.81 g/m*3 2.9 C 6.4 km/h
24 08-03-2014 01:55:00 4.4 C 5.81 g/m*3 4.4 C 1.6 km/h
25 08-03-2014 02:00:00 4.4 C 5.81 g/m*3 4.4 C 1.6 km/h
Sensor: Nr:Datum:Temp:Abs-Feuchte:Windchill:Wind:
Aussen-T/F 26 08-03-2014 02:05:00 4.3 C 5.84 g/m*3 4.3 C 0 km/h
27 08-03-2014 02:10:00 4.3 C 5.84 g/m*3 4.3 C 0 km/h
28 08-03-2014 02:15:00 4.3 C 5.84 g/m*3 4.3 C 0 km/h
29 08-03-2014 02:20:00 4.3 C 5.84 g/m*3 4.3 C 3.2 km/h
30 08-03-2014 02:25:00 4.3 C 5.84 g/m*3 4.3 C 0 km/h
31 08-03-2014 02:30:00 4.4 C 5.88 g/m*3 4.4 C 0 km/h
32 08-03-2014 02:35:00 4.4 C 5.88 g/m*3 4.4 C 0 km/h
33 08-03-2014 02:40:00 4.4 C 5.88 g/m*3 4.4 C 0 km/h
34 08-03-2014 02:45:00 4.4 C 5.88 g/m*3 4.4 C 0 km/h
35 08-03-2014 02:50:00 4.4 C 5.88 g/m*3 4.4 C 1.6 km/h
36 08-03-2014 02:55:00 4.3 C 5.84 g/m*3 4.3 C 0 km/h
37 08-03-2014 03:00:00 4.2 C 5.8 g/m*3 4.2 C 0 km/h
38 08-03-2014 03:05:00 4.1 C 5.76 g/m*3 4.1 C 0 km/h
39 08-03-2014 03:10:00 4 C 5.72 g/m*3 4 C 0 km/h
40 08-03-2014 03:15:00 3.9 C 5.68 g/m*3 3.9 C 0 km/h
41 08-03-2014 03:20:00 3.7 C 5.61 g/m*3 3.7 C 0 km/h
42 08-03-2014 03:25:00 3.6 C 5.57 g/m*3 3.6 C 0 km/h
43 08-03-2014 03:30:00 3.4 C 5.56 g/m*3 3.4 C 0 km/h
44 08-03-2014 03:35:00 3.4 C 5.56 g/m*3 3.4 C 0 km/h
45 08-03-2014 03:40:00 3.4 C 5.56 g/m*3 3.4 C 0 km/h
46 08-03-2014 03:45:00 3.3 C 5.58 g/m*3 3.3 C 0 km/h
47 08-03-2014 03:50:00 3.3 C 5.58 g/m*3 3.3 C 0 km/h
48 08-03-2014 03:55:00 3.2 C 5.48 g/m*3 3.2 C 0 km/h
49 08-03-2014 04:00:00 3.2 C 5.54 g/m*3 3.2 C 1.6 km/h
50 08-03-2014 04:05:00 3.1 C 5.51 g/m*3 3.1 C 1.6 km/h
Sensor: Nr:Datum:Temp:Abs-Feuchte:Windchill:Wind:
Aussen-T/F 51 08-03-2014 04:10:00 3.1 C 5.51 g/m*3 3.1 C 1.6 km/h
52 08-03-2014 04:15:00 3.1 C 5.57 g/m*3 3.1 C 1.6 km/h
53 08-03-2014 04:20:00 3.2 C 5.6 g/m*3 3.2 C 1.6 km/h
54 08-03-2014 04:25:00 3.3 C 5.64 g/m*3 3.3 C 0 km/h
55 08-03-2014 04:30:00 3.2 C 5.54 g/m*3 3.2 C 0 km/h
56 08-03-2014 04:35:00 3 C 5.47 g/m*3 3 C 0 km/h
57 08-03-2014 04:40:00 2.8 C 5.4 g/m*3 2.8 C 0 km/h
58 08-03-2014 04:45:00 2.8 C 5.4 g/m*3 2.8 C 0 km/h
59 08-03-2014 04:50:00 2.7 C 5.42 g/m*3 2.7 C 0 km/h
60 08-03-2014 04:55:00 2.6 C 5.32 g/m*3 2.6 C 0 km/h
61 08-03-2014 05:00:00 2.4 C 5.31 g/m*3 2.4 C 0 km/h
62 08-03-2014 05:05:00 2.4 C 5.31 g/m*3 2.4 C 0 km/h
63 08-03-2014 05:10:00 2.3 C 5.27 g/m*3 2.3 C 0 km/h
64 08-03-2014 05:15:00 2.3 C 5.27 g/m*3 2.3 C 0 km/h
65 08-03-2014 05:20:00 2.3 C 5.33 g/m*3 2.3 C 0 km/h
66 08-03-2014 05:25:00 2.3 C 5.33 g/m*3 2.3 C 1.6 km/h
67 08-03-2014 05:30:00 2.3 C 5.33 g/m*3 2.3 C 0 km/h
68 08-03-2014 05:35:00 2.3 C 5.33 g/m*3 2.3 C 0 km/h
69 08-03-2014 05:40:00 2.3 C 5.33 g/m*3 2.3 C 0 km/h
70 08-03-2014 05:45:00 2.3 C 5.33 g/m*3 2.3 C 0 km/h
71 08-03-2014 05:50:00 2.2 C 5.29 g/m*3 2.2 C 0 km/h
72 08-03-2014 05:55:00 2.2 C 5.29 g/m*3 2.2 C 1.6 km/h
73 08-03-2014 06:00:00 2.2 C 5.29 g/m*3 2.2 C 0 km/h
74 08-03-2014 06:05:00 2.2 C 5.29 g/m*3 2.2 C 0 km/h
75 08-03-2014 06:10:00 2.1 C 5.26 g/m*3 2.1 C 0 km/h
Sensor: Nr:Datum:Temp:Abs-Feuchte:Windchill:Wind:
Aussen-T/F 76 08-03-2014 06:15:00 2.1 C 5.26 g/m*3 2.1 C 0 km/h
77 08-03-2014 06:20:00 2 C 5.22 g/m*3 2 C 0 km/h
78 08-03-2014 06:25:00 1.9 C 5.19 g/m*3 1.9 C 0 km/h
79 08-03-2014 06:30:00 1.9 C 5.19 g/m*3 1.9 C 0 km/h
80 08-03-2014 06:35:00 1.8 C 5.15 g/m*3 1.8 C 0 km/h
81 08-03-2014 06:40:00 1.8 C 5.15 g/m*3 1.8 C 0 km/h
82 08-03-2014 06:45:00 1.7 C 5.12 g/m*3 1.7 C 1.6 km/h
83 08-03-2014 06:50:00 1.7 C 5.17 g/m*3 1.7 C 1.6 km/h
84 08-03-2014 06:55:00 1.8 C 5.21 g/m*3 1.8 C 0 km/h
85 08-03-2014 07:00:00 1.8 C 5.21 g/m*3 1.8 C 0 km/h
86 08-03-2014 07:05:00 1.8 C 5.21 g/m*3 1.8 C 0 km/h
87 08-03-2014 07:10:00 1.8 C 5.21 g/m*3 1.8 C 1.6 km/h
88 08-03-2014 07:15:00 1.7 C 5.17 g/m*3 1.7 C 1.6 km/h
89 08-03-2014 07:20:00 1.8 C 5.21 g/m*3 1.8 C 0 km/h
90 08-03-2014 07:25:00 1.8 C 5.21 g/m*3 1.8 C 0 km/h
91 08-03-2014 07:30:00 1.7 C 5.17 g/m*3 1.7 C 0 km/h
92 08-03-2014 07:35:00 1.7 C 5.17 g/m*3 1.7 C 0 km/h
93 08-03-2014 07:40:00 1.6 C 5.14 g/m*3 1.6 C 0 km/h
94 08-03-2014 07:45:00 1.6 C 5.14 g/m*3 1.6 C 0 km/h
95 08-03-2014 07:50:00 1.6 C 5.14 g/m*3 1.6 C 0 km/h
96 08-03-2014 07:55:00 1.6 C 5.14 g/m*3 1.6 C 1.6 km/h
97 08-03-2014 08:00:00 1.6 C 5.14 g/m*3 1.6 C 0 km/h
98 08-03-2014 08:05:00 1.7 C 5.17 g/m*3 1.7 C 3.2 km/h
99 08-03-2014 08:10:00 1.7 C 5.17 g/m*3 1.7 C 1.6 km/h
100 08-03-2014 08:15:00 1.8 C 5.21 g/m*3 1.8 C 0 km/h
Sensor: Nr:Datum:Temp:Abs-Feuchte:Windchill:Wind:
Aussen-T/F 101 08-03-2014 08:20:00 1.8 C 5.21 g/m*3 1.8 C 0 km/h
102 08-03-2014 08:25:00 1.8 C 5.21 g/m*3 1.8 C 0 km/h
103 08-03-2014 08:30:00 1.9 C 5.24 g/m*3 1.9 C 0 km/h
104 08-03-2014 08:35:00 1.9 C 5.24 g/m*3 1.9 C 0 km/h
105 08-03-2014 08:40:00 2 C 5.28 g/m*3 2 C 0 km/h
106 08-03-2014 08:45:00 2.1 C 5.31 g/m*3 2.1 C 3.2 km/h
107 08-03-2014 08:50:00 2.2 C 5.41 g/m*3 2.2 C 0 km/h
108 08-03-2014 08:55:00 2.2 C 5.41 g/m*3 2.2 C 0 km/h
109 08-03-2014 09:00:00 2.5 C 5.52 g/m*3 2.5 C 0 km/h
110 08-03-2014 09:05:00 2.5 C 5.52 g/m*3 2.5 C 0 km/h
111 08-03-2014 09:10:00 2.5 C 5.52 g/m*3 2.5 C 0 km/h
112 08-03-2014 09:15:00 2.8 C 5.57 g/m*3 2.8 C 0 km/h
113 08-03-2014 09:20:00 2.8 C 5.57 g/m*3 2.8 C 0 km/h
114 08-03-2014 09:25:00 2.9 C 5.67 g/m*3 2.9 C 0 km/h
115 08-03-2014 09:30:00 3.1 C 5.69 g/m*3 3.1 C 0 km/h
116 08-03-2014 09:35:00 3.2 C 5.72 g/m*3 3.2 C 0 km/h
117 08-03-2014 09:40:00 3.4 C 5.86 g/m*3 3.4 C 0 km/h
118 08-03-2014 09:45:00 3.6 C 5.94 g/m*3 3.6 C 0 km/h
119 08-03-2014 09:50:00 3.8 C 6.02 g/m*3 3.8 C 0 km/h
120 08-03-2014 09:55:00 4 C 6.1 g/m*3 4 C 0 km/h
121 08-03-2014 10:00:00 4.3 C 6.16 g/m*3 4.3 C 0 km/h
122 08-03-2014 10:05:00 4.4 C 6.2 g/m*3 4.4 C 0 km/h
123 08-03-2014 10:10:00 4.4 C 6.2 g/m*3 4.4 C 0 km/h
124 08-03-2014 10:15:00 5.1 C 6.5 g/m*3 5.1 C 0 km/h
125 08-03-2014 10:20:00 5.3 C 6.58 g/m*3 5.3 C 0 km/h
Sensor: Nr:Datum:Temp:Abs-Feuchte:Windchill:Wind:
Aussen-T/F 126 08-03-2014 10:25:00 5.6 C 6.65 g/m*3 5.6 C 0 km/h
127 08-03-2014 10:30:00 5.7 C 6.62 g/m*3 5.7 C 1.6 km/h
128 08-03-2014 10:35:00 6.1 C 6.72 g/m*3 6.1 C 1.6 km/h
129 08-03-2014 10:40:00 6.3 C 6.81 g/m*3 6.3 C 1.6 km/h
130 08-03-2014 10:45:00 6.4 C 6.85 g/m*3 6.4 C 0 km/h
131 08-03-2014 10:50:00 6.4 C 6.85 g/m*3 6.4 C 0 km/h
132 08-03-2014 11:30:00 8.9 C 7.45 g/m*3 8.9 C 0 km/h
133 08-03-2014 11:35:00 9.2 C 7.59 g/m*3 9.2 C 1.6 km/h
134 08-03-2014 11:40:00 9.4 C 7.69 g/m*3 9.4 C 0 km/h
135 08-03-2014 11:45:00 9.7 C 7.74 g/m*3 9.7 C 3.2 km/h
136 08-03-2014 11:50:00 10 C 7.89 g/m*3 10 C 3.2 km/h
137 08-03-2014 11:55:00 10.8 C 7.71 g/m*3 10.8 C 4.8 km/h
138 08-03-2014 12:00:00 11.4 C 8.01 g/m*3 11.4 C 3.2 km/h
139 08-03-2014 12:05:00 11.9 C 7.73 g/m*3 11.9 C 11.3 km/h
140 08-03-2014 12:10:00 12.6 C 7.52 g/m*3 12.6 C 9.7 km/h
141 08-03-2014 12:15:00 13.1 C 7.65 g/m*3 13.1 C 4.8 km/h
142 08-03-2014 12:20:00 13.4 C 7.32 g/m*3 13.4 C 11.3 km/h
143 08-03-2014 12:25:00 13.7 C 7.82 g/m*3 13.7 C 4.8 km/h
144 08-03-2014 12:30:00 14.1 C 7.65 g/m*3 14.1 C 8.1 km/h
145 08-03-2014 12:35:00 14.4 C 7.54 g/m*3 14.4 C 8.1 km/h
146 08-03-2014 12:40:00 14.7 C 7.68 g/m*3 14.7 C 11.3 km/h
147 08-03-2014 12:45:00 14.9 C 7.65 g/m*3 14.9 C 6.4 km/h
148 08-03-2014 12:50:00 15.3 C 7.44 g/m*3 15.3 C 8.1 km/h
149 08-03-2014 12:55:00 15.4 C 7.75 g/m*3 15.4 C 4.8 km/h
150 08-03-2014 13:00:00 15.4 C 7.36 g/m*3 15.4 C 6.4 km/h
Sensor: Nr:Datum:Temp:Abs-Feuchte:Windchill:Wind:
Aussen-T/F 151 08-03-2014 13:05:00 15.5 C 7.27 g/m*3 15.5 C 6.4 km/h
152 08-03-2014 13:10:00 15.7 C 7.36 g/m*3 15.7 C 4.8 km/h
153 08-03-2014 13:15:00 15.8 C 7.4 g/m*3 15.8 C 3.2 km/h
154 08-03-2014 13:20:00 15.6 C 6.92 g/m*3 15.6 C 12.9 km/h
155 08-03-2014 13:25:00 15.4 C 6.83 g/m*3 15.4 C 9.7 km/h
156 08-03-2014 13:30:00 15.4 C 7.23 g/m*3 15.4 C 8.1 km/h
157 08-03-2014 13:35:00 15.4 C 6.83 g/m*3 15.4 C 6.4 km/h
158 08-03-2014 13:40:00 15.4 C 7.09 g/m*3 15.4 C 8.1 km/h
159 08-03-2014 13:45:00 15.3 C 6.92 g/m*3 15.3 C 16.1 km/h
160 08-03-2014 13:50:00 15.3 C 7.05 g/m*3 15.3 C 11.3 km/h
161 08-03-2014 13:55:00 15.3 C 6.92 g/m*3 15.3 C 6.4 km/h
162 08-03-2014 14:00:00 15.4 C 6.83 g/m*3 15.4 C 9.7 km/h
163 08-03-2014 14:05:00 15.5 C 7.14 g/m*3 15.5 C 8.1 km/h
164 08-03-2014 14:10:00 15.7 C 7.09 g/m*3 15.7 C 11.3 km/h
165 08-03-2014 14:15:00 15.8 C 6.87 g/m*3 15.8 C 3.2 km/h
166 08-03-2014 14:20:00 15.9 C 6.91 g/m*3 15.9 C 6.4 km/h
167 08-03-2014 14:25:00 15.9 C 6.77 g/m*3 15.9 C 6.4 km/h
168 08-03-2014 14:30:00 15.9 C 6.91 g/m*3 15.9 C 8.1 km/h
169 08-03-2014 14:35:00 15.9 C 6.64 g/m*3 15.9 C 12.9 km/h
170 08-03-2014 14:40:00 15.8 C 6.73 g/m*3 15.8 C 11.3 km/h
171 08-03-2014 14:45:00 15.9 C 7.04 g/m*3 15.9 C 8.1 km/h
172 08-03-2014 14:50:00 15.9 C 7.04 g/m*3 15.9 C 9.7 km/h
173 08-03-2014 14:55:00 16 C 7.08 g/m*3 16 C 6.4 km/h
174 08-03-2014 15:00:00 16.2 C 6.9 g/m*3 16.2 C 11.3 km/h
175 08-03-2014 15:05:00 16.1 C 7.13 g/m*3 16.1 C 14.5 km/h
Sensor: Nr:Datum:Temp:Abs-Feuchte:Windchill:Wind:
Aussen-T/F 176 08-03-2014 15:10:00 16.2 C 7.03 g/m*3 16.2 C 4.8 km/h
177 08-03-2014 15:15:00 16.2 C 6.9 g/m*3 16.2 C 8.1 km/h
178 08-03-2014 15:20:00 16.3 C 7.08 g/m*3 16.3 C 4.8 km/h
179 08-03-2014 15:25:00 16.2 C 6.76 g/m*3 16.2 C 9.7 km/h
180 08-03-2014 15:30:00 16.1 C 6.85 g/m*3 16.1 C 6.4 km/h
181 08-03-2014 15:35:00 16.2 C 6.76 g/m*3 16.2 C 9.7 km/h
182 08-03-2014 15:40:00 16.2 C 6.76 g/m*3 16.2 C 8.1 km/h
183 08-03-2014 15:45:00 16.2 C 6.9 g/m*3 16.2 C 9.7 km/h
184 08-03-2014 15:50:00 16.2 C 6.62 g/m*3 16.2 C 8.1 km/h
185 08-03-2014 15:55:00 16.1 C 6.85 g/m*3 16.1 C 6.4 km/h
186 08-03-2014 16:00:00 15.9 C 6.91 g/m*3 15.9 C 8.1 km/h
187 08-03-2014 16:05:00 15.8 C 6.73 g/m*3 15.8 C 6.4 km/h
188 08-03-2014 16:10:00 15.8 C 6.73 g/m*3 15.8 C 9.7 km/h
189 08-03-2014 16:15:00 15.7 C 6.69 g/m*3 15.7 C 11.3 km/h
190 08-03-2014 16:20:00 15.6 C 6.52 g/m*3 15.6 C 8.1 km/h
191 08-03-2014 16:25:00 15.5 C 6.61 g/m*3 15.5 C 9.7 km/h
192 08-03-2014 16:30:00 15.4 C 6.57 g/m*3 15.4 C 3.2 km/h
193 08-03-2014 16:35:00 15.4 C 6.57 g/m*3 15.4 C 6.4 km/h
194 08-03-2014 16:40:00 15.3 C 6.92 g/m*3 15.3 C 3.2 km/h
195 08-03-2014 16:45:00 15 C 6.54 g/m*3 15 C 6.4 km/h
196 08-03-2014 16:50:00 14.8 C 6.84 g/m*3 14.8 C 4.8 km/h
197 08-03-2014 16:55:00 14.7 C 6.55 g/m*3 14.7 C 4.8 km/h
198 08-03-2014 17:00:00 14.7 C 7.3 g/m*3 14.7 C 3.2 km/h
199 08-03-2014 17:05:00 14.6 C 6.51 g/m*3 14.6 C 12.9 km/h
200 08-03-2014 17:10:00 14.7 C 6.55 g/m*3 14.7 C 12.9 km/h
Sensor: Nr:Datum:Temp:Abs-Feuchte:Windchill:Wind:
Aussen-T/F 201 08-03-2014 17:15:00 14.7 C 7.05 g/m*3 14.7 C 6.4 km/h
202 08-03-2014 17:20:00 14.6 C 6.88 g/m*3 14.6 C 8.1 km/h
203 08-03-2014 17:25:00 14.3 C 7 g/m*3 14.3 C 6.4 km/h
204 08-03-2014 17:30:00 14.1 C 7.04 g/m*3 14.1 C 4.8 km/h
205 08-03-2014 17:35:00 13.9 C 6.59 g/m*3 13.9 C 11.3 km/h
206 08-03-2014 17:40:00 14 C 7.36 g/m*3 14 C 3.2 km/h
207 08-03-2014 17:45:00 13.5 C 7.25 g/m*3 13.5 C 3.2 km/h
208 08-03-2014 17:50:00 12.9 C 7.33 g/m*3 12.9 C 3.2 km/h
209 08-03-2014 17:55:00 12.3 C 7.17 g/m*3 12.3 C 3.2 km/h
210 08-03-2014 18:00:00 11.8 C 7.16 g/m*3 11.8 C 4.8 km/h
211 08-03-2014 18:05:00 11.3 C 7.04 g/m*3 11.3 C 3.2 km/h
212 08-03-2014 18:10:00 11.1 C 7.05 g/m*3 11.1 C 6.4 km/h
213 08-03-2014 18:15:00 10.8 C 7.02 g/m*3 10.29 C 6.4 km/h
214 08-03-2014 18:20:00 10.5 C 6.89 g/m*3 10.5 C 4.8 km/h
215 08-03-2014 18:25:00 10.3 C 6.9 g/m*3 9.72 C 6.4 km/h
216 08-03-2014 18:30:00 10 C 6.86 g/m*3 9.37 C 6.4 km/h
217 08-03-2014 18:35:00 9.8 C 6.77 g/m*3 9.8 C 4.8 km/h
218 08-03-2014 18:40:00 9.6 C 6.78 g/m*3 8.91 C 6.4 km/h
219 08-03-2014 18:45:00 9.4 C 6.78 g/m*3 8.68 C 6.4 km/h
220 08-03-2014 18:50:00 9.3 C 6.74 g/m*3 8.16 C 8.1 km/h
221 08-03-2014 18:55:00 9.2 C 6.7 g/m*3 8.05 C 8.1 km/h
222 08-03-2014 19:00:00 9.1 C 6.74 g/m*3 9.1 C 4.8 km/h
223 08-03-2014 19:05:00 9 C 6.7 g/m*3 8.21 C 6.4 km/h
224 08-03-2014 19:10:00 8.8 C 6.7 g/m*3 7.58 C 8.1 km/h
225 08-03-2014 19:15:00 8.8 C 6.79 g/m*3 7.98 C 6.4 km/h
Sensor: Nr:Datum:Temp:Abs-Feuchte:Windchill:Wind:
Aussen-T/F 226 08-03-2014 19:20:00 8.6 C 6.62 g/m*3 7.75 C 6.4 km/h
227 08-03-2014 19:25:00 8.6 C 6.62 g/m*3 7.75 C 6.4 km/h
228 08-03-2014 19:30:00 8.6 C 6.62 g/m*3 8.6 C 4.8 km/h
229 08-03-2014 19:35:00 8.6 C 6.7 g/m*3 7.75 C 6.4 km/h
230 08-03-2014 19:40:00 8.4 C 6.62 g/m*3 7.52 C 6.4 km/h
231 08-03-2014 19:45:00 8.3 C 6.66 g/m*3 8.3 C 4.8 km/h
232 08-03-2014 19:50:00 8.2 C 6.62 g/m*3 8.2 C 4.8 km/h
233 08-03-2014 19:55:00 8 C 6.61 g/m*3 8 C 4.8 km/h
234 08-03-2014 20:00:00 7.8 C 6.53 g/m*3 7.8 C 4.8 km/h
235 08-03-2014 20:05:00 7.7 C 6.57 g/m*3 7.7 C 4.8 km/h
236 08-03-2014 20:10:00 7.5 C 6.56 g/m*3 7.5 C 4.8 km/h
237 08-03-2014 20:15:00 7.3 C 6.48 g/m*3 7.3 C 4.8 km/h
238 08-03-2014 20:20:00 7.3 C 6.48 g/m*3 7.3 C 3.2 km/h
239 08-03-2014 20:25:00 7.2 C 6.59 g/m*3 7.2 C 3.2 km/h
240 08-03-2014 20:30:00 7.1 C 6.55 g/m*3 7.1 C 3.2 km/h
241 08-03-2014 20:35:00 6.9 C 6.47 g/m*3 6.9 C 3.2 km/h
242 08-03-2014 20:40:00 6.9 C 6.47 g/m*3 6.9 C 3.2 km/h
243 08-03-2014 20:45:00 6.9 C 6.47 g/m*3 6.9 C 3.2 km/h
244 08-03-2014 20:50:00 6.9 C 6.47 g/m*3 6.9 C 3.2 km/h
245 08-03-2014 20:55:00 6.7 C 6.38 g/m*3 6.7 C 0 km/h
246 08-03-2014 21:00:00 6.6 C 6.42 g/m*3 6.6 C 1.6 km/h
247 08-03-2014 21:05:00 6.4 C 6.33 g/m*3 6.4 C 1.6 km/h
248 08-03-2014 21:10:00 6.3 C 6.29 g/m*3 6.3 C 3.2 km/h
249 08-03-2014 21:15:00 6.3 C 6.37 g/m*3 6.3 C 0 km/h
250 08-03-2014 21:20:00 6.2 C 6.25 g/m*3 6.2 C 1.6 km/h
Sensor: Nr:Datum:Temp:Abs-Feuchte:Windchill:Wind:
Aussen-T/F 251 08-03-2014 21:25:00 6.2 C 6.32 g/m*3 6.2 C 0 km/h
252 08-03-2014 21:30:00 6.2 C 6.32 g/m*3 6.2 C 0 km/h
253 08-03-2014 21:35:00 6.1 C 6.21 g/m*3 6.1 C 0 km/h
254 08-03-2014 21:40:00 5.9 C 6.13 g/m*3 5.9 C 0 km/h
255 08-03-2014 21:45:00 5.8 C 6.09 g/m*3 5.8 C 0 km/h
256 08-03-2014 21:50:00 5.7 C 6.12 g/m*3 5.7 C 0 km/h
257 08-03-2014 21:55:00 5.6 C 6.08 g/m*3 5.6 C 0 km/h
258 08-03-2014 22:00:00 5.4 C 6.07 g/m*3 5.4 C 0 km/h
259 08-03-2014 22:05:00 5.4 C 6.07 g/m*3 5.4 C 0 km/h
260 08-03-2014 22:10:00 5.3 C 6.03 g/m*3 5.3 C 0 km/h
261 08-03-2014 22:15:00 5.3 C 6.03 g/m*3 5.3 C 0 km/h
262 08-03-2014 22:20:00 5.2 C 5.99 g/m*3 5.2 C 0 km/h
263 08-03-2014 22:25:00 5.2 C 6.06 g/m*3 5.2 C 0 km/h
264 08-03-2014 22:30:00 5.1 C 5.95 g/m*3 5.1 C 0 km/h
265 08-03-2014 22:35:00 5.1 C 5.95 g/m*3 5.1 C 0 km/h
266 08-03-2014 22:40:00 5.1 C 5.95 g/m*3 5.1 C 0 km/h
267 08-03-2014 22:45:00 4.8 C 5.83 g/m*3 4.8 C 0 km/h
268 08-03-2014 22:50:00 4.8 C 5.83 g/m*3 4.8 C 0 km/h
269 08-03-2014 22:55:00 4.7 C 5.8 g/m*3 4.7 C 0 km/h
270 08-03-2014 23:00:00 4.7 C 5.8 g/m*3 4.7 C 0 km/h
271 08-03-2014 23:05:00 4.6 C 5.82 g/m*3 4.6 C 0 km/h
272 08-03-2014 23:10:00 4.6 C 5.82 g/m*3 4.6 C 1.6 km/h
273 08-03-2014 23:15:00 4.4 C 5.75 g/m*3 4.4 C 0 km/h
274 08-03-2014 23:20:00 4.3 C 5.71 g/m*3 4.3 C 0 km/h
275 08-03-2014 23:25:00 4.1 C 5.63 g/m*3 4.1 C 0 km/h
Sensor: Nr:Datum:Temp:Abs-Feuchte:Windchill:Wind:
Aussen-T/F 276 08-03-2014 23:30:00 3.9 C 5.56 g/m*3 3.9 C 0 km/h
277 08-03-2014 23:35:00 3.8 C 5.58 g/m*3 3.8 C 0 km/h
278 08-03-2014 23:40:00 3.8 C 5.65 g/m*3 3.8 C 0 km/h
279 08-03-2014 23:45:00 3.8 C 5.65 g/m*3 3.8 C 0 km/h
280 08-03-2014 23:50:00 3.7 C 5.55 g/m*3 3.7 C 0 km/h
281 08-03-2014 23:55:00 3.6 C 5.51 g/m*3 3.6 C 0 km/h
282 09-03-2014 00:00:00 3.5 C 5.53 g/m*3 3.5 C 0 km/h
283 09-03-2014 00:05:00 3.5 C 5.53 g/m*3 3.5 C 0 km/h
284 09-03-2014 00:10:00 3.5 C 5.53 g/m*3 3.5 C 0 km/h
285 09-03-2014 00:15:00 3.4 C 5.5 g/m*3 3.4 C 0 km/h
286 09-03-2014 00:20:00 3.4 C 5.5 g/m*3 3.4 C 0 km/h
287 09-03-2014 00:25:00 3.3 C 5.46 g/m*3 3.3 C 0 km/h
288 09-03-2014 00:30:00 3.2 C 5.42 g/m*3 3.2 C 0 km/h
289 09-03-2014 00:35:00 3.2 C 5.48 g/m*3 3.2 C 0 km/h
290 09-03-2014 00:40:00 3.1 C 5.45 g/m*3 3.1 C 0 km/h
291 09-03-2014 00:45:00 3 C 5.41 g/m*3 3 C 0 km/h
292 09-03-2014 00:50:00 2.9 C 5.37 g/m*3 2.9 C 0 km/h
293 09-03-2014 00:55:00 2.9 C 5.37 g/m*3 2.9 C 0 km/h
294 09-03-2014 01:00:00 2.8 C 5.34 g/m*3 2.8 C 0 km/h
295 09-03-2014 01:05:00 2.8 C 5.4 g/m*3 2.8 C 0 km/h
296 09-03-2014 01:10:00 2.8 C 5.4 g/m*3 2.8 C 0 km/h
297 09-03-2014 01:15:00 2.8 C 5.4 g/m*3 2.8 C 0 km/h
298 09-03-2014 01:20:00 2.8 C 5.4 g/m*3 2.8 C 0 km/h
299 09-03-2014 01:25:00 2.7 C 5.36 g/m*3 2.7 C 0 km/h
300 09-03-2014 01:30:00 2.7 C 5.36 g/m*3 2.7 C 0 km/h
Sensor: Nr:Datum:Temp:Abs-Feuchte:Windchill:Wind:
Aussen-T/F 301 09-03-2014 01:35:00 2.6 C 5.32 g/m*3 2.6 C 0 km/h
302 09-03-2014 01:40:00 2.6 C 5.32 g/m*3 2.6 C 0 km/h
303 09-03-2014 01:45:00 2.5 C 5.29 g/m*3 2.5 C 0 km/h
304 09-03-2014 01:50:00 2.4 C 5.25 g/m*3 2.4 C 0 km/h
305 09-03-2014 01:55:00 2.3 C 5.27 g/m*3 2.3 C 0 km/h
306 09-03-2014 02:00:00 2.3 C 5.27 g/m*3 2.3 C 0 km/h
307 09-03-2014 02:05:00 2.2 C 5.24 g/m*3 2.2 C 0 km/h
308 09-03-2014 02:10:00 2.2 C 5.24 g/m*3 2.2 C 0 km/h
309 09-03-2014 02:15:00 2.1 C 5.2 g/m*3 2.1 C 0 km/h
310 09-03-2014 02:20:00 2.1 C 5.2 g/m*3 2.1 C 0 km/h
311 09-03-2014 02:25:00 2 C 5.17 g/m*3 2 C 0 km/h
312 09-03-2014 02:30:00 2 C 5.17 g/m*3 2 C 0 km/h
313 09-03-2014 02:35:00 1.9 C 5.19 g/m*3 1.9 C 0 km/h
314 09-03-2014 02:40:00 1.9 C 5.19 g/m*3 1.9 C 0 km/h
315 09-03-2014 02:45:00 1.9 C 5.19 g/m*3 1.9 C 0 km/h
316 09-03-2014 02:50:00 1.9 C 5.19 g/m*3 1.9 C 0 km/h
317 09-03-2014 02:55:00 1.9 C 5.19 g/m*3 1.9 C 0 km/h
318 09-03-2014 03:00:00 1.9 C 5.19 g/m*3 1.9 C 0 km/h
319 09-03-2014 03:05:00 1.8 C 5.15 g/m*3 1.8 C 0 km/h
320 09-03-2014 03:10:00 1.8 C 5.15 g/m*3 1.8 C 0 km/h
321 09-03-2014 03:15:00 1.8 C 5.15 g/m*3 1.8 C 0 km/h
322 09-03-2014 03:20:00 1.8 C 5.15 g/m*3 1.8 C 0 km/h
323 09-03-2014 03:25:00 1.7 C 5.12 g/m*3 1.7 C 0 km/h
324 09-03-2014 03:30:00 1.6 C 5.08 g/m*3 1.6 C 0 km/h
325 09-03-2014 03:35:00 1.6 C 5.08 g/m*3 1.6 C 0 km/h
Sensor: Nr:Datum:Temp:Abs-Feuchte:Windchill:Wind:
Aussen-T/F 326 09-03-2014 03:40:00 1.6 C 5.08 g/m*3 1.6 C 0 km/h
327 09-03-2014 03:45:00 1.5 C 5.05 g/m*3 1.5 C 0 km/h
328 09-03-2014 03:50:00 1.5 C 5.05 g/m*3 1.5 C 0 km/h
329 09-03-2014 03:55:00 1.4 C 5.01 g/m*3 1.4 C 0 km/h
330 09-03-2014 04:00:00 1.4 C 5.01 g/m*3 1.4 C 0 km/h
331 09-03-2014 04:05:00 1.3 C 4.98 g/m*3 1.3 C 0 km/h
332 09-03-2014 04:10:00 1.3 C 4.98 g/m*3 1.3 C 0 km/h
333 09-03-2014 04:15:00 1.3 C 4.98 g/m*3 1.3 C 0 km/h
334 09-03-2014 04:20:00 1.2 C 4.95 g/m*3 1.2 C 0 km/h
335 09-03-2014 04:25:00 1.2 C 5 g/m*3 1.2 C 0 km/h
336 09-03-2014 04:30:00 1.2 C 5 g/m*3 1.2 C 0 km/h
337 09-03-2014 04:35:00 1.1 C 4.96 g/m*3 1.1 C 0 km/h
338 09-03-2014 04:40:00 1.2 C 5 g/m*3 1.2 C 0 km/h
339 09-03-2014 04:45:00 1.2 C 5 g/m*3 1.2 C 0 km/h
340 09-03-2014 04:50:00 1.2 C 5 g/m*3 1.2 C 0 km/h
341 09-03-2014 04:55:00 1.2 C 5 g/m*3 1.2 C 0 km/h
342 09-03-2014 05:00:00 1.2 C 5 g/m*3 1.2 C 0 km/h
343 09-03-2014 05:05:00 1.1 C 4.96 g/m*3 1.1 C 0 km/h
344 09-03-2014 05:10:00 1.1 C 4.96 g/m*3 1.1 C 0 km/h
345 09-03-2014 05:15:00 1.1 C 4.96 g/m*3 1.1 C 0 km/h
346 09-03-2014 05:20:00 1 C 4.93 g/m*3 1 C 0 km/h
347 09-03-2014 05:25:00 0.9 C 4.9 g/m*3 0.9 C 0 km/h
348 09-03-2014 05:30:00 0.9 C 4.9 g/m*3 0.9 C 0 km/h
349 09-03-2014 05:35:00 0.8 C 4.86 g/m*3 0.8 C 0 km/h
350 09-03-2014 05:40:00 0.8 C 4.86 g/m*3 0.8 C 0 km/h
Sensor: Nr:Datum:Temp:Abs-Feuchte:Windchill:Wind:
Aussen-T/F 351 09-03-2014 05:45:00 0.7 C 4.83 g/m*3 0.7 C 0 km/h
352 09-03-2014 05:50:00 0.7 C 4.83 g/m*3 0.7 C 0 km/h
353 09-03-2014 05:55:00 0.6 C 4.8 g/m*3 0.6 C 0 km/h
354 09-03-2014 06:00:00 0.6 C 4.8 g/m*3 0.6 C 0 km/h
355 09-03-2014 06:05:00 0.5 C 4.76 g/m*3 0.5 C 0 km/h
356 09-03-2014 06:10:00 0.4 C 4.73 g/m*3 0.4 C 0 km/h
357 09-03-2014 06:15:00 0.4 C 4.73 g/m*3 0.4 C 0 km/h
358 09-03-2014 06:20:00 0.3 C 4.7 g/m*3 0.3 C 0 km/h
359 09-03-2014 06:25:00 0.3 C 4.7 g/m*3 0.3 C 0 km/h
360 09-03-2014 06:30:00 0.3 C 4.7 g/m*3 0.3 C 0 km/h
361 09-03-2014 06:35:00 0.2 C 4.67 g/m*3 0.2 C 0 km/h
362 09-03-2014 06:40:00 0.2 C 4.67 g/m*3 0.2 C 0 km/h
363 09-03-2014 06:45:00 0.1 C 4.63 g/m*3 0.1 C 0 km/h
364 09-03-2014 06:50:00 0.1 C 4.63 g/m*3 0.1 C 0 km/h
365 09-03-2014 06:55:00 0.1 C 4.68 g/m*3 0.1 C 0 km/h
366 09-03-2014 07:00:00 0.1 C 4.68 g/m*3 0.1 C 0 km/h
367 09-03-2014 07:05:00 0.1 C 4.68 g/m*3 0.1 C 0 km/h
368 09-03-2014 07:10:00 0.1 C 4.68 g/m*3 0.1 C 0 km/h
369 09-03-2014 07:15:00 0.1 C 4.68 g/m*3 0.1 C 0 km/h
370 09-03-2014 07:20:00 0.1 C 4.68 g/m*3 0.1 C 0 km/h
371 09-03-2014 07:25:00 0.1 C 4.68 g/m*3 0.1 C 0 km/h
372 09-03-2014 07:30:00 0.1 C 4.68 g/m*3 0.1 C 0 km/h
373 09-03-2014 07:35:00 0.1 C 4.68 g/m*3 0.1 C 0 km/h
374 09-03-2014 07:40:00 0.1 C 4.68 g/m*3 0.1 C 0 km/h
375 09-03-2014 07:45:00 0.1 C 4.68 g/m*3 0.1 C 0 km/h
Sensor: Nr:Datum:Temp:Abs-Feuchte:Windchill:Wind:
Aussen-T/F 376 09-03-2014 07:50:00 0.1 C 4.68 g/m*3 0.1 C 0 km/h
377 09-03-2014 07:55:00 0.1 C 4.68 g/m*3 0.1 C 0 km/h
378 09-03-2014 08:00:00 0.1 C 4.68 g/m*3 0.1 C 0 km/h
379 09-03-2014 08:05:00 0.1 C 4.68 g/m*3 0.1 C 0 km/h
380 09-03-2014 08:10:00 0.1 C 4.68 g/m*3 0.1 C 1.6 km/h
381 09-03-2014 08:15:00 0.2 C 4.72 g/m*3 0.2 C 0 km/h
382 09-03-2014 08:20:00 0.2 C 4.72 g/m*3 0.2 C 0 km/h
383 09-03-2014 08:25:00 0.2 C 4.72 g/m*3 0.2 C 0 km/h
384 09-03-2014 08:30:00 0.2 C 4.72 g/m*3 0.2 C 0 km/h
385 09-03-2014 08:35:00 0.2 C 4.72 g/m*3 0.2 C 0 km/h
386 09-03-2014 08:40:00 0.2 C 4.72 g/m*3 0.2 C 0 km/h
387 09-03-2014 08:45:00 0.2 C 4.72 g/m*3 0.2 C 0 km/h
388 09-03-2014 08:50:00 0.2 C 4.72 g/m*3 0.2 C 0 km/h
389 09-03-2014 08:55:00 0.2 C 4.72 g/m*3 0.2 C 0 km/h
390 09-03-2014 09:00:00 0.3 C 4.75 g/m*3 0.3 C 0 km/h
391 09-03-2014 09:05:00 0.4 C 4.78 g/m*3 0.4 C 0 km/h
392 09-03-2014 09:10:00 0.5 C 4.81 g/m*3 0.5 C 0 km/h
393 09-03-2014 09:15:00 0.6 C 4.9 g/m*3 0.6 C 0 km/h
394 09-03-2014 09:20:00 0.7 C 4.93 g/m*3 0.7 C 0 km/h
395 09-03-2014 09:25:00 0.8 C 4.97 g/m*3 0.8 C 0 km/h
396 09-03-2014 09:30:00 0.9 C 5 g/m*3 0.9 C 0 km/h
397 09-03-2014 09:35:00 1 C 5.03 g/m*3 1 C 1.6 km/h
398 09-03-2014 09:40:00 1.2 C 5.1 g/m*3 1.2 C 0 km/h
399 09-03-2014 09:45:00 1.4 C 5.17 g/m*3 1.4 C 0 km/h
400 09-03-2014 09:50:00 1.7 C 5.28 g/m*3 1.7 C 0 km/h
Sensor: Nr:Datum:Temp:Abs-Feuchte:Windchill:Wind:
Aussen-T/F 401 09-03-2014 09:55:00 2 C 5.39 g/m*3 2 C 0 km/h
402 09-03-2014 10:00:00 2.2 C 5.46 g/m*3 2.2 C 1.6 km/h
403 09-03-2014 10:05:00 2.5 C 5.58 g/m*3 2.5 C 3.2 km/h
404 09-03-2014 10:10:00 2.8 C 5.69 g/m*3 2.8 C 0 km/h
405 09-03-2014 10:15:00 2.8 C 5.69 g/m*3 2.8 C 0 km/h
406 09-03-2014 10:20:00 2.8 C 5.69 g/m*3 2.8 C 0 km/h
407 09-03-2014 10:40:00 4.2 C 6.19 g/m*3 4.2 C 0 km/h
408 09-03-2014 10:45:00 4.5 C 6.31 g/m*3 4.5 C 1.6 km/h
409 09-03-2014 10:50:00 4.8 C 6.37 g/m*3 4.8 C 0 km/h
410 09-03-2014 10:55:00 5.1 C 6.5 g/m*3 5.1 C 0 km/h
411 09-03-2014 11:00:00 5.4 C 6.56 g/m*3 5.4 C 1.6 km/h
412 09-03-2014 11:05:00 5.7 C 6.62 g/m*3 5.7 C 1.6 km/h
413 09-03-2014 11:10:00 6.1 C 6.72 g/m*3 6.1 C 0 km/h
414 09-03-2014 11:15:00 6.4 C 6.78 g/m*3 6.4 C 0 km/h
415 09-03-2014 11:20:00 6.7 C 6.91 g/m*3 6.7 C 0 km/h
416 09-03-2014 11:25:00 6.9 C 6.93 g/m*3 6.9 C 0 km/h
417 09-03-2014 11:30:00 7.3 C 7.03 g/m*3 7.3 C 0 km/h
418 09-03-2014 11:35:00 7.6 C 7.09 g/m*3 7.6 C 0 km/h
419 09-03-2014 11:40:00 7.9 C 7.15 g/m*3 7.9 C 0 km/h
420 09-03-2014 11:45:00 8.3 C 7.16 g/m*3 8.3 C 3.2 km/h
421 09-03-2014 11:50:00 8.8 C 7.05 g/m*3 8.8 C 3.2 km/h
422 09-03-2014 11:55:00 9.3 C 7.28 g/m*3 9.3 C 4.8 km/h
423 09-03-2014 12:00:00 9.7 C 7.38 g/m*3 9.7 C 4.8 km/h
424 09-03-2014 12:05:00 9.9 C 7.38 g/m*3 9.9 C 3.2 km/h
425 09-03-2014 12:10:00 10.2 C 7.42 g/m*3 10.2 C 3.2 km/h
Sensor: Nr:Datum:Temp:Abs-Feuchte:Windchill:Wind:
Aussen-T/F 426 09-03-2014 12:15:00 10.6 C 7.61 g/m*3 10.6 C 1.6 km/h
427 09-03-2014 12:20:00 11.1 C 7.86 g/m*3 11.1 C 3.2 km/h
428 09-03-2014 12:25:00 11.7 C 7.74 g/m*3 11.7 C 3.2 km/h
429 09-03-2014 12:30:00 12.1 C 7.83 g/m*3 12.1 C 3.2 km/h
430 09-03-2014 12:35:00 12.4 C 7.76 g/m*3 12.4 C 3.2 km/h
431 09-03-2014 12:40:00 12.7 C 7.79 g/m*3 12.7 C 3.2 km/h
432 09-03-2014 12:45:00 13.1 C 7.76 g/m*3 13.1 C 3.2 km/h
433 09-03-2014 12:50:00 13.3 C 7.74 g/m*3 13.3 C 3.2 km/h
434 09-03-2014 12:55:00 13.7 C 7.7 g/m*3 13.7 C 3.2 km/h
435 09-03-2014 13:00:00 14.1 C 8.01 g/m*3 14.1 C 1.6 km/h
436 09-03-2014 13:05:00 14.3 C 7.74 g/m*3 14.3 C 3.2 km/h
437 09-03-2014 13:10:00 14.8 C 6.08 g/m*3 14.8 C 3.2 km/h
438 09-03-2014 13:15:00 15.8 C 7 g/m*3 15.8 C 4.8 km/h
439 09-03-2014 13:20:00 16.7 C 5.68 g/m*3 16.7 C 3.2 km/h
440 09-03-2014 13:25:00 17.4 C 5.93 g/m*3 17.4 C 3.2 km/h
441 09-03-2014 13:30:00 18 C 5.68 g/m*3 18 C 3.2 km/h
442 09-03-2014 13:35:00 18.1 C 5.56 g/m*3 18.1 C 6.4 km/h
443 09-03-2014 13:40:00 18.2 C 4.97 g/m*3 18.2 C 8.1 km/h
444 09-03-2014 13:45:00 18.3 C 5.16 g/m*3 18.3 C 8.1 km/h
445 09-03-2014 13:50:00 18.4 C 5.19 g/m*3 18.4 C 6.4 km/h
446 09-03-2014 13:55:00 18.6 C 5.25 g/m*3 18.6 C 8.1 km/h
447 09-03-2014 14:00:00 18.6 C 5.57 g/m*3 18.6 C 3.2 km/h
448 09-03-2014 14:05:00 18.7 C 4.32 g/m*3 18.7 C 4.8 km/h
449 09-03-2014 14:10:00 18.8 C 5.15 g/m*3 18.8 C 8.1 km/h
450 09-03-2014 14:15:00 18.8 C 4.35 g/m*3 18.8 C 6.4 km/h
Sensor: Nr:Datum:Temp:Abs-Feuchte:Windchill:Wind:
Aussen-T/F 451 09-03-2014 14:20:00 18.9 C 5.67 g/m*3 18.9 C 6.4 km/h
452 09-03-2014 14:25:00 19.1 C 4.59 g/m*3 19.1 C 4.8 km/h
453 09-03-2014 14:30:00 19.3 C 4.98 g/m*3 19.3 C 6.4 km/h
454 09-03-2014 14:35:00 19.4 C 4.67 g/m*3 19.4 C 6.4 km/h
455 09-03-2014 14:40:00 19.6 C 5.23 g/m*3 19.6 C 6.4 km/h
456 09-03-2014 14:45:00 19.7 C 5.26 g/m*3 19.7 C 8.1 km/h
457 09-03-2014 14:50:00 19.7 C 5.43 g/m*3 19.7 C 6.4 km/h
458 09-03-2014 14:55:00 19.7 C 4.42 g/m*3 19.7 C 4.8 km/h
459 09-03-2014 15:00:00 19.8 C 4.27 g/m*3 19.8 C 6.4 km/h
460 09-03-2014 15:05:00 20 C 3.97 g/m*3 20 C 6.4 km/h
461 09-03-2014 15:10:00 20 C 3.97 g/m*3 20 C 6.4 km/h
462 09-03-2014 15:15:00 20.3 C 5.28 g/m*3 20.3 C 6.4 km/h
463 09-03-2014 15:20:00 20.1 C 3.82 g/m*3 20.1 C 8.1 km/h
464 09-03-2014 15:25:00 20.3 C 4.22 g/m*3 20.3 C 9.7 km/h
465 09-03-2014 15:30:00 20.4 C 5.66 g/m*3 20.4 C 3.2 km/h
466 09-03-2014 15:35:00 20.3 C 5.45 g/m*3 20.3 C 4.8 km/h
467 09-03-2014 15:40:00 20.5 C 4.63 g/m*3 20.5 C 4.8 km/h
468 09-03-2014 15:45:00 20.5 C 5.69 g/m*3 20.5 C 4.8 km/h
469 09-03-2014 15:50:00 20 C 4.84 g/m*3 20 C 3.2 km/h
470 09-03-2014 15:55:00 19.3 C 5.81 g/m*3 19.3 C 3.2 km/h
471 09-03-2014 16:00:00 18.4 C 6.29 g/m*3 18.4 C 4.8 km/h
472 09-03-2014 16:05:00 18.1 C 5.41 g/m*3 18.1 C 6.4 km/h
473 09-03-2014 16:10:00 18.1 C 5.87 g/m*3 18.1 C 8.1 km/h
474 09-03-2014 16:15:00 18 C 5.22 g/m*3 18 C 4.8 km/h
475 09-03-2014 16:20:00 18.2 C 5.28 g/m*3 18.2 C 4.8 km/h
Sensor: Nr:Datum:Temp:Abs-Feuchte:Windchill:Wind:
Aussen-T/F 476 09-03-2014 16:25:00 17.9 C 6.41 g/m*3 17.9 C 3.2 km/h
477 09-03-2014 16:30:00 17.1 C 6.55 g/m*3 17.1 C 1.6 km/h
478 09-03-2014 16:35:00 16.8 C 7.01 g/m*3 16.8 C 4.8 km/h
479 09-03-2014 16:40:00 16.5 C 6.74 g/m*3 16.5 C 3.2 km/h
480 09-03-2014 16:45:00 16.3 C 6.66 g/m*3 16.3 C 3.2 km/h
481 09-03-2014 16:50:00 16.2 C 6.76 g/m*3 16.2 C 1.6 km/h
482 09-03-2014 16:55:00 16.1 C 6.72 g/m*3 16.1 C 3.2 km/h
483 09-03-2014 17:00:00 16 C 6.95 g/m*3 16 C 4.8 km/h
484 09-03-2014 17:05:00 15.8 C 6.87 g/m*3 15.8 C 3.2 km/h
485 09-03-2014 17:10:00 15.7 C 6.82 g/m*3 15.7 C 4.8 km/h
486 09-03-2014 17:15:00 15.4 C 6.7 g/m*3 15.4 C 4.8 km/h
487 09-03-2014 17:20:00 15.3 C 6.79 g/m*3 15.3 C 4.8 km/h
488 09-03-2014 17:25:00 15.1 C 6.84 g/m*3 15.1 C 6.4 km/h
489 09-03-2014 17:30:00 15 C 6.8 g/m*3 15 C 6.4 km/h
490 09-03-2014 17:35:00 14.8 C 6.59 g/m*3 14.8 C 4.8 km/h
491 09-03-2014 17:40:00 14.8 C 6.71 g/m*3 14.8 C 4.8 km/h
492 09-03-2014 17:45:00 14.7 C 6.8 g/m*3 14.7 C 6.4 km/h
493 09-03-2014 17:50:00 14.4 C 6.8 g/m*3 14.4 C 6.4 km/h
494 09-03-2014 17:55:00 14.2 C 6.72 g/m*3 14.2 C 4.8 km/h
495 09-03-2014 18:00:00 14 C 6.75 g/m*3 14 C 6.4 km/h
496 09-03-2014 18:05:00 13.7 C 6.63 g/m*3 13.7 C 4.8 km/h
497 09-03-2014 18:10:00 13.5 C 6.67 g/m*3 13.5 C 6.4 km/h
498 09-03-2014 18:15:00 13.1 C 6.62 g/m*3 13.1 C 6.4 km/h
499 09-03-2014 18:20:00 12.9 C 6.54 g/m*3 12.9 C 6.4 km/h
500 09-03-2014 18:25:00 12.6 C 6.53 g/m*3 12.6 C 6.4 km/h
Sensor: Nr:Datum:Temp:Abs-Feuchte:Windchill:Wind:
Aussen-T/F 501 09-03-2014 18:30:00 12.3 C 6.52 g/m*3 12.3 C 6.4 km/h
502 09-03-2014 18:35:00 12.2 C 6.47 g/m*3 12.2 C 6.4 km/h
503 09-03-2014 18:40:00 12 C 6.39 g/m*3 12 C 6.4 km/h
504 09-03-2014 18:45:00 11.8 C 6.42 g/m*3 11.8 C 6.4 km/h
505 09-03-2014 18:50:00 11.6 C 6.34 g/m*3 11.6 C 6.4 km/h
506 09-03-2014 18:55:00 11.4 C 6.47 g/m*3 11.4 C 6.4 km/h
507 09-03-2014 19:00:00 11.2 C 6.39 g/m*3 11.2 C 6.4 km/h
508 09-03-2014 19:05:00 11.2 C 6.39 g/m*3 11.2 C 4.8 km/h
509 09-03-2014 19:10:00 11.1 C 6.45 g/m*3 11.1 C 4.8 km/h
510 09-03-2014 19:15:00 10.9 C 6.37 g/m*3 10.41 C 6.4 km/h
511 09-03-2014 19:20:00 10.8 C 6.52 g/m*3 10.29 C 6.4 km/h
512 09-03-2014 19:25:00 10.7 C 6.48 g/m*3 10.7 C 4.8 km/h
513 09-03-2014 19:30:00 10.4 C 6.55 g/m*3 10.4 C 4.8 km/h
514 09-03-2014 19:35:00 10.1 C 6.52 g/m*3 10.1 C 4.8 km/h
515 09-03-2014 19:40:00 9.9 C 6.63 g/m*3 9.9 C 4.8 km/h
516 09-03-2014 19:45:00 9.7 C 6.55 g/m*3 9.7 C 4.8 km/h
517 09-03-2014 19:50:00 9.5 C 6.64 g/m*3 9.5 C 4.8 km/h
518 09-03-2014 19:55:00 9.3 C 6.56 g/m*3 9.3 C 4.8 km/h
519 09-03-2014 20:00:00 9.2 C 6.52 g/m*3 9.2 C 4.8 km/h
520 09-03-2014 20:05:00 9.2 C 6.52 g/m*3 9.2 C 4.8 km/h
521 09-03-2014 20:10:00 9.1 C 6.57 g/m*3 9.1 C 3.2 km/h
522 09-03-2014 20:15:00 8.8 C 6.53 g/m*3 8.8 C 4.8 km/h
523 09-03-2014 20:20:00 8.8 C 6.53 g/m*3 8.8 C 4.8 km/h
524 09-03-2014 20:25:00 8.7 C 6.49 g/m*3 8.7 C 1.6 km/h
525 09-03-2014 20:30:00 8.6 C 6.53 g/m*3 8.6 C 1.6 km/h
Sensor: Nr:Datum:Temp:Abs-Feuchte:Windchill:Wind:
Aussen-T/F 526 09-03-2014 20:35:00 8.4 C 6.45 g/m*3 8.4 C 1.6 km/h
527 09-03-2014 20:40:00 8.4 C 6.36 g/m*3 8.4 C 0 km/h
528 09-03-2014 20:45:00 8.2 C 6.36 g/m*3 8.2 C 1.6 km/h
529 09-03-2014 20:50:00 8.1 C 6.41 g/m*3 8.1 C 3.2 km/h
530 09-03-2014 20:55:00 7.9 C 6.41 g/m*3 7.9 C 0 km/h
531 09-03-2014 21:00:00 7.9 C 6.41 g/m*3 7.9 C 0 km/h
532 09-03-2014 21:05:00 7.8 C 6.28 g/m*3 7.8 C 1.6 km/h
533 09-03-2014 21:10:00 7.8 C 6.2 g/m*3 7.8 C 1.6 km/h
534 09-03-2014 21:15:00 7.7 C 6.08 g/m*3 7.7 C 0 km/h
535 09-03-2014 21:20:00 7.6 C 6.04 g/m*3 7.6 C 0 km/h
536 09-03-2014 21:25:00 7.4 C 5.96 g/m*3 7.4 C 0 km/h
537 09-03-2014 21:30:00 7.3 C 6 g/m*3 7.3 C 0 km/h
538 09-03-2014 21:35:00 7.1 C 6.01 g/m*3 7.1 C 0 km/h
539 09-03-2014 21:40:00 7 C 5.97 g/m*3 7 C 0 km/h
540 09-03-2014 21:45:00 6.8 C 6.04 g/m*3 6.8 C 0 km/h
541 09-03-2014 21:50:00 6.6 C 6.04 g/m*3 6.6 C 0 km/h
542 09-03-2014 21:55:00 6.5 C 6 g/m*3 6.5 C 0 km/h
543 09-03-2014 22:00:00 6.5 C 5.92 g/m*3 6.5 C 0 km/h
544 09-03-2014 22:05:00 6.6 C 5.96 g/m*3 6.6 C 0 km/h
545 09-03-2014 22:10:00 6.6 C 6.04 g/m*3 6.6 C 0 km/h
546 09-03-2014 22:15:00 6.4 C 5.89 g/m*3 6.4 C 0 km/h
547 09-03-2014 22:20:00 6.3 C 5.85 g/m*3 6.3 C 0 km/h
548 09-03-2014 22:25:00 6 C 5.73 g/m*3 6 C 0 km/h
549 09-03-2014 22:30:00 5.8 C 5.66 g/m*3 5.8 C 0 km/h
550 09-03-2014 22:35:00 5.6 C 5.59 g/m*3 5.6 C 0 km/h
Sensor: Nr:Datum:Temp:Abs-Feuchte:Windchill:Wind:
Aussen-T/F 551 09-03-2014 22:40:00 5.4 C 5.65 g/m*3 5.4 C 0 km/h
552 09-03-2014 22:45:00 5.3 C 5.68 g/m*3 5.3 C 0 km/h
553 09-03-2014 22:50:00 5.2 C 5.65 g/m*3 5.2 C 0 km/h
554 09-03-2014 22:55:00 5 C 5.57 g/m*3 5 C 0 km/h
555 09-03-2014 23:00:00 4.8 C 5.5 g/m*3 4.8 C 0 km/h
556 09-03-2014 23:05:00 4.8 C 5.57 g/m*3 4.8 C 0 km/h
557 09-03-2014 23:10:00 4.7 C 5.53 g/m*3 4.7 C 0 km/h
558 09-03-2014 23:15:00 4.7 C 5.6 g/m*3 4.7 C 0 km/h
559 09-03-2014 23:20:00 4.7 C 5.6 g/m*3 4.7 C 0 km/h
560 09-03-2014 23:25:00 4.5 C 5.52 g/m*3 4.5 C 0 km/h
561 09-03-2014 23:30:00 4.4 C 5.55 g/m*3 4.4 C 0 km/h
562 09-03-2014 23:35:00 4.3 C 5.51 g/m*3 4.3 C 0 km/h
563 09-03-2014 23:40:00 4.3 C 5.51 g/m*3 4.3 C 0 km/h
564 09-03-2014 23:45:00 4.3 C 5.51 g/m*3 4.3 C 0 km/h
565 09-03-2014 23:50:00 4.3 C 5.51 g/m*3 4.3 C 0 km/h
566 09-03-2014 23:55:00 4.3 C 5.58 g/m*3 4.3 C 0 km/h
567 10-03-2014 00:00:00 4.3 C 5.58 g/m*3 4.3 C 0 km/h
568 10-03-2014 00:05:00 4.2 C 5.48 g/m*3 4.2 C 0 km/h
569 10-03-2014 00:10:00 4.1 C 5.44 g/m*3 4.1 C 0 km/h
570 10-03-2014 00:15:00 4 C 5.4 g/m*3 4 C 0 km/h
571 10-03-2014 00:20:00 3.9 C 5.37 g/m*3 3.9 C 0 km/h
572 10-03-2014 00:25:00 3.8 C 5.33 g/m*3 3.8 C 0 km/h
573 10-03-2014 00:30:00 3.7 C 5.36 g/m*3 3.7 C 0 km/h
574 10-03-2014 00:35:00 3.5 C 5.29 g/m*3 3.5 C 0 km/h
575 10-03-2014 00:40:00 3.3 C 5.22 g/m*3 3.3 C 0 km/h
Sensor: Nr:Datum:Temp:Abs-Feuchte:Windchill:Wind:
Aussen-T/F 576 10-03-2014 00:45:00 3.3 C 5.28 g/m*3 3.3 C 0 km/h
577 10-03-2014 00:50:00 3.2 C 5.24 g/m*3 3.2 C 0 km/h
578 10-03-2014 00:55:00 3.2 C 5.3 g/m*3 3.2 C 0 km/h
579 10-03-2014 01:00:00 3.1 C 5.27 g/m*3 3.1 C 0 km/h
580 10-03-2014 01:05:00 2.9 C 5.2 g/m*3 2.9 C 0 km/h
581 10-03-2014 01:10:00 2.9 C 5.26 g/m*3 2.9 C 0 km/h
582 10-03-2014 01:15:00 2.9 C 5.26 g/m*3 2.9 C 0 km/h
583 10-03-2014 01:20:00 2.8 C 5.22 g/m*3 2.8 C 0 km/h
584 10-03-2014 01:25:00 2.8 C 5.22 g/m*3 2.8 C 0 km/h
585 10-03-2014 01:30:00 2.7 C 5.19 g/m*3 2.7 C 0 km/h
586 10-03-2014 01:35:00 2.7 C 5.19 g/m*3 2.7 C 0 km/h
587 10-03-2014 01:40:00 2.7 C 5.19 g/m*3 2.7 C 0 km/h
588 10-03-2014 01:45:00 2.6 C 5.15 g/m*3 2.6 C 0 km/h
589 10-03-2014 01:50:00 2.6 C 5.15 g/m*3 2.6 C 0 km/h
590 10-03-2014 01:55:00 2.6 C 5.21 g/m*3 2.6 C 0 km/h
591 10-03-2014 02:00:00 2.4 C 5.14 g/m*3 2.4 C 0 km/h
592 10-03-2014 02:05:00 2.4 C 5.14 g/m*3 2.4 C 0 km/h
593 10-03-2014 02:10:00 2.3 C 5.1 g/m*3 2.3 C 0 km/h
594 10-03-2014 02:15:00 2.2 C 5.07 g/m*3 2.2 C 0 km/h
595 10-03-2014 02:20:00 2.2 C 5.07 g/m*3 2.2 C 0 km/h
596 10-03-2014 02:25:00 2.1 C 5.04 g/m*3 2.1 C 0 km/h
597 10-03-2014 02:30:00 2.1 C 5.09 g/m*3 2.1 C 0 km/h
598 10-03-2014 02:35:00 2.1 C 5.09 g/m*3 2.1 C 0 km/h
599 10-03-2014 02:40:00 2.1 C 5.09 g/m*3 2.1 C 0 km/h
600 10-03-2014 02:45:00 2.1 C 5.09 g/m*3 2.1 C 0 km/h
Sensor: Nr:Datum:Temp:Abs-Feuchte:Windchill:Wind:
Aussen-T/F 601 10-03-2014 02:50:00 2.1 C 5.09 g/m*3 2.1 C 0 km/h
602 10-03-2014 02:55:00 2.1 C 5.09 g/m*3 2.1 C 0 km/h
603 10-03-2014 03:00:00 1.9 C 5.02 g/m*3 1.9 C 0 km/h
604 10-03-2014 03:05:00 1.9 C 5.02 g/m*3 1.9 C 0 km/h
605 10-03-2014 03:10:00 1.9 C 5.08 g/m*3 1.9 C 0 km/h
606 10-03-2014 03:15:00 1.9 C 5.02 g/m*3 1.9 C 0 km/h
607 10-03-2014 03:20:00 1.8 C 4.99 g/m*3 1.8 C 0 km/h
608 10-03-2014 03:25:00 1.8 C 5.04 g/m*3 1.8 C 0 km/h
609 10-03-2014 03:30:00 1.8 C 5.04 g/m*3 1.8 C 0 km/h
610 10-03-2014 03:35:00 1.7 C 5.01 g/m*3 1.7 C 0 km/h
611 10-03-2014 03:40:00 1.7 C 5.01 g/m*3 1.7 C 0 km/h
612 10-03-2014 03:45:00 1.7 C 5.01 g/m*3 1.7 C 0 km/h
613 10-03-2014 03:50:00 1.6 C 4.97 g/m*3 1.6 C 0 km/h
614 10-03-2014 03:55:00 1.6 C 4.97 g/m*3 1.6 C 0 km/h
615 10-03-2014 04:00:00 1.6 C 4.97 g/m*3 1.6 C 0 km/h
616 10-03-2014 04:05:00 1.4 C 4.91 g/m*3 1.4 C 0 km/h
617 10-03-2014 04:10:00 1.4 C 4.91 g/m*3 1.4 C 0 km/h
618 10-03-2014 04:15:00 1.3 C 4.87 g/m*3 1.3 C 0 km/h
619 10-03-2014 04:20:00 1.3 C 4.87 g/m*3 1.3 C 0 km/h
620 10-03-2014 04:25:00 1.2 C 4.84 g/m*3 1.2 C 0 km/h
621 10-03-2014 04:30:00 1.2 C 4.84 g/m*3 1.2 C 0 km/h
622 10-03-2014 04:35:00 1.2 C 4.89 g/m*3 1.2 C 0 km/h
623 10-03-2014 04:40:00 1.3 C 4.93 g/m*3 1.3 C 1.6 km/h
624 10-03-2014 04:45:00 1.4 C 5.01 g/m*3 1.4 C 0 km/h
625 10-03-2014 04:50:00 1.4 C 4.96 g/m*3 1.4 C 0 km/h
Sensor: Nr:Datum:Temp:Abs-Feuchte:Windchill:Wind:
Aussen-T/F 626 10-03-2014 04:55:00 1.4 C 4.96 g/m*3 1.4 C 0 km/h
627 10-03-2014 05:00:00 1.4 C 4.96 g/m*3 1.4 C 0 km/h
628 10-03-2014 05:05:00 1.4 C 4.96 g/m*3 1.4 C 0 km/h
629 10-03-2014 05:10:00 1.3 C 4.93 g/m*3 1.3 C 0 km/h
630 10-03-2014 05:15:00 1.3 C 4.93 g/m*3 1.3 C 0 km/h
631 10-03-2014 05:20:00 1.3 C 4.93 g/m*3 1.3 C 0 km/h
632 10-03-2014 05:25:00 1.3 C 4.93 g/m*3 1.3 C 0 km/h
633 10-03-2014 05:30:00 1.2 C 4.89 g/m*3 1.2 C 0 km/h
634 10-03-2014 05:35:00 1.1 C 4.86 g/m*3 1.1 C 0 km/h
635 10-03-2014 05:40:00 1 C 4.83 g/m*3 1 C 0 km/h
636 10-03-2014 05:45:00 1 C 4.83 g/m*3 1 C 0 km/h
637 10-03-2014 05:50:00 1 C 4.83 g/m*3 1 C 0 km/h
638 10-03-2014 05:55:00 0.9 C 4.79 g/m*3 0.9 C 1.6 km/h
639 10-03-2014 06:00:00 1 C 4.88 g/m*3 1 C 1.6 km/h
640 10-03-2014 06:05:00 1.1 C 4.91 g/m*3 1.1 C 0 km/h
641 10-03-2014 06:10:00 1.1 C 4.91 g/m*3 1.1 C 0 km/h
642 10-03-2014 06:15:00 1.1 C 4.91 g/m*3 1.1 C 1.6 km/h
643 10-03-2014 06:20:00 1.1 C 4.91 g/m*3 1.1 C 0 km/h
644 10-03-2014 06:25:00 1 C 4.88 g/m*3 1 C 0 km/h
645 10-03-2014 06:30:00 0.9 C 4.85 g/m*3 0.9 C 0 km/h
646 10-03-2014 06:35:00 0.8 C 4.81 g/m*3 0.8 C 0 km/h
647 10-03-2014 06:40:00 0.8 C 4.76 g/m*3 0.8 C 0 km/h
648 10-03-2014 06:45:00 0.7 C 4.73 g/m*3 0.7 C 0 km/h
649 10-03-2014 06:50:00 0.7 C 4.78 g/m*3 0.7 C 0 km/h
650 10-03-2014 06:55:00 0.7 C 4.78 g/m*3 0.7 C 0 km/h
Sensor: Nr:Datum:Temp:Abs-Feuchte:Windchill:Wind:
Aussen-T/F 651 10-03-2014 07:00:00 0.7 C 4.78 g/m*3 0.7 C 0 km/h
652 10-03-2014 07:05:00 0.6 C 4.75 g/m*3 0.6 C 0 km/h
653 10-03-2014 07:10:00 0.6 C 4.75 g/m*3 0.6 C 0 km/h
654 10-03-2014 07:15:00 0.6 C 4.75 g/m*3 0.6 C 0 km/h
655 10-03-2014 07:20:00 0.6 C 4.75 g/m*3 0.6 C 0 km/h
656 10-03-2014 07:25:00 0.5 C 4.71 g/m*3 0.5 C 0 km/h
657 10-03-2014 07:30:00 0.6 C 4.75 g/m*3 0.6 C 0 km/h
658 10-03-2014 07:35:00 0.6 C 4.75 g/m*3 0.6 C 0 km/h
659 10-03-2014 07:40:00 0.6 C 4.8 g/m*3 0.6 C 1.6 km/h
660 10-03-2014 07:45:00 0.6 C 4.8 g/m*3 0.6 C 0 km/h
661 10-03-2014 07:50:00 0.7 C 4.83 g/m*3 0.7 C 0 km/h
662 10-03-2014 07:55:00 0.7 C 4.83 g/m*3 0.7 C 0 km/h
663 10-03-2014 08:00:00 0.7 C 4.83 g/m*3 0.7 C 0 km/h
664 10-03-2014 08:05:00 0.7 C 4.83 g/m*3 0.7 C 0 km/h
665 10-03-2014 08:10:00 0.7 C 4.83 g/m*3 0.7 C 0 km/h
666 10-03-2014 08:15:00 0.8 C 4.86 g/m*3 0.8 C 1.6 km/h
667 10-03-2014 08:20:00 0.9 C 4.9 g/m*3 0.9 C 0 km/h
668 10-03-2014 08:25:00 0.9 C 4.9 g/m*3 0.9 C 0 km/h
669 10-03-2014 08:30:00 0.9 C 4.9 g/m*3 0.9 C 0 km/h
670 10-03-2014 08:35:00 1.1 C 4.96 g/m*3 1.1 C 0 km/h
671 10-03-2014 08:40:00 1.2 C 5 g/m*3 1.2 C 0 km/h
672 10-03-2014 08:45:00 1.2 C 5 g/m*3 1.2 C 0 km/h
673 10-03-2014 08:50:00 1.3 C 5.03 g/m*3 1.3 C 0 km/h
674 10-03-2014 08:55:00 1.3 C 5.03 g/m*3 1.3 C 0 km/h
675 10-03-2014 09:00:00 1.6 C 5.14 g/m*3 1.6 C 0 km/h
Sensor: Nr:Datum:Temp:Abs-Feuchte:Windchill:Wind:
Aussen-T/F 676 10-03-2014 09:05:00 1.7 C 5.17 g/m*3 1.7 C 0 km/h
677 10-03-2014 09:10:00 1.7 C 5.17 g/m*3 1.7 C 0 km/h
678 10-03-2014 09:15:00 1.8 C 5.21 g/m*3 1.8 C 0 km/h
679 10-03-2014 09:20:00 1.9 C 5.24 g/m*3 1.9 C 0 km/h
680 10-03-2014 09:25:00 2.2 C 5.35 g/m*3 2.2 C 0 km/h
681 10-03-2014 09:30:00 2.3 C 5.39 g/m*3 2.3 C 0 km/h
682 10-03-2014 09:35:00 2.4 C 5.42 g/m*3 2.4 C 0 km/h
683 10-03-2014 09:40:00 2.8 C 5.57 g/m*3 2.8 C 3.2 km/h
684 10-03-2014 09:45:00 3.3 C 5.7 g/m*3 3.3 C 1.6 km/h
685 10-03-2014 09:50:00 3.7 C 5.8 g/m*3 3.7 C 0 km/h
686 10-03-2014 09:55:00 3.9 C 5.87 g/m*3 3.9 C 1.6 km/h
687 10-03-2014 10:00:00 4.2 C 5.93 g/m*3 4.2 C 0 km/h
688 10-03-2014 10:05:00 4.3 C 5.9 g/m*3 4.3 C 0 km/h
689 10-03-2014 10:10:00 4.5 C 5.98 g/m*3 4.5 C 0 km/h
690 10-03-2014 10:15:00 4.8 C 6.1 g/m*3 4.8 C 0 km/h
691 10-03-2014 10:20:00 5 C 6.12 g/m*3 5 C 0 km/h
692 10-03-2014 10:25:00 5.1 C 6.16 g/m*3 5.1 C 0 km/h
693 10-03-2014 10:30:00 5.2 C 6.2 g/m*3 5.2 C 0 km/h
694 10-03-2014 10:35:00 5.4 C 6.28 g/m*3 5.4 C 0 km/h
695 10-03-2014 10:40:00 5.6 C 6.36 g/m*3 5.6 C 0 km/h
696 10-03-2014 10:45:00 5.8 C 6.45 g/m*3 5.8 C 0 km/h
697 10-03-2014 10:50:00 5.9 C 6.42 g/m*3 5.9 C 0 km/h
698 10-03-2014 10:55:00 6.2 C 6.55 g/m*3 6.2 C 1.6 km/h
699 10-03-2014 11:00:00 6.4 C 6.56 g/m*3 6.4 C 0 km/h
700 10-03-2014 11:05:00 6.6 C 6.64 g/m*3 6.6 C 0 km/h
Sensor: Nr:Datum:Temp:Abs-Feuchte:Windchill:Wind:
Aussen-T/F 701 10-03-2014 11:10:00 6.8 C 6.73 g/m*3 6.8 C 0 km/h
702 10-03-2014 11:15:00 7.1 C 6.79 g/m*3 7.1 C 0 km/h
703 10-03-2014 11:20:00 7.4 C 6.84 g/m*3 7.4 C 1.6 km/h
704 10-03-2014 11:25:00 7.8 C 7.02 g/m*3 7.8 C 1.6 km/h
705 10-03-2014 11:30:00 8.1 C 6.99 g/m*3 8.1 C 0 km/h
706 10-03-2014 11:35:00 8.5 C 7.09 g/m*3 8.5 C 1.6 km/h
707 10-03-2014 11:40:00 8.8 C 7.22 g/m*3 8.8 C 1.6 km/h
708 10-03-2014 11:45:00 9.2 C 7.32 g/m*3 9.2 C 1.6 km/h
709 10-03-2014 11:50:00 9.6 C 7.33 g/m*3 9.6 C 1.6 km/h
710 10-03-2014 11:55:00 10.1 C 7.47 g/m*3 10.1 C 0 km/h
711 10-03-2014 12:00:00 10.4 C 7.52 g/m*3 10.4 C 0 km/h
712 10-03-2014 12:05:00 10.7 C 7.66 g/m*3 10.7 C 1.6 km/h
713 10-03-2014 12:10:00 11.1 C 7.66 g/m*3 11.1 C 1.6 km/h
714 10-03-2014 12:15:00 11.6 C 7.48 g/m*3 11.6 C 3.2 km/h
715 10-03-2014 12:20:00 12.1 C 7.61 g/m*3 12.1 C 0 km/h
716 10-03-2014 12:25:00 12.7 C 7.46 g/m*3 12.7 C 1.6 km/h
717 10-03-2014 12:30:00 13.4 C 7.44 g/m*3 13.4 C 1.6 km/h
718 10-03-2014 12:35:00 14 C 7.24 g/m*3 14 C 1.6 km/h
719 10-03-2014 12:40:00 14.8 C 7.6 g/m*3 14.8 C 1.6 km/h
720 10-03-2014 12:45:00 15.4 C 7.62 g/m*3 15.4 C 0 km/h
721 10-03-2014 12:50:00 15.9 C 7.31 g/m*3 15.9 C 3.2 km/h
722 10-03-2014 12:55:00 16.3 C 7.08 g/m*3 16.3 C 6.4 km/h
723 10-03-2014 13:00:00 16.7 C 7.67 g/m*3 16.7 C 6.4 km/h
724 10-03-2014 13:05:00 17 C 6.95 g/m*3 17 C 4.8 km/h
725 10-03-2014 13:10:00 17.2 C 7.32 g/m*3 17.2 C 6.4 km/h
Sensor: Nr:Datum:Temp:Abs-Feuchte:Windchill:Wind:
Aussen-T/F 726 10-03-2014 13:15:00 17.2 C 6.44 g/m*3 17.2 C 3.2 km/h
727 10-03-2014 13:20:00 17.1 C 6.55 g/m*3 17.1 C 4.8 km/h
728 10-03-2014 13:25:00 17 C 7.52 g/m*3 17 C 4.8 km/h
729 10-03-2014 13:30:00 17.1 C 6.4 g/m*3 17.1 C 8.1 km/h
730 10-03-2014 13:35:00 17.1 C 6.99 g/m*3 17.1 C 3.2 km/h
731 10-03-2014 13:40:00 17 C 6.37 g/m*3 17 C 3.2 km/h
732 10-03-2014 13:45:00 16.9 C 6.76 g/m*3 16.9 C 4.8 km/h
733 10-03-2014 13:50:00 16.8 C 6.29 g/m*3 16.8 C 4.8 km/h
734 10-03-2014 13:55:00 16.8 C 7.01 g/m*3 16.8 C 1.6 km/h
735 10-03-2014 14:00:00 16.8 C 6 g/m*3 16.8 C 4.8 km/h
736 10-03-2014 14:05:00 16.8 C 6.43 g/m*3 16.8 C 3.2 km/h
737 10-03-2014 14:10:00 16.9 C 6.9 g/m*3 16.9 C 3.2 km/h
738 10-03-2014 14:15:00 17.1 C 6.55 g/m*3 17.1 C 1.6 km/h
739 10-03-2014 14:20:00 17.2 C 6.3 g/m*3 17.2 C 3.2 km/h
740 10-03-2014 14:25:00 17.3 C 6.78 g/m*3 17.3 C 4.8 km/h
741 10-03-2014 14:30:00 17.4 C 6.22 g/m*3 17.4 C 0 km/h
742 10-03-2014 14:35:00 17.4 C 6.82 g/m*3 17.4 C 3.2 km/h
743 10-03-2014 14:40:00 17.3 C 6.48 g/m*3 17.3 C 3.2 km/h
744 10-03-2014 14:45:00 17.4 C 7.11 g/m*3 17.4 C 0 km/h
745 10-03-2014 14:50:00 17.2 C 6.74 g/m*3 17.2 C 3.2 km/h
746 10-03-2014 14:55:00 17 C 6.66 g/m*3 17 C 3.2 km/h
747 10-03-2014 15:00:00 17.1 C 5.82 g/m*3 17.1 C 3.2 km/h
748 10-03-2014 15:05:00 17.5 C 6.56 g/m*3 17.5 C 3.2 km/h
749 10-03-2014 15:10:00 17.8 C 6.07 g/m*3 17.8 C 3.2 km/h
750 10-03-2014 15:15:00 18 C 6.91 g/m*3 18 C 3.2 km/h
Sensor: Nr:Datum:Temp:Abs-Feuchte:Windchill:Wind:
Aussen-T/F 751 10-03-2014 15:20:00 17.8 C 6.07 g/m*3 17.8 C 3.2 km/h
752 10-03-2014 15:25:00 17.9 C 7.02 g/m*3 17.9 C 0 km/h
753 10-03-2014 15:30:00 17.8 C 7.13 g/m*3 17.8 C 3.2 km/h
754 10-03-2014 15:35:00 18.1 C 6.8 g/m*3 18.1 C 3.2 km/h
755 10-03-2014 15:40:00 18.4 C 6.29 g/m*3 18.4 C 3.2 km/h
756 10-03-2014 15:45:00 18.2 C 6.99 g/m*3 18.2 C 3.2 km/h
757 10-03-2014 15:50:00 17.7 C 6.94 g/m*3 17.7 C 1.6 km/h
758 10-03-2014 15:55:00 17.6 C 5.85 g/m*3 17.6 C 4.8 km/h
759 10-03-2014 16:00:00 17.5 C 6.41 g/m*3 17.5 C 4.8 km/h
760 10-03-2014 16:05:00 17.4 C 5.34 g/m*3 17.4 C 4.8 km/h
761 10-03-2014 16:10:00 17.3 C 6.92 g/m*3 17.3 C 3.2 km/h
762 10-03-2014 16:15:00 16.7 C 6.68 g/m*3 16.7 C 3.2 km/h
763 10-03-2014 16:20:00 16.3 C 6.66 g/m*3 16.3 C 3.2 km/h
764 10-03-2014 16:25:00 16 C 6.68 g/m*3 16 C 3.2 km/h
765 10-03-2014 16:30:00 15.8 C 7 g/m*3 15.8 C 6.4 km/h
766 10-03-2014 16:35:00 15.6 C 6.38 g/m*3 15.6 C 0 km/h
767 10-03-2014 16:40:00 15.6 C 6.78 g/m*3 15.6 C 1.6 km/h
768 10-03-2014 16:45:00 15.4 C 6.83 g/m*3 15.4 C 1.6 km/h
769 10-03-2014 16:50:00 15.3 C 6.92 g/m*3 15.3 C 4.8 km/h
770 10-03-2014 16:55:00 15.3 C 6.53 g/m*3 15.3 C 3.2 km/h
771 10-03-2014 17:00:00 15.1 C 6.71 g/m*3 15.1 C 4.8 km/h
772 10-03-2014 17:05:00 15.1 C 6.45 g/m*3 15.1 C 6.4 km/h
773 10-03-2014 17:10:00 15.2 C 6.75 g/m*3 15.2 C 6.4 km/h
774 10-03-2014 17:15:00 15.1 C 7.1 g/m*3 15.1 C 3.2 km/h
775 10-03-2014 17:20:00 14.8 C 6.97 g/m*3 14.8 C 4.8 km/h
Sensor: Nr:Datum:Temp:Abs-Feuchte:Windchill:Wind:
Aussen-T/F 776 10-03-2014 17:25:00 14.7 C 6.92 g/m*3 14.7 C 4.8 km/h
777 10-03-2014 17:30:00 14.5 C 6.59 g/m*3 14.5 C 6.4 km/h
778 10-03-2014 17:35:00 14.4 C 6.68 g/m*3 14.4 C 4.8 km/h
779 10-03-2014 17:40:00 14.2 C 6.59 g/m*3 14.2 C 6.4 km/h
780 10-03-2014 17:45:00 14.1 C 6.55 g/m*3 14.1 C 4.8 km/h
781 10-03-2014 17:50:00 13.8 C 6.43 g/m*3 13.8 C 6.4 km/h
782 10-03-2014 17:55:00 13.7 C 6.51 g/m*3 13.7 C 6.4 km/h
783 10-03-2014 18:00:00 13.4 C 6.39 g/m*3 13.4 C 6.4 km/h
784 10-03-2014 18:05:00 13.2 C 6.32 g/m*3 13.2 C 6.4 km/h
785 10-03-2014 18:10:00 13 C 6.24 g/m*3 13 C 6.4 km/h
786 10-03-2014 18:15:00 12.8 C 6.27 g/m*3 12.8 C 6.4 km/h
787 10-03-2014 18:20:00 12.6 C 6.31 g/m*3 12.6 C 8.1 km/h
788 10-03-2014 18:25:00 12.3 C 6.19 g/m*3 12.3 C 6.4 km/h
789 10-03-2014 18:30:00 12.2 C 6.15 g/m*3 12.2 C 6.4 km/h
790 10-03-2014 18:35:00 12.1 C 6.22 g/m*3 12.1 C 6.4 km/h
791 10-03-2014 18:40:00 12 C 6.18 g/m*3 12 C 6.4 km/h
792 10-03-2014 18:45:00 11.8 C 6.1 g/m*3 11.8 C 6.4 km/h
793 10-03-2014 18:50:00 11.7 C 6.07 g/m*3 11.7 C 6.4 km/h
794 10-03-2014 18:55:00 11.6 C 6.13 g/m*3 11.6 C 4.8 km/h
795 10-03-2014 19:00:00 11.5 C 6.09 g/m*3 11.5 C 6.4 km/h
796 10-03-2014 19:05:00 11.3 C 6.32 g/m*3 11.3 C 6.4 km/h
797 10-03-2014 19:10:00 10.8 C 6.33 g/m*3 10.8 C 3.2 km/h
798 10-03-2014 19:15:00 10.8 C 6.13 g/m*3 10.29 C 6.4 km/h
799 10-03-2014 19:20:00 10.8 C 6.13 g/m*3 9.93 C 8.1 km/h
800 10-03-2014 19:25:00 10.5 C 6.4 g/m*3 10.5 C 4.8 km/h
Sensor: Nr:Datum:Temp:Abs-Feuchte:Windchill:Wind:
Aussen-T/F 801 10-03-2014 19:30:00 10.2 C 6.38 g/m*3 10.2 C 4.8 km/h
802 10-03-2014 19:35:00 10.1 C 6.24 g/m*3 10.1 C 4.8 km/h
803 10-03-2014 19:40:00 10.2 C 6.09 g/m*3 10.2 C 3.2 km/h
804 10-03-2014 19:45:00 10 C 6.11 g/m*3 10 C 3.2 km/h
805 10-03-2014 19:50:00 9.8 C 6.12 g/m*3 9.8 C 3.2 km/h
806 10-03-2014 19:55:00 9.6 C 6.05 g/m*3 9.6 C 1.6 km/h
807 10-03-2014 20:00:00 9.4 C 6.06 g/m*3 9.4 C 1.6 km/h
808 10-03-2014 20:05:00 9.2 C 5.98 g/m*3 9.2 C 3.2 km/h
809 10-03-2014 20:10:00 9.2 C 5.98 g/m*3 9.2 C 1.6 km/h
810 10-03-2014 20:15:00 9.1 C 6.03 g/m*3 9.1 C 1.6 km/h
811 10-03-2014 20:20:00 8.9 C 5.87 g/m*3 8.9 C 1.6 km/h
812 10-03-2014 20:25:00 8.9 C 6.04 g/m*3 8.9 C 0 km/h
813 10-03-2014 20:30:00 8.8 C 6.09 g/m*3 8.8 C 0 km/h
814 10-03-2014 20:35:00 8.7 C 5.97 g/m*3 8.7 C 1.6 km/h
815 10-03-2014 20:40:00 8.5 C 6.06 g/m*3 8.5 C 1.6 km/h
816 10-03-2014 20:45:00 8.4 C 6.02 g/m*3 8.4 C 0 km/h
817 10-03-2014 20:50:00 8.3 C 5.98 g/m*3 8.3 C 0 km/h
818 10-03-2014 20:55:00 8.2 C 5.95 g/m*3 8.2 C 0 km/h
819 10-03-2014 21:00:00 8.2 C 5.86 g/m*3 8.2 C 1.6 km/h
820 10-03-2014 21:05:00 8.2 C 5.95 g/m*3 8.2 C 1.6 km/h
821 10-03-2014 21:10:00 8 C 5.79 g/m*3 8 C 0 km/h
822 10-03-2014 21:15:00 7.8 C 5.71 g/m*3 7.8 C 0 km/h
823 10-03-2014 21:20:00 7.7 C 5.76 g/m*3 7.7 C 1.6 km/h
824 10-03-2014 21:25:00 7.6 C 5.72 g/m*3 7.6 C 0 km/h
825 10-03-2014 21:30:00 7.6 C 5.72 g/m*3 7.6 C 0 km/h
Sensor: Nr:Datum:Temp:Abs-Feuchte:Windchill:Wind:
Aussen-T/F 826 10-03-2014 21:35:00 7.5 C 5.52 g/m*3 7.5 C 3.2 km/h
827 10-03-2014 21:40:00 7.4 C 5.65 g/m*3 7.4 C 1.6 km/h
828 10-03-2014 21:45:00 7.3 C 5.77 g/m*3 7.3 C 0 km/h
829 10-03-2014 21:50:00 7.1 C 5.85 g/m*3 7.1 C 0 km/h
830 10-03-2014 21:55:00 7 C 5.81 g/m*3 7 C 0 km/h
831 10-03-2014 22:00:00 6.9 C 5.62 g/m*3 6.9 C 0 km/h
832 10-03-2014 22:05:00 6.9 C 5.62 g/m*3 6.9 C 0 km/h
833 10-03-2014 22:10:00 6.9 C 5.7 g/m*3 6.9 C 0 km/h
834 10-03-2014 22:15:00 6.9 C 5.7 g/m*3 6.9 C 0 km/h
835 10-03-2014 22:20:00 6.8 C 5.66 g/m*3 6.8 C 0 km/h
836 10-03-2014 22:25:00 6.8 C 5.74 g/m*3 6.8 C 0 km/h
837 10-03-2014 22:30:00 6.7 C 5.7 g/m*3 6.7 C 3.2 km/h
838 10-03-2014 22:35:00 6.6 C 5.66 g/m*3 6.6 C 1.6 km/h
839 10-03-2014 22:40:00 6.4 C 5.66 g/m*3 6.4 C 0 km/h
840 10-03-2014 22:45:00 6.3 C 5.7 g/m*3 6.3 C 0 km/h
841 10-03-2014 22:50:00 6.3 C 5.7 g/m*3 6.3 C 0 km/h
842 10-03-2014 22:55:00 6.3 C 5.63 g/m*3 6.3 C 3.2 km/h
843 10-03-2014 23:00:00 6.2 C 5.59 g/m*3 6.2 C 0 km/h
844 10-03-2014 23:05:00 6.2 C 5.59 g/m*3 6.2 C 0 km/h
845 10-03-2014 23:10:00 6.2 C 5.59 g/m*3 6.2 C 1.6 km/h
846 10-03-2014 23:15:00 6.1 C 5.55 g/m*3 6.1 C 1.6 km/h
847 10-03-2014 23:20:00 6 C 5.59 g/m*3 6 C 0 km/h
848 10-03-2014 23:25:00 5.9 C 5.55 g/m*3 5.9 C 0 km/h
849 10-03-2014 23:30:00 5.8 C 5.59 g/m*3 5.8 C 1.6 km/h
850 10-03-2014 23:35:00 5.6 C 5.51 g/m*3 5.6 C 0 km/h
Sensor: Nr:Datum:Temp:Abs-Feuchte:Windchill:Wind:
Aussen-T/F 851 10-03-2014 23:40:00 5.4 C 5.51 g/m*3 5.4 C 1.6 km/h
852 10-03-2014 23:45:00 5.3 C 5.54 g/m*3 5.3 C 0 km/h
853 10-03-2014 23:50:00 5.1 C 5.47 g/m*3 5.1 C 0 km/h
854 10-03-2014 23:55:00 4.8 C 5.5 g/m*3 4.8 C 0 km/h
855 11-03-2014 00:00:00 4.8 C 5.57 g/m*3 4.8 C 0 km/h
856 11-03-2014 00:05:00 4.8 C 5.63 g/m*3 4.8 C 0 km/h
857 11-03-2014 00:10:00 4.9 C 5.6 g/m*3 4.9 C 0 km/h
858 11-03-2014 00:15:00 4.9 C 5.6 g/m*3 4.9 C 0 km/h
859 11-03-2014 00:20:00 4.8 C 5.57 g/m*3 4.8 C 0 km/h
860 11-03-2014 00:25:00 4.8 C 5.57 g/m*3 4.8 C 0 km/h
861 11-03-2014 00:30:00 4.8 C 5.57 g/m*3 4.8 C 0 km/h
862 11-03-2014 00:35:00 4.7 C 5.53 g/m*3 4.7 C 0 km/h
863 11-03-2014 00:40:00 4.6 C 5.56 g/m*3 4.6 C 0 km/h
864 11-03-2014 00:45:00 4.6 C 5.49 g/m*3 4.6 C 0 km/h
865 11-03-2014 00:50:00 4.6 C 5.49 g/m*3 4.6 C 0 km/h
866 11-03-2014 00:55:00 4.6 C 5.49 g/m*3 4.6 C 0 km/h
867 11-03-2014 01:00:00 4.5 C 5.46 g/m*3 4.5 C 0 km/h
868 11-03-2014 01:05:00 4.3 C 5.38 g/m*3 4.3 C 0 km/h
869 11-03-2014 01:10:00 4.2 C 5.48 g/m*3 4.2 C 0 km/h
870 11-03-2014 01:15:00 4.1 C 5.44 g/m*3 4.1 C 0 km/h
871 11-03-2014 01:20:00 3.9 C 5.37 g/m*3 3.9 C 0 km/h
872 11-03-2014 01:25:00 3.8 C 5.33 g/m*3 3.8 C 0 km/h
873 11-03-2014 01:30:00 3.8 C 5.33 g/m*3 3.8 C 0 km/h
874 11-03-2014 01:35:00 3.7 C 5.36 g/m*3 3.7 C 0 km/h
875 11-03-2014 01:40:00 3.7 C 5.42 g/m*3 3.7 C 1.6 km/h
Sensor: Nr:Datum:Temp:Abs-Feuchte:Windchill:Wind:
Aussen-T/F 876 11-03-2014 01:45:00 3.8 C 5.52 g/m*3 3.8 C 0 km/h
877 11-03-2014 01:50:00 3.9 C 5.49 g/m*3 3.9 C 1.6 km/h
878 11-03-2014 01:55:00 3.9 C 5.43 g/m*3 3.9 C 0 km/h
879 11-03-2014 02:00:00 3.9 C 5.43 g/m*3 3.9 C 0 km/h
880 11-03-2014 02:05:00 3.9 C 5.37 g/m*3 3.9 C 0 km/h
881 11-03-2014 02:10:00 3.8 C 5.4 g/m*3 3.8 C 0 km/h
882 11-03-2014 02:15:00 3.6 C 5.32 g/m*3 3.6 C 0 km/h
883 11-03-2014 02:20:00 3.5 C 5.35 g/m*3 3.5 C 1.6 km/h
884 11-03-2014 02:25:00 3.5 C 5.41 g/m*3 3.5 C 1.6 km/h
885 11-03-2014 02:30:00 3.6 C 5.51 g/m*3 3.6 C 0 km/h
886 11-03-2014 02:35:00 3.6 C 5.51 g/m*3 3.6 C 1.6 km/h
887 11-03-2014 02:40:00 3.6 C 5.45 g/m*3 3.6 C 0 km/h
888 11-03-2014 02:45:00 3.6 C 5.45 g/m*3 3.6 C 0 km/h
889 11-03-2014 02:50:00 3.6 C 5.45 g/m*3 3.6 C 0 km/h
890 11-03-2014 02:55:00 3.6 C 5.51 g/m*3 3.6 C 0 km/h
891 11-03-2014 03:00:00 3.6 C 5.51 g/m*3 3.6 C 0 km/h
892 11-03-2014 03:05:00 3.6 C 5.51 g/m*3 3.6 C 0 km/h
893 11-03-2014 03:10:00 3.6 C 5.51 g/m*3 3.6 C 1.6 km/h
894 11-03-2014 03:15:00 3.5 C 5.47 g/m*3 3.5 C 0 km/h
895 11-03-2014 03:20:00 3.4 C 5.44 g/m*3 3.4 C 0 km/h
896 11-03-2014 03:25:00 3.4 C 5.37 g/m*3 3.4 C 0 km/h
897 11-03-2014 03:30:00 3.3 C 5.34 g/m*3 3.3 C 0 km/h
898 11-03-2014 03:35:00 3.3 C 5.4 g/m*3 3.3 C 0 km/h
899 11-03-2014 03:40:00 3.3 C 5.4 g/m*3 3.3 C 3.2 km/h
900 11-03-2014 03:45:00 3.3 C 5.4 g/m*3 3.3 C 0 km/h
Sensor: Nr:Datum:Temp:Abs-Feuchte:Windchill:Wind:
Aussen-T/F 901 11-03-2014 03:50:00 3.3 C 5.4 g/m*3 3.3 C 1.6 km/h
902 11-03-2014 03:55:00 3.3 C 5.46 g/m*3 3.3 C 0 km/h
903 11-03-2014 04:00:00 3.3 C 5.4 g/m*3 3.3 C 0 km/h
904 11-03-2014 04:05:00 3.3 C 5.4 g/m*3 3.3 C 0 km/h
905 11-03-2014 04:10:00 3.3 C 5.46 g/m*3 3.3 C 0 km/h
906 11-03-2014 04:15:00 3.2 C 5.36 g/m*3 3.2 C 0 km/h
907 11-03-2014 04:20:00 3.2 C 5.36 g/m*3 3.2 C 0 km/h
908 11-03-2014 04:25:00 3.1 C 5.39 g/m*3 3.1 C 0 km/h
909 11-03-2014 04:30:00 3.1 C 5.39 g/m*3 3.1 C 0 km/h
910 11-03-2014 04:35:00 3.1 C 5.39 g/m*3 3.1 C 0 km/h
911 11-03-2014 04:40:00 2.9 C 5.26 g/m*3 2.9 C 0 km/h
912 11-03-2014 04:45:00 2.9 C 5.32 g/m*3 2.9 C 0 km/h
913 11-03-2014 04:50:00 3 C 5.35 g/m*3 3 C 0 km/h
914 11-03-2014 04:55:00 3.1 C 5.39 g/m*3 3.1 C 0 km/h
915 11-03-2014 05:00:00 3.1 C 5.39 g/m*3 3.1 C 1.6 km/h
916 11-03-2014 05:05:00 3.2 C 5.42 g/m*3 3.2 C 0 km/h
917 11-03-2014 05:10:00 3.3 C 5.46 g/m*3 3.3 C 3.2 km/h
918 11-03-2014 05:15:00 3.4 C 5.5 g/m*3 3.4 C 4.8 km/h
919 11-03-2014 05:20:00 3.4 C 5.44 g/m*3 3.4 C 0 km/h
920 11-03-2014 05:25:00 3.3 C 5.4 g/m*3 3.3 C 0 km/h
921 11-03-2014 05:30:00 3.2 C 5.36 g/m*3 3.2 C 0 km/h
922 11-03-2014 05:35:00 3.1 C 5.33 g/m*3 3.1 C 0 km/h
923 11-03-2014 05:40:00 2.9 C 5.26 g/m*3 2.9 C 0 km/h
924 11-03-2014 05:45:00 2.7 C 5.19 g/m*3 2.7 C 0 km/h
925 11-03-2014 05:50:00 2.6 C 5.21 g/m*3 2.6 C 0 km/h
Sensor: Nr:Datum:Temp:Abs-Feuchte:Windchill:Wind:
Aussen-T/F 926 11-03-2014 05:55:00 2.6 C 5.21 g/m*3 2.6 C 0 km/h
927 11-03-2014 06:00:00 2.6 C 5.27 g/m*3 2.6 C 0 km/h
928 11-03-2014 06:05:00 2.5 C 5.17 g/m*3 2.5 C 0 km/h
929 11-03-2014 06:10:00 2.4 C 5.14 g/m*3 2.4 C 0 km/h
930 11-03-2014 06:15:00 2.3 C 5.16 g/m*3 2.3 C 0 km/h
931 11-03-2014 06:20:00 2.3 C 5.22 g/m*3 2.3 C 0 km/h
932 11-03-2014 06:25:00 2.4 C 5.25 g/m*3 2.4 C 0 km/h
933 11-03-2014 06:30:00 2.3 C 5.22 g/m*3 2.3 C 0 km/h
934 11-03-2014 06:35:00 2.3 C 5.22 g/m*3 2.3 C 0 km/h
935 11-03-2014 06:40:00 2.3 C 5.22 g/m*3 2.3 C 0 km/h
936 11-03-2014 06:45:00 2.3 C 5.22 g/m*3 2.3 C 0 km/h
937 11-03-2014 06:50:00 2.2 C 5.13 g/m*3 2.2 C 0 km/h
938 11-03-2014 06:55:00 2.2 C 5.18 g/m*3 2.2 C 0 km/h
939 11-03-2014 07:00:00 2.2 C 5.18 g/m*3 2.2 C 0 km/h
940 11-03-2014 07:05:00 2.3 C 5.22 g/m*3 2.3 C 0 km/h
941 11-03-2014 07:10:00 2.3 C 5.22 g/m*3 2.3 C 0 km/h
942 11-03-2014 07:15:00 2.2 C 5.18 g/m*3 2.2 C 0 km/h
943 11-03-2014 07:20:00 2.2 C 5.18 g/m*3 2.2 C 0 km/h
944 11-03-2014 07:25:00 2.2 C 5.18 g/m*3 2.2 C 0 km/h
945 11-03-2014 07:30:00 2.3 C 5.27 g/m*3 2.3 C 0 km/h
946 11-03-2014 07:35:00 2.4 C 5.31 g/m*3 2.4 C 0 km/h
947 11-03-2014 07:40:00 2.4 C 5.31 g/m*3 2.4 C 0 km/h
948 11-03-2014 07:45:00 2.4 C 5.31 g/m*3 2.4 C 0 km/h
949 11-03-2014 07:50:00 2.4 C 5.31 g/m*3 2.4 C 0 km/h
950 11-03-2014 07:55:00 2.4 C 5.31 g/m*3 2.4 C 0 km/h
Sensor: Nr:Datum:Temp:Abs-Feuchte:Windchill:Wind:
Aussen-T/F 951 11-03-2014 08:00:00 2.4 C 5.31 g/m*3 2.4 C 0 km/h
952 11-03-2014 08:05:00 2.4 C 5.31 g/m*3 2.4 C 0 km/h
953 11-03-2014 08:10:00 2.5 C 5.35 g/m*3 2.5 C 0 km/h
954 11-03-2014 08:15:00 2.6 C 5.38 g/m*3 2.6 C 0 km/h
955 11-03-2014 08:20:00 2.7 C 5.42 g/m*3 2.7 C 0 km/h
956 11-03-2014 08:25:00 2.7 C 5.42 g/m*3 2.7 C 0 km/h
957 11-03-2014 08:30:00 2.8 C 5.46 g/m*3 2.8 C 0 km/h
958 11-03-2014 08:35:00 2.8 C 5.46 g/m*3 2.8 C 0 km/h
959 11-03-2014 08:40:00 2.9 C 5.49 g/m*3 2.9 C 3.2 km/h
960 11-03-2014 08:45:00 3 C 5.53 g/m*3 3 C 0 km/h
961 11-03-2014 08:50:00 3.1 C 5.57 g/m*3 3.1 C 3.2 km/h
962 11-03-2014 08:55:00 3.7 C 5.92 g/m*3 3.7 C 1.6 km/h
963 11-03-2014 09:00:00 4.2 C 6.12 g/m*3 4.2 C 1.6 km/h
964 11-03-2014 09:05:00 4.4 C 6.14 g/m*3 4.4 C 3.2 km/h
965 11-03-2014 09:10:00 4.7 C 6.26 g/m*3 4.7 C 3.2 km/h
966 11-03-2014 09:15:00 4.9 C 6.28 g/m*3 4.9 C 3.2 km/h
967 11-03-2014 09:20:00 5.2 C 6.33 g/m*3 5.2 C 3.2 km/h
968 11-03-2014 09:25:00 5.4 C 6.42 g/m*3 5.4 C 3.2 km/h
969 11-03-2014 09:30:00 5.7 C 6.48 g/m*3 5.7 C 0 km/h
970 11-03-2014 09:35:00 5.9 C 6.49 g/m*3 5.9 C 3.2 km/h
971 11-03-2014 09:40:00 6.2 C 6.62 g/m*3 6.2 C 3.2 km/h
972 11-03-2014 09:45:00 6.4 C 6.63 g/m*3 6.4 C 3.2 km/h
973 11-03-2014 09:50:00 6.6 C 6.72 g/m*3 6.6 C 4.8 km/h
974 11-03-2014 09:55:00 6.7 C 6.76 g/m*3 6.7 C 0 km/h
975 11-03-2014 10:00:00 6.8 C 6.81 g/m*3 6.8 C 0 km/h
Sensor: Nr:Datum:Temp:Abs-Feuchte:Windchill:Wind:
Aussen-T/F 976 11-03-2014 10:05:00 6.7 C 6.69 g/m*3 6.7 C 1.6 km/h
977 11-03-2014 10:10:00 6.8 C 6.81 g/m*3 6.8 C 3.2 km/h
978 11-03-2014 10:15:00 6.9 C 6.85 g/m*3 6.9 C 4.8 km/h
979 11-03-2014 10:20:00 7.1 C 6.86 g/m*3 7.1 C 3.2 km/h
980 11-03-2014 10:25:00 7.2 C 6.91 g/m*3 7.2 C 1.6 km/h
981 11-03-2014 10:30:00 7.5 C 6.96 g/m*3 7.5 C 1.6 km/h
982 11-03-2014 10:35:00 7.7 C 6.97 g/m*3 7.7 C 1.6 km/h
983 11-03-2014 10:40:00 7.8 C 7.02 g/m*3 7.8 C 1.6 km/h
984 11-03-2014 10:45:00 7.9 C 7.06 g/m*3 7.9 C 3.2 km/h
985 11-03-2014 10:50:00 8.1 C 7.16 g/m*3 8.1 C 1.6 km/h
986 11-03-2014 10:55:00 8.3 C 7.16 g/m*3 8.3 C 3.2 km/h
987 11-03-2014 11:00:00 8.4 C 7.13 g/m*3 8.4 C 1.6 km/h
988 11-03-2014 11:05:00 8.7 C 7.35 g/m*3 8.7 C 3.2 km/h
989 11-03-2014 11:10:00 8.9 C 7.27 g/m*3 8.9 C 4.8 km/h
990 11-03-2014 11:15:00 9.2 C 7.23 g/m*3 9.2 C 3.2 km/h
991 11-03-2014 11:20:00 9.3 C 7.28 g/m*3 9.3 C 1.6 km/h
992 11-03-2014 11:25:00 9.6 C 7.24 g/m*3 9.6 C 1.6 km/h
993 11-03-2014 11:30:00 9.7 C 7.28 g/m*3 9.7 C 3.2 km/h
994 11-03-2014 11:35:00 9.9 C 7.28 g/m*3 9.9 C 4.8 km/h
995 11-03-2014 11:40:00 10.1 C 7.47 g/m*3 10.1 C 0 km/h
996 11-03-2014 11:45:00 10.3 C 7.47 g/m*3 10.3 C 3.2 km/h
997 11-03-2014 11:50:00 10.6 C 7.42 g/m*3 10.6 C 1.6 km/h
998 11-03-2014 11:55:00 10.8 C 7.41 g/m*3 10.8 C 1.6 km/h
999 11-03-2014 12:00:00 11 C 7.61 g/m*3 11 C 3.2 km/h
1000 11-03-2014 12:05:00 11.2 C 7.7 g/m*3 11.2 C 4.8 km/h
Sensor: Nr:Datum:Temp:Abs-Feuchte:Windchill:Wind:
Aussen-T/F 1001 11-03-2014 12:10:00 11.5 C 7.75 g/m*3 11.5 C 3.2 km/h
1002 11-03-2014 12:15:00 11.8 C 7.79 g/m*3 11.8 C 4.8 km/h
1003 11-03-2014 12:20:00 12.1 C 7.72 g/m*3 12.1 C 1.6 km/h
1004 11-03-2014 12:25:00 12.6 C 7.97 g/m*3 12.6 C 4.8 km/h
1005 11-03-2014 12:30:00 13 C 8.05 g/m*3 13 C 3.2 km/h
1006 11-03-2014 12:35:00 13.3 C 7.86 g/m*3 13.3 C 4.8 km/h
1007 11-03-2014 12:40:00 13.7 C 8.05 g/m*3 13.7 C 3.2 km/h
1008 11-03-2014 12:45:00 14.1 C 8.01 g/m*3 14.1 C 3.2 km/h
1009 11-03-2014 12:50:00 14.3 C 8.35 g/m*3 14.3 C 3.2 km/h
1010 11-03-2014 12:55:00 14.6 C 8.01 g/m*3 14.6 C 1.6 km/h
1011 11-03-2014 13:00:00 14.9 C 8.28 g/m*3 14.9 C 4.8 km/h
1012 11-03-2014 13:05:00 14.9 C 7.65 g/m*3 14.9 C 3.2 km/h
1013 11-03-2014 13:10:00 14.9 C 7.65 g/m*3 14.9 C 4.8 km/h
1014 11-03-2014 13:15:00 15.1 C 8 g/m*3 15.1 C 4.8 km/h
1015 11-03-2014 13:20:00 15.3 C 7.97 g/m*3 15.3 C 3.2 km/h
1016 11-03-2014 13:25:00 15.4 C 7.88 g/m*3 15.4 C 4.8 km/h
1017 11-03-2014 13:30:00 15.4 C 8.01 g/m*3 15.4 C 3.2 km/h
1018 11-03-2014 13:35:00 15.4 C 8.15 g/m*3 15.4 C 3.2 km/h
1019 11-03-2014 13:40:00 15.5 C 8.46 g/m*3 15.5 C 3.2 km/h
1020 11-03-2014 13:45:00 15.6 C 7.71 g/m*3 15.6 C 1.6 km/h
1021 11-03-2014 13:50:00 15.5 C 7.93 g/m*3 15.5 C 1.6 km/h
1022 11-03-2014 13:55:00 15.6 C 7.98 g/m*3 15.6 C 1.6 km/h
1023 11-03-2014 14:00:00 15.6 C 7.85 g/m*3 15.6 C 4.8 km/h
1024 11-03-2014 14:05:00 15.7 C 7.89 g/m*3 15.7 C 3.2 km/h
1025 11-03-2014 14:10:00 15.8 C 7.81 g/m*3 15.8 C 3.2 km/h
Sensor: Nr:Datum:Temp:Abs-Feuchte:Windchill:Wind:
Aussen-T/F 1026 11-03-2014 14:15:00 15.9 C 7.72 g/m*3 15.9 C 1.6 km/h
1027 11-03-2014 14:20:00 16 C 7.63 g/m*3 16 C 8.1 km/h
1028 11-03-2014 14:25:00 16.2 C 7.86 g/m*3 16.2 C 4.8 km/h
1029 11-03-2014 14:30:00 16.3 C 8.05 g/m*3 16.3 C 4.8 km/h
1030 11-03-2014 14:35:00 16.4 C 7.68 g/m*3 16.4 C 4.8 km/h
1031 11-03-2014 14:40:00 16.6 C 7.77 g/m*3 16.6 C 6.4 km/h
1032 11-03-2014 14:45:00 16.8 C 7.58 g/m*3 16.8 C 3.2 km/h
1033 11-03-2014 14:50:00 17.1 C 7.86 g/m*3 17.1 C 6.4 km/h
1034 11-03-2014 14:55:00 17.3 C 7.66 g/m*3 17.3 C 3.2 km/h
1035 11-03-2014 15:00:00 17.5 C 7.9 g/m*3 17.5 C 9.7 km/h
1036 11-03-2014 15:05:00 17.6 C 7.95 g/m*3 17.6 C 4.8 km/h
1037 11-03-2014 15:10:00 17.7 C 7.69 g/m*3 17.7 C 4.8 km/h
1038 11-03-2014 15:15:00 17.7 C 7.39 g/m*3 17.7 C 3.2 km/h
1039 11-03-2014 15:20:00 17.9 C 7.94 g/m*3 17.9 C 4.8 km/h
1040 11-03-2014 15:25:00 17.9 C 7.48 g/m*3 17.9 C 8.1 km/h
1041 11-03-2014 15:30:00 18 C 7.68 g/m*3 18 C 6.4 km/h
1042 11-03-2014 15:35:00 18.1 C 7.57 g/m*3 18.1 C 6.4 km/h
1043 11-03-2014 15:40:00 18.1 C 7.42 g/m*3 18.1 C 0 km/h
1044 11-03-2014 15:45:00 18.2 C 7.62 g/m*3 18.2 C 4.8 km/h
1045 11-03-2014 15:50:00 18.2 C 7.62 g/m*3 18.2 C 6.4 km/h
1046 11-03-2014 15:55:00 17.9 C 7.79 g/m*3 17.9 C 4.8 km/h
1047 11-03-2014 16:00:00 17.6 C 7.8 g/m*3 17.6 C 6.4 km/h
1048 11-03-2014 16:05:00 17.4 C 7.85 g/m*3 17.4 C 6.4 km/h
1049 11-03-2014 16:10:00 17.3 C 7.66 g/m*3 17.3 C 6.4 km/h
1050 11-03-2014 16:15:00 17.3 C 8.1 g/m*3 17.3 C 6.4 km/h
Sensor: Nr:Datum:Temp:Abs-Feuchte:Windchill:Wind:
Aussen-T/F 1051 11-03-2014 16:20:00 17.2 C 7.76 g/m*3 17.2 C 4.8 km/h
1052 11-03-2014 16:25:00 17.2 C 7.91 g/m*3 17.2 C 8.1 km/h
1053 11-03-2014 16:30:00 17.1 C 8.15 g/m*3 17.1 C 11.3 km/h
1054 11-03-2014 16:35:00 16.9 C 8.05 g/m*3 16.9 C 9.7 km/h
1055 11-03-2014 16:40:00 16.8 C 8.15 g/m*3 16.8 C 6.4 km/h
1056 11-03-2014 16:45:00 16.8 C 8.15 g/m*3 16.8 C 4.8 km/h
1057 11-03-2014 16:50:00 16.7 C 8.38 g/m*3 16.7 C 9.7 km/h
1058 11-03-2014 16:55:00 16.6 C 8.19 g/m*3 16.6 C 4.8 km/h
1059 11-03-2014 17:00:00 16.5 C 8.14 g/m*3 16.5 C 6.4 km/h
1060 11-03-2014 17:05:00 16.4 C 8.1 g/m*3 16.4 C 4.8 km/h
1061 11-03-2014 17:10:00 16.3 C 8.32 g/m*3 16.3 C 4.8 km/h
1062 11-03-2014 17:15:00 15.8 C 8.35 g/m*3 15.8 C 3.2 km/h
1063 11-03-2014 17:20:00 15.3 C 8.23 g/m*3 15.3 C 3.2 km/h
1064 11-03-2014 17:25:00 15.2 C 8.18 g/m*3 15.2 C 3.2 km/h
1065 11-03-2014 17:30:00 14.9 C 8.28 g/m*3 14.9 C 1.6 km/h
1066 11-03-2014 17:35:00 14.6 C 8.26 g/m*3 14.6 C 3.2 km/h
1067 11-03-2014 17:40:00 14 C 8.2 g/m*3 14 C 4.8 km/h
1068 11-03-2014 17:45:00 13.7 C 8.29 g/m*3 13.7 C 3.2 km/h
1069 11-03-2014 17:50:00 13.5 C 8.3 g/m*3 13.5 C 1.6 km/h
1070 11-03-2014 17:55:00 13.2 C 8.15 g/m*3 13.2 C 4.8 km/h
1071 11-03-2014 18:00:00 12.9 C 8.11 g/m*3 12.9 C 4.8 km/h
1072 11-03-2014 18:05:00 12.7 C 8.13 g/m*3 12.7 C 4.8 km/h
1073 11-03-2014 18:10:00 12.4 C 8.09 g/m*3 12.4 C 4.8 km/h
1074 11-03-2014 18:15:00 12.2 C 8.09 g/m*3 12.2 C 4.8 km/h
1075 11-03-2014 18:20:00 12 C 7.99 g/m*3 12 C 4.8 km/h
Sensor: Nr:Datum:Temp:Abs-Feuchte:Windchill:Wind:
Aussen-T/F 1076 11-03-2014 18:25:00 11.9 C 8.05 g/m*3 11.9 C 4.8 km/h
1077 11-03-2014 18:30:00 11.8 C 8 g/m*3 11.8 C 6.4 km/h
1078 11-03-2014 18:35:00 11.9 C 8.05 g/m*3 11.9 C 6.4 km/h
1079 11-03-2014 18:40:00 11.8 C 8 g/m*3 11.8 C 6.4 km/h
1080 11-03-2014 18:45:00 11.7 C 8.05 g/m*3 11.7 C 6.4 km/h
1081 11-03-2014 18:50:00 11.6 C 7.9 g/m*3 11.6 C 3.2 km/h
1082 11-03-2014 18:55:00 11.6 C 7.9 g/m*3 11.6 C 3.2 km/h
1083 11-03-2014 19:00:00 11.5 C 7.95 g/m*3 11.5 C 4.8 km/h
1084 11-03-2014 19:05:00 11.2 C 7.8 g/m*3 11.2 C 6.4 km/h
1085 11-03-2014 19:10:00 10.9 C 7.86 g/m*3 10.41 C 6.4 km/h
1086 11-03-2014 19:15:00 10.8 C 7.81 g/m*3 10.8 C 4.8 km/h
1087 11-03-2014 19:20:00 10.6 C 7.81 g/m*3 10.06 C 6.4 km/h
1088 11-03-2014 19:25:00 10.5 C 7.76 g/m*3 10.5 C 4.8 km/h
1089 11-03-2014 19:30:00 10.4 C 7.81 g/m*3 9.83 C 6.4 km/h
1090 11-03-2014 19:35:00 10.3 C 7.76 g/m*3 10.3 C 4.8 km/h
1091 11-03-2014 19:40:00 10.2 C 7.71 g/m*3 10.2 C 4.8 km/h
1092 11-03-2014 19:45:00 10.1 C 7.75 g/m*3 10.1 C 4.8 km/h
1093 11-03-2014 19:50:00 9.8 C 7.61 g/m*3 9.8 C 4.8 km/h
1094 11-03-2014 19:55:00 9.7 C 7.56 g/m*3 9.7 C 3.2 km/h
1095 11-03-2014 20:00:00 9.6 C 7.51 g/m*3 9.6 C 1.6 km/h
1096 11-03-2014 20:05:00 9.4 C 7.33 g/m*3 9.4 C 1.6 km/h
1097 11-03-2014 20:10:00 9.3 C 7.28 g/m*3 9.3 C 3.2 km/h
1098 11-03-2014 20:15:00 9.2 C 7.23 g/m*3 9.2 C 4.8 km/h
1099 11-03-2014 20:20:00 9.2 C 7.14 g/m*3 9.2 C 3.2 km/h
1100 11-03-2014 20:25:00 8.9 C 7.1 g/m*3 8.9 C 4.8 km/h
Sensor: Nr:Datum:Temp:Abs-Feuchte:Windchill:Wind:
Aussen-T/F 1101 11-03-2014 20:30:00 8.8 C 7.05 g/m*3 8.8 C 3.2 km/h
1102 11-03-2014 20:35:00 8.7 C 6.92 g/m*3 8.7 C 3.2 km/h
1103 11-03-2014 20:40:00 8.7 C 6.92 g/m*3 8.7 C 1.6 km/h
1104 11-03-2014 20:45:00 8.8 C 6.88 g/m*3 8.8 C 1.6 km/h
1105 11-03-2014 20:50:00 8.8 C 6.79 g/m*3 8.8 C 0 km/h
1106 11-03-2014 20:55:00 8.7 C 6.75 g/m*3 8.7 C 3.2 km/h
1107 11-03-2014 21:00:00 8.6 C 6.79 g/m*3 8.6 C 3.2 km/h
1108 11-03-2014 21:05:00 8.6 C 6.87 g/m*3 8.6 C 4.8 km/h
1109 11-03-2014 21:10:00 8.5 C 6.74 g/m*3 8.5 C 0 km/h
1110 11-03-2014 21:15:00 8.4 C 6.7 g/m*3 8.4 C 1.6 km/h
1111 11-03-2014 21:20:00 8.3 C 6.66 g/m*3 8.3 C 0 km/h
1112 11-03-2014 21:25:00 8.3 C 6.66 g/m*3 8.3 C 1.6 km/h
1113 11-03-2014 21:30:00 8.3 C 6.57 g/m*3 8.3 C 4.8 km/h
1114 11-03-2014 21:35:00 8.4 C 6.7 g/m*3 8.4 C 4.8 km/h
1115 11-03-2014 21:40:00 8.5 C 6.66 g/m*3 8.5 C 4.8 km/h
1116 11-03-2014 21:45:00 8.4 C 6.7 g/m*3 8.4 C 1.6 km/h
1117 11-03-2014 21:50:00 8.3 C 6.74 g/m*3 8.3 C 0 km/h
1118 11-03-2014 21:55:00 8.1 C 6.66 g/m*3 8.1 C 0 km/h
1119 11-03-2014 22:00:00 7.9 C 6.57 g/m*3 7.9 C 1.6 km/h
1120 11-03-2014 22:05:00 7.9 C 6.57 g/m*3 7.9 C 1.6 km/h
1121 11-03-2014 22:10:00 7.9 C 6.57 g/m*3 7.9 C 3.2 km/h
1122 11-03-2014 22:15:00 7.8 C 6.53 g/m*3 7.8 C 1.6 km/h
1123 11-03-2014 22:20:00 7.8 C 6.53 g/m*3 7.8 C 1.6 km/h
1124 11-03-2014 22:25:00 7.7 C 6.49 g/m*3 7.7 C 4.8 km/h
1125 11-03-2014 22:30:00 7.7 C 6.49 g/m*3 7.7 C 1.6 km/h
Sensor: Nr:Datum:Temp:Abs-Feuchte:Windchill:Wind:
Aussen-T/F 1126 11-03-2014 22:35:00 7.7 C 6.57 g/m*3 7.7 C 3.2 km/h
1127 11-03-2014 22:40:00 7.6 C 6.44 g/m*3 7.6 C 1.6 km/h
1128 11-03-2014 22:45:00 7.6 C 6.36 g/m*3 7.6 C 3.2 km/h
1129 11-03-2014 22:50:00 7.7 C 6.49 g/m*3 7.7 C 3.2 km/h
1130 11-03-2014 22:55:00 7.7 C 6.41 g/m*3 7.7 C 4.8 km/h
1131 11-03-2014 23:00:00 7.8 C 6.37 g/m*3 7.8 C 3.2 km/h
1132 11-03-2014 23:05:00 7.8 C 6.37 g/m*3 7.8 C 4.8 km/h
1133 11-03-2014 23:10:00 7.8 C 6.28 g/m*3 7.8 C 3.2 km/h
1134 11-03-2014 23:15:00 7.9 C 6.24 g/m*3 7.9 C 4.8 km/h
1135 11-03-2014 23:20:00 8.1 C 6.24 g/m*3 8.1 C 4.8 km/h
1136 11-03-2014 23:25:00 8.3 C 6.24 g/m*3 8.3 C 4.8 km/h
1137 11-03-2014 23:30:00 8.4 C 6.28 g/m*3 8.4 C 4.8 km/h
1138 11-03-2014 23:35:00 8.4 C 6.19 g/m*3 7.11 C 8.1 km/h
1139 11-03-2014 23:40:00 8.3 C 6.24 g/m*3 8.3 C 4.8 km/h
1140 11-03-2014 23:45:00 8.2 C 6.11 g/m*3 8.2 C 3.2 km/h
1141 11-03-2014 23:50:00 8.2 C 6.36 g/m*3 8.2 C 3.2 km/h
1142 11-03-2014 23:55:00 8 C 6.28 g/m*3 7.06 C 6.4 km/h
1143 12-03-2014 00:00:00 7.9 C 6.24 g/m*3 7.9 C 4.8 km/h
1144 12-03-2014 00:05:00 7.6 C 6.2 g/m*3 7.6 C 4.8 km/h
1145 12-03-2014 00:10:00 7.6 C 6.2 g/m*3 7.6 C 4.8 km/h
1146 12-03-2014 00:15:00 7.5 C 6.16 g/m*3 7.5 C 4.8 km/h
1147 12-03-2014 00:20:00 7.4 C 6.12 g/m*3 6.37 C 6.4 km/h
1148 12-03-2014 00:25:00 7.3 C 6.16 g/m*3 7.3 C 4.8 km/h
1149 12-03-2014 00:30:00 7.2 C 6.12 g/m*3 7.2 C 4.8 km/h
1150 12-03-2014 00:35:00 7.2 C 6.12 g/m*3 7.2 C 4.8 km/h
Sensor: Nr:Datum:Temp:Abs-Feuchte:Windchill:Wind:
Aussen-T/F 1151 12-03-2014 00:40:00 7.2 C 6.2 g/m*3 7.2 C 4.8 km/h
1152 12-03-2014 00:45:00 7.2 C 6.2 g/m*3 7.2 C 4.8 km/h
1153 12-03-2014 00:50:00 7.1 C 6.16 g/m*3 7.1 C 4.8 km/h
1154 12-03-2014 00:55:00 7.1 C 6.24 g/m*3 6.02 C 6.4 km/h
1155 12-03-2014 01:00:00 7.1 C 6.16 g/m*3 6.02 C 6.4 km/h
1156 12-03-2014 01:05:00 7 C 6.2 g/m*3 5.9 C 6.4 km/h
1157 12-03-2014 01:10:00 7 C 6.2 g/m*3 7 C 4.8 km/h
1158 12-03-2014 01:15:00 6.9 C 6.16 g/m*3 5.79 C 6.4 km/h
1159 12-03-2014 01:20:00 6.7 C 6.15 g/m*3 6.7 C 4.8 km/h
1160 12-03-2014 01:25:00 6.8 C 6.27 g/m*3 6.8 C 4.8 km/h
1161 12-03-2014 01:30:00 6.7 C 6.23 g/m*3 5.56 C 6.4 km/h
1162 12-03-2014 01:35:00 6.7 C 6.23 g/m*3 5.56 C 6.4 km/h
1163 12-03-2014 01:40:00 6.7 C 6.23 g/m*3 6.7 C 4.8 km/h
1164 12-03-2014 01:45:00 6.7 C 6.23 g/m*3 6.7 C 4.8 km/h
1165 12-03-2014 01:50:00 6.7 C 6.23 g/m*3 6.7 C 4.8 km/h
1166 12-03-2014 01:55:00 6.7 C 6.31 g/m*3 6.7 C 4.8 km/h
1167 12-03-2014 02:00:00 6.6 C 6.34 g/m*3 6.6 C 4.8 km/h
1168 12-03-2014 02:05:00 6.6 C 6.27 g/m*3 6.6 C 4.8 km/h
1169 12-03-2014 02:10:00 6.4 C 6.26 g/m*3 4.75 C 8.1 km/h
1170 12-03-2014 02:15:00 6.4 C 6.26 g/m*3 4.75 C 8.1 km/h
1171 12-03-2014 02:20:00 6.4 C 6.26 g/m*3 6.4 C 4.8 km/h
1172 12-03-2014 02:25:00 6.4 C 6.26 g/m*3 5.21 C 6.4 km/h
1173 12-03-2014 02:30:00 6.4 C 6.26 g/m*3 5.21 C 6.4 km/h
1174 12-03-2014 02:35:00 6.3 C 6.22 g/m*3 5.1 C 6.4 km/h
1175 12-03-2014 02:40:00 6.3 C 6.29 g/m*3 6.3 C 4.8 km/h
Sensor: Nr:Datum:Temp:Abs-Feuchte:Windchill:Wind:
Aussen-T/F 1176 12-03-2014 02:45:00 6.2 C 6.25 g/m*3 4.98 C 6.4 km/h
1177 12-03-2014 02:50:00 6.1 C 6.21 g/m*3 6.1 C 4.8 km/h
1178 12-03-2014 02:55:00 5.9 C 6.2 g/m*3 5.9 C 3.2 km/h
1179 12-03-2014 03:00:00 5.9 C 6.2 g/m*3 5.9 C 4.8 km/h
1180 12-03-2014 03:05:00 5.8 C 6.16 g/m*3 4.52 C 6.4 km/h
1181 12-03-2014 03:10:00 5.8 C 6.16 g/m*3 5.8 C 4.8 km/h
1182 12-03-2014 03:15:00 5.7 C 6.19 g/m*3 4.4 C 6.4 km/h
1183 12-03-2014 03:20:00 5.7 C 6.19 g/m*3 5.7 C 4.8 km/h
1184 12-03-2014 03:25:00 5.7 C 6.19 g/m*3 5.7 C 4.8 km/h
1185 12-03-2014 03:30:00 5.7 C 6.19 g/m*3 4.4 C 6.4 km/h
1186 12-03-2014 03:35:00 5.6 C 6.15 g/m*3 4.29 C 6.4 km/h
1187 12-03-2014 03:40:00 5.5 C 6.11 g/m*3 5.5 C 4.8 km/h
1188 12-03-2014 03:45:00 5.4 C 6.14 g/m*3 4.06 C 6.4 km/h
1189 12-03-2014 03:50:00 5.3 C 6.1 g/m*3 5.3 C 3.2 km/h
1190 12-03-2014 03:55:00 5.2 C 6.13 g/m*3 5.2 C 1.6 km/h
1191 12-03-2014 04:00:00 5 C 6.05 g/m*3 5 C 1.6 km/h
1192 12-03-2014 04:05:00 4.9 C 6.08 g/m*3 4.9 C 1.6 km/h
1193 12-03-2014 04:10:00 4.9 C 6.08 g/m*3 4.9 C 4.8 km/h
1194 12-03-2014 04:15:00 4.9 C 6.01 g/m*3 4.9 C 3.2 km/h
1195 12-03-2014 04:20:00 4.8 C 5.97 g/m*3 4.8 C 3.2 km/h
1196 12-03-2014 04:25:00 4.7 C 5.86 g/m*3 4.7 C 0 km/h
1197 12-03-2014 04:30:00 4.4 C 5.81 g/m*3 4.4 C 0 km/h
1198 12-03-2014 04:35:00 4.3 C 5.84 g/m*3 4.3 C 0 km/h
1199 12-03-2014 04:40:00 4.2 C 5.8 g/m*3 4.2 C 0 km/h
1200 12-03-2014 04:45:00 4.2 C 5.86 g/m*3 4.2 C 1.6 km/h
Sensor: Nr:Datum:Temp:Abs-Feuchte:Windchill:Wind:
Aussen-T/F 1201 12-03-2014 04:50:00 4.2 C 5.86 g/m*3 4.2 C 0 km/h
1202 12-03-2014 04:55:00 4.2 C 5.86 g/m*3 4.2 C 1.6 km/h
1203 12-03-2014 05:00:00 4.2 C 5.86 g/m*3 4.2 C 1.6 km/h
1204 12-03-2014 05:05:00 4.2 C 5.86 g/m*3 4.2 C 0 km/h
1205 12-03-2014 05:10:00 4.1 C 5.82 g/m*3 4.1 C 0 km/h
1206 12-03-2014 05:15:00 3.9 C 5.75 g/m*3 3.9 C 0 km/h
1207 12-03-2014 05:20:00 3.9 C 5.81 g/m*3 3.9 C 0 km/h
1208 12-03-2014 05:25:00 3.9 C 5.81 g/m*3 3.9 C 0 km/h
1209 12-03-2014 05:30:00 3.8 C 5.77 g/m*3 3.8 C 0 km/h
1210 12-03-2014 05:35:00 3.7 C 5.73 g/m*3 3.7 C 0 km/h
1211 12-03-2014 05:40:00 3.6 C 5.69 g/m*3 3.6 C 1.6 km/h
1212 12-03-2014 05:45:00 3.4 C 5.62 g/m*3 3.4 C 1.6 km/h
1213 12-03-2014 05:50:00 3.3 C 5.58 g/m*3 3.3 C 0 km/h
1214 12-03-2014 05:55:00 3.3 C 5.58 g/m*3 3.3 C 0 km/h
1215 12-03-2014 06:00:00 3.2 C 5.54 g/m*3 3.2 C 0 km/h
1216 12-03-2014 06:05:00 3.1 C 5.57 g/m*3 3.1 C 0 km/h
1217 12-03-2014 06:10:00 3.1 C 5.57 g/m*3 3.1 C 0 km/h
1218 12-03-2014 06:15:00 3.1 C 5.57 g/m*3 3.1 C 0 km/h
1219 12-03-2014 06:20:00 3.1 C 5.57 g/m*3 3.1 C 0 km/h
1220 12-03-2014 06:25:00 3 C 5.53 g/m*3 3 C 0 km/h
1221 12-03-2014 06:30:00 3 C 5.59 g/m*3 3 C 0 km/h
1222 12-03-2014 06:35:00 2.9 C 5.55 g/m*3 2.9 C 0 km/h
1223 12-03-2014 06:40:00 2.8 C 5.51 g/m*3 2.8 C 1.6 km/h
1224 12-03-2014 06:45:00 2.8 C 5.51 g/m*3 2.8 C 0 km/h
1225 12-03-2014 06:50:00 2.8 C 5.51 g/m*3 2.8 C 0 km/h
Sensor: Nr:Datum:Temp:Abs-Feuchte:Windchill:Wind:
Aussen-T/F 1226 12-03-2014 06:55:00 2.8 C 5.51 g/m*3 2.8 C 0 km/h
1227 12-03-2014 07:00:00 2.7 C 5.48 g/m*3 2.7 C 0 km/h
1228 12-03-2014 07:05:00 2.7 C 5.48 g/m*3 2.7 C 0 km/h
1229 12-03-2014 07:10:00 2.7 C 5.48 g/m*3 2.7 C 0 km/h
1230 12-03-2014 07:15:00 2.6 C 5.44 g/m*3 2.6 C 0 km/h
1231 12-03-2014 07:20:00 2.7 C 5.54 g/m*3 2.7 C 0 km/h
1232 12-03-2014 07:25:00 2.7 C 5.54 g/m*3 2.7 C 0 km/h
1233 12-03-2014 07:30:00 2.6 C 5.5 g/m*3 2.6 C 0 km/h
1234 12-03-2014 07:35:00 2.6 C 5.5 g/m*3 2.6 C 0 km/h
1235 12-03-2014 07:40:00 2.6 C 5.5 g/m*3 2.6 C 0 km/h
1236 12-03-2014 07:45:00 2.6 C 5.5 g/m*3 2.6 C 0 km/h
1237 12-03-2014 07:50:00 2.7 C 5.54 g/m*3 2.7 C 0 km/h
1238 12-03-2014 07:55:00 2.8 C 5.57 g/m*3 2.8 C 0 km/h
1239 12-03-2014 08:00:00 2.9 C 5.61 g/m*3 2.9 C 1.6 km/h
1240 12-03-2014 08:05:00 2.9 C 5.61 g/m*3 2.9 C 0 km/h
1241 12-03-2014 08:10:00 2.9 C 5.61 g/m*3 2.9 C 0 km/h
1242 12-03-2014 08:15:00 2.9 C 5.61 g/m*3 2.9 C 0 km/h
1243 12-03-2014 08:20:00 2.9 C 5.61 g/m*3 2.9 C 1.6 km/h
1244 12-03-2014 08:25:00 2.9 C 5.61 g/m*3 2.9 C 0 km/h
1245 12-03-2014 08:30:00 2.9 C 5.61 g/m*3 2.9 C 0 km/h
1246 12-03-2014 08:35:00 3 C 5.65 g/m*3 3 C 0 km/h
1247 12-03-2014 08:40:00 3.1 C 5.69 g/m*3 3.1 C 0 km/h
1248 12-03-2014 08:45:00 3.1 C 5.69 g/m*3 3.1 C 0 km/h
1249 12-03-2014 08:50:00 3.2 C 5.79 g/m*3 3.2 C 0 km/h
1250 12-03-2014 08:55:00 3.3 C 5.82 g/m*3 3.3 C 0 km/h
Sensor: Nr:Datum:Temp:Abs-Feuchte:Windchill:Wind:
Aussen-T/F 1251 12-03-2014 09:00:00 3.4 C 5.86 g/m*3 3.4 C 0 km/h
1252 12-03-2014 09:05:00 3.5 C 5.9 g/m*3 3.5 C 0 km/h
1253 12-03-2014 09:10:00 3.6 C 5.94 g/m*3 3.6 C 0 km/h
1254 12-03-2014 09:15:00 3.7 C 5.98 g/m*3 3.7 C 0 km/h
1255 12-03-2014 09:20:00 3.8 C 6.02 g/m*3 3.8 C 0 km/h
1256 12-03-2014 09:25:00 3.9 C 6.06 g/m*3 3.9 C 0 km/h
1257 12-03-2014 09:30:00 4.2 C 6.19 g/m*3 4.2 C 0 km/h
1258 12-03-2014 09:35:00 4.3 C 6.23 g/m*3 4.3 C 0 km/h
1259 12-03-2014 09:40:00 4.8 C 6.44 g/m*3 4.8 C 0 km/h
1260 12-03-2014 09:45:00 5.2 C 6.68 g/m*3 5.2 C 0 km/h
1261 12-03-2014 09:50:00 5.5 C 6.81 g/m*3 5.5 C 0 km/h
1262 12-03-2014 09:55:00 5.8 C 6.95 g/m*3 5.8 C 0 km/h
1263 12-03-2014 10:00:00 6 C 6.97 g/m*3 6 C 0 km/h
1264 12-03-2014 10:05:00 6.2 C 7.06 g/m*3 6.2 C 0 km/h
1265 12-03-2014 10:10:00 6.4 C 7.15 g/m*3 6.4 C 0 km/h
1266 12-03-2014 10:15:00 6.7 C 7.22 g/m*3 6.7 C 0 km/h
1267 12-03-2014 10:20:00 7 C 7.36 g/m*3 7 C 0 km/h
1268 12-03-2014 10:25:00 7.2 C 7.3 g/m*3 7.2 C 0 km/h
1269 12-03-2014 10:30:00 7.4 C 7.32 g/m*3 7.4 C 1.6 km/h
1270 12-03-2014 10:35:00 7.6 C 7.41 g/m*3 7.6 C 0 km/h
1271 12-03-2014 10:40:00 7.8 C 7.43 g/m*3 7.8 C 0 km/h
1272 12-03-2014 10:45:00 7.9 C 7.39 g/m*3 7.9 C 0 km/h
1273 12-03-2014 10:50:00 8.2 C 7.45 g/m*3 8.2 C 0 km/h
1274 12-03-2014 10:55:00 8.4 C 7.47 g/m*3 8.4 C 0 km/h
1275 12-03-2014 11:00:00 8.7 C 7.52 g/m*3 8.7 C 3.2 km/h
Sensor: Nr:Datum:Temp:Abs-Feuchte:Windchill:Wind:
Aussen-T/F 1276 12-03-2014 11:05:00 8.9 C 7.62 g/m*3 8.9 C 1.6 km/h
1277 12-03-2014 11:10:00 9.2 C 7.5 g/m*3 9.2 C 1.6 km/h
1278 12-03-2014 11:15:00 9.5 C 7.55 g/m*3 9.5 C 1.6 km/h
1279 12-03-2014 11:20:00 9.8 C 7.33 g/m*3 9.8 C 3.2 km/h
1280 12-03-2014 11:25:00 10.2 C 7.52 g/m*3 10.2 C 1.6 km/h
1281 12-03-2014 11:30:00 10.6 C 7.61 g/m*3 10.6 C 3.2 km/h
1282 12-03-2014 11:35:00 10.8 C 7.22 g/m*3 10.8 C 4.8 km/h
1283 12-03-2014 11:40:00 11.3 C 7.34 g/m*3 11.3 C 4.8 km/h
1284 12-03-2014 11:45:00 11.8 C 7.16 g/m*3 11.8 C 3.2 km/h
1285 12-03-2014 11:50:00 12.2 C 7.01 g/m*3 12.2 C 3.2 km/h
1286 12-03-2014 11:55:00 12.6 C 7.08 g/m*3 12.6 C 3.2 km/h
1287 12-03-2014 12:00:00 12.9 C 7.33 g/m*3 12.9 C 3.2 km/h
1288 12-03-2014 12:05:00 13.2 C 7.58 g/m*3 13.2 C 3.2 km/h
1289 12-03-2014 12:10:00 13.5 C 7.37 g/m*3 13.5 C 6.4 km/h
1290 12-03-2014 12:15:00 13.9 C 7.67 g/m*3 13.9 C 3.2 km/h
1291 12-03-2014 12:20:00 14.3 C 7.37 g/m*3 14.3 C 3.2 km/h
1292 12-03-2014 12:25:00 14.7 C 7.43 g/m*3 14.7 C 4.8 km/h
1293 12-03-2014 12:30:00 15.2 C 7.53 g/m*3 15.2 C 3.2 km/h
1294 12-03-2014 12:35:00 15.7 C 8.03 g/m*3 15.7 C 3.2 km/h
1295 12-03-2014 12:40:00 16 C 7.9 g/m*3 16 C 3.2 km/h
1296 12-03-2014 12:45:00 16.2 C 7.31 g/m*3 16.2 C 3.2 km/h
1297 12-03-2014 12:50:00 16.5 C 7.3 g/m*3 16.5 C 6.4 km/h
1298 12-03-2014 12:55:00 16.6 C 7.35 g/m*3 16.6 C 8.1 km/h
1299 12-03-2014 13:00:00 16.7 C 7.11 g/m*3 16.7 C 8.1 km/h
1300 12-03-2014 13:05:00 16.8 C 7.15 g/m*3 16.8 C 6.4 km/h
Sensor: Nr:Datum:Temp:Abs-Feuchte:Windchill:Wind:
Aussen-T/F 1301 12-03-2014 13:10:00 17 C 7.09 g/m*3 17 C 6.4 km/h
1302 12-03-2014 13:15:00 17.2 C 7.18 g/m*3 17.2 C 4.8 km/h
1303 12-03-2014 13:20:00 17.3 C 7.22 g/m*3 17.3 C 6.4 km/h
1304 12-03-2014 13:25:00 17.3 C 7.07 g/m*3 17.3 C 4.8 km/h
1305 12-03-2014 13:30:00 17.3 C 6.63 g/m*3 17.3 C 4.8 km/h
1306 12-03-2014 13:35:00 17.3 C 6.78 g/m*3 17.3 C 4.8 km/h
1307 12-03-2014 13:40:00 17.3 C 6.78 g/m*3 17.3 C 3.2 km/h
1308 12-03-2014 13:45:00 17.3 C 6.63 g/m*3 17.3 C 6.4 km/h
1309 12-03-2014 13:50:00 17.3 C 6.63 g/m*3 17.3 C 3.2 km/h
1310 12-03-2014 13:55:00 17.3 C 6.48 g/m*3 17.3 C 4.8 km/h
1311 12-03-2014 14:00:00 17.3 C 6.48 g/m*3 17.3 C 6.4 km/h
1312 12-03-2014 14:05:00 17.3 C 6.78 g/m*3 17.3 C 6.4 km/h
1313 12-03-2014 14:10:00 17.4 C 6.67 g/m*3 17.4 C 6.4 km/h
1314 12-03-2014 14:15:00 17.4 C 6.22 g/m*3 17.4 C 6.4 km/h
1315 12-03-2014 14:20:00 17.4 C 6.37 g/m*3 17.4 C 8.1 km/h
1316 12-03-2014 14:25:00 17.5 C 6.56 g/m*3 17.5 C 6.4 km/h
1317 12-03-2014 14:30:00 17.6 C 6.6 g/m*3 17.6 C 4.8 km/h
1318 12-03-2014 14:35:00 17.7 C 6.49 g/m*3 17.7 C 4.8 km/h
1319 12-03-2014 14:40:00 17.8 C 6.98 g/m*3 17.8 C 4.8 km/h
1320 12-03-2014 14:45:00 17.9 C 6.11 g/m*3 17.9 C 4.8 km/h
1321 12-03-2014 14:50:00 18.1 C 6.33 g/m*3 18.1 C 6.4 km/h
1322 12-03-2014 14:55:00 18.3 C 6.88 g/m*3 18.3 C 8.1 km/h
1323 12-03-2014 15:00:00 18.4 C 6.45 g/m*3 18.4 C 4.8 km/h
1324 12-03-2014 15:05:00 18.6 C 6.53 g/m*3 18.6 C 6.4 km/h
1325 12-03-2014 15:10:00 18.7 C 6.24 g/m*3 18.7 C 8.1 km/h
Sensor: Nr:Datum:Temp:Abs-Feuchte:Windchill:Wind:
Aussen-T/F 1326 12-03-2014 15:15:00 18.7 C 5.92 g/m*3 18.7 C 6.4 km/h
1327 12-03-2014 15:20:00 18.7 C 5.92 g/m*3 18.7 C 9.7 km/h
1328 12-03-2014 15:25:00 18.8 C 6.12 g/m*3 18.8 C 6.4 km/h
1329 12-03-2014 15:30:00 19 C 5.87 g/m*3 19 C 6.4 km/h
1330 12-03-2014 15:35:00 19.1 C 5.74 g/m*3 19.1 C 9.7 km/h
1331 12-03-2014 15:40:00 19.2 C 6.43 g/m*3 19.2 C 4.8 km/h
1332 12-03-2014 15:45:00 19.2 C 6.1 g/m*3 19.2 C 6.4 km/h
1333 12-03-2014 15:50:00 19.2 C 5.94 g/m*3 19.2 C 6.4 km/h
1334 12-03-2014 15:55:00 19.1 C 5.74 g/m*3 19.1 C 3.2 km/h
1335 12-03-2014 16:00:00 18.9 C 5.83 g/m*3 18.9 C 8.1 km/h
1336 12-03-2014 16:05:00 18.7 C 6.24 g/m*3 18.7 C 3.2 km/h
1337 12-03-2014 16:10:00 18.3 C 5.94 g/m*3 18.3 C 3.2 km/h
1338 12-03-2014 16:15:00 18.2 C 5.6 g/m*3 18.2 C 3.2 km/h
1339 12-03-2014 16:20:00 18.1 C 6.8 g/m*3 18.1 C 1.6 km/h
1340 12-03-2014 16:25:00 17.4 C 6.52 g/m*3 17.4 C 1.6 km/h
1341 12-03-2014 16:30:00 17.1 C 6.11 g/m*3 17.1 C 3.2 km/h
1342 12-03-2014 16:35:00 17 C 6.66 g/m*3 17 C 1.6 km/h
1343 12-03-2014 16:40:00 16.7 C 5.68 g/m*3 16.7 C 3.2 km/h
1344 12-03-2014 16:45:00 16.7 C 6.82 g/m*3 16.7 C 3.2 km/h
1345 12-03-2014 16:50:00 16.4 C 5.86 g/m*3 16.4 C 6.4 km/h
1346 12-03-2014 16:55:00 16.6 C 6.36 g/m*3 16.6 C 4.8 km/h
1347 12-03-2014 17:00:00 16.4 C 6.42 g/m*3 16.4 C 3.2 km/h
1348 12-03-2014 17:05:00 16.4 C 6.84 g/m*3 16.4 C 3.2 km/h
1349 12-03-2014 17:10:00 16.1 C 6.85 g/m*3 16.1 C 1.6 km/h
1350 12-03-2014 17:15:00 15.7 C 6.69 g/m*3 15.7 C 4.8 km/h
Sensor: Nr:Datum:Temp:Abs-Feuchte:Windchill:Wind:
Aussen-T/F 1351 12-03-2014 17:20:00 15.4 C 6.57 g/m*3 15.4 C 4.8 km/h
1352 12-03-2014 17:25:00 15.2 C 6.88 g/m*3 15.2 C 6.4 km/h
1353 12-03-2014 17:30:00 14.9 C 7.01 g/m*3 14.9 C 6.4 km/h
1354 12-03-2014 17:35:00 14.7 C 6.92 g/m*3 14.7 C 6.4 km/h
1355 12-03-2014 17:40:00 14.5 C 6.84 g/m*3 14.5 C 4.8 km/h
1356 12-03-2014 17:45:00 14.2 C 6.84 g/m*3 14.2 C 4.8 km/h
1357 12-03-2014 17:50:00 14.1 C 6.92 g/m*3 14.1 C 4.8 km/h
1358 12-03-2014 17:55:00 13.8 C 6.67 g/m*3 13.8 C 6.4 km/h
1359 12-03-2014 18:00:00 13.7 C 6.63 g/m*3 13.7 C 6.4 km/h
1360 12-03-2014 18:05:00 13.4 C 6.63 g/m*3 13.4 C 6.4 km/h
1361 12-03-2014 18:10:00 13.2 C 6.54 g/m*3 13.2 C 6.4 km/h
1362 12-03-2014 18:15:00 12.9 C 6.42 g/m*3 12.9 C 6.4 km/h
1363 12-03-2014 18:20:00 12.6 C 6.42 g/m*3 12.6 C 6.4 km/h
1364 12-03-2014 18:25:00 12.4 C 6.45 g/m*3 12.4 C 6.4 km/h
1365 12-03-2014 18:30:00 12.2 C 6.47 g/m*3 12.2 C 8.1 km/h
1366 12-03-2014 18:35:00 12 C 6.39 g/m*3 12 C 8.1 km/h
1367 12-03-2014 18:40:00 11.9 C 6.35 g/m*3 11.9 C 8.1 km/h
1368 12-03-2014 18:45:00 11.7 C 6.38 g/m*3 11.7 C 8.1 km/h
1369 12-03-2014 18:50:00 11.5 C 6.4 g/m*3 11.5 C 6.4 km/h
1370 12-03-2014 18:55:00 11.4 C 6.36 g/m*3 11.4 C 8.1 km/h
1371 12-03-2014 19:00:00 11.2 C 6.28 g/m*3 11.2 C 6.4 km/h
1372 12-03-2014 19:05:00 11.2 C 6.39 g/m*3 11.2 C 8.1 km/h
1373 12-03-2014 19:10:00 11.1 C 6.75 g/m*3 11.1 C 8.1 km/h
1374 12-03-2014 19:15:00 10.8 C 6.42 g/m*3 10.8 C 4.8 km/h
1375 12-03-2014 19:20:00 10.6 C 6.44 g/m*3 10.06 C 6.4 km/h
Sensor: Nr:Datum:Temp:Abs-Feuchte:Windchill:Wind:
Aussen-T/F 1376 12-03-2014 19:25:00 10.5 C 6.5 g/m*3 9.95 C 6.4 km/h
1377 12-03-2014 19:30:00 10.4 C 6.46 g/m*3 9.46 C 8.1 km/h
1378 12-03-2014 19:35:00 10.3 C 6.51 g/m*3 9.72 C 6.4 km/h
1379 12-03-2014 19:40:00 10.3 C 6.42 g/m*3 10.3 C 4.8 km/h
1380 12-03-2014 19:45:00 10.2 C 6.47 g/m*3 10.2 C 4.8 km/h
1381 12-03-2014 19:50:00 9.9 C 6.54 g/m*3 9.9 C 4.8 km/h
1382 12-03-2014 19:55:00 9.8 C 6.4 g/m*3 9.8 C 4.8 km/h
1383 12-03-2014 20:00:00 9.7 C 6.36 g/m*3 9.7 C 4.8 km/h
1384 12-03-2014 20:05:00 9.6 C 6.32 g/m*3 9.6 C 4.8 km/h
1385 12-03-2014 20:10:00 9.5 C 6.28 g/m*3 9.5 C 4.8 km/h
1386 12-03-2014 20:15:00 9.4 C 6.24 g/m*3 9.4 C 4.8 km/h
1387 12-03-2014 20:20:00 9.2 C 6.43 g/m*3 9.2 C 4.8 km/h
1388 12-03-2014 20:25:00 9 C 6.44 g/m*3 9 C 3.2 km/h
1389 12-03-2014 20:30:00 8.9 C 6.39 g/m*3 8.9 C 3.2 km/h
1390 12-03-2014 20:35:00 8.8 C 6.35 g/m*3 8.8 C 4.8 km/h
1391 12-03-2014 20:40:00 8.8 C 6.35 g/m*3 8.8 C 3.2 km/h
1392 12-03-2014 20:45:00 8.8 C 6.35 g/m*3 8.8 C 3.2 km/h
1393 12-03-2014 20:50:00 8.7 C 6.23 g/m*3 8.7 C 1.6 km/h
1394 12-03-2014 20:55:00 8.6 C 6.44 g/m*3 8.6 C 1.6 km/h
1395 12-03-2014 21:00:00 8.4 C 6.28 g/m*3 8.4 C 0 km/h
1396 12-03-2014 21:05:00 8.2 C 6.28 g/m*3 8.2 C 3.2 km/h
1397 12-03-2014 21:10:00 8 C 6.28 g/m*3 8 C 1.6 km/h
1398 12-03-2014 21:15:00 7.9 C 6.32 g/m*3 7.9 C 0 km/h
1399 12-03-2014 21:20:00 7.8 C 6.28 g/m*3 7.8 C 1.6 km/h
1400 12-03-2014 21:25:00 7.8 C 6.28 g/m*3 7.8 C 3.2 km/h
Sensor: Nr:Datum:Temp:Abs-Feuchte:Windchill:Wind:
Aussen-T/F 1401 12-03-2014 21:30:00 7.7 C 6.24 g/m*3 7.7 C 0 km/h
1402 12-03-2014 21:35:00 7.6 C 6.04 g/m*3 7.6 C 0 km/h
1403 12-03-2014 21:40:00 7.4 C 6.04 g/m*3 7.4 C 1.6 km/h
1404 12-03-2014 21:45:00 7.3 C 6.08 g/m*3 7.3 C 0 km/h
1405 12-03-2014 21:50:00 7.2 C 6.12 g/m*3 7.2 C 0 km/h
1406 12-03-2014 21:55:00 7.1 C 6.08 g/m*3 7.1 C 0 km/h
1407 12-03-2014 22:00:00 6.9 C 6 g/m*3 6.9 C 0 km/h
1408 12-03-2014 22:05:00 6.8 C 5.97 g/m*3 6.8 C 0 km/h
1409 12-03-2014 22:10:00 6.7 C 5.93 g/m*3 6.7 C 0 km/h
1410 12-03-2014 22:15:00 6.5 C 5.85 g/m*3 6.5 C 0 km/h
1411 12-03-2014 22:20:00 6.3 C 5.92 g/m*3 6.3 C 0 km/h
1412 12-03-2014 22:25:00 6.3 C 5.92 g/m*3 6.3 C 0 km/h
1413 12-03-2014 22:30:00 6.2 C 5.88 g/m*3 6.2 C 0 km/h
1414 12-03-2014 22:35:00 6.2 C 5.96 g/m*3 6.2 C 0 km/h
1415 12-03-2014 22:40:00 6.1 C 5.99 g/m*3 6.1 C 0 km/h
1416 12-03-2014 22:45:00 6.1 C 5.99 g/m*3 6.1 C 1.6 km/h
1417 12-03-2014 22:50:00 6 C 5.95 g/m*3 6 C 0 km/h
1418 12-03-2014 22:55:00 5.9 C 5.91 g/m*3 5.9 C 0 km/h
1419 12-03-2014 23:00:00 5.9 C 5.91 g/m*3 5.9 C 0 km/h
1420 12-03-2014 23:05:00 5.8 C 5.87 g/m*3 5.8 C 0 km/h
1421 12-03-2014 23:10:00 5.8 C 5.87 g/m*3 5.8 C 0 km/h
1422 12-03-2014 23:15:00 5.8 C 5.87 g/m*3 5.8 C 0 km/h
1423 12-03-2014 23:20:00 5.7 C 5.91 g/m*3 5.7 C 0 km/h
1424 12-03-2014 23:25:00 5.6 C 5.87 g/m*3 5.6 C 0 km/h
1425 12-03-2014 23:30:00 5.6 C 5.87 g/m*3 5.6 C 0 km/h
Sensor: Nr:Datum:Temp:Abs-Feuchte:Windchill:Wind:
Aussen-T/F 1426 12-03-2014 23:35:00 5.4 C 5.79 g/m*3 5.4 C 0 km/h
1427 12-03-2014 23:40:00 5.3 C 5.75 g/m*3 5.3 C 0 km/h
1428 12-03-2014 23:45:00 5.2 C 5.71 g/m*3 5.2 C 0 km/h
1429 12-03-2014 23:50:00 5.1 C 5.75 g/m*3 5.1 C 0 km/h
1430 12-03-2014 23:55:00 4.9 C 5.67 g/m*3 4.9 C 0 km/h
1431 13-03-2014 00:00:00 4.8 C 5.63 g/m*3 4.8 C 0 km/h
1432 13-03-2014 00:05:00 4.6 C 5.62 g/m*3 4.6 C 0 km/h
1433 13-03-2014 00:10:00 4.5 C 5.65 g/m*3 4.5 C 0 km/h
1434 13-03-2014 00:15:00 4.5 C 5.65 g/m*3 4.5 C 0 km/h
1435 13-03-2014 00:20:00 4.5 C 5.65 g/m*3 4.5 C 0 km/h
1436 13-03-2014 00:25:00 4.4 C 5.62 g/m*3 4.4 C 0 km/h
1437 13-03-2014 00:30:00 4.4 C 5.68 g/m*3 4.4 C 0 km/h
1438 13-03-2014 00:35:00 4.4 C 5.62 g/m*3 4.4 C 0 km/h
1439 13-03-2014 00:40:00 4.3 C 5.64 g/m*3 4.3 C 0 km/h
1440 13-03-2014 00:45:00 4.3 C 5.64 g/m*3 4.3 C 0 km/h
1441 13-03-2014 00:50:00 4.3 C 5.64 g/m*3 4.3 C 0 km/h
1442 13-03-2014 00:55:00 4.3 C 5.58 g/m*3 4.3 C 0 km/h
1443 13-03-2014 01:00:00 4.2 C 5.61 g/m*3 4.2 C 0 km/h
1444 13-03-2014 01:05:00 4.2 C 5.61 g/m*3 4.2 C 0 km/h
1445 13-03-2014 01:10:00 4.2 C 5.61 g/m*3 4.2 C 0 km/h
1446 13-03-2014 01:15:00 4.2 C 5.61 g/m*3 4.2 C 0 km/h
1447 13-03-2014 01:20:00 4.2 C 5.61 g/m*3 4.2 C 0 km/h
1448 13-03-2014 01:25:00 4.1 C 5.63 g/m*3 4.1 C 1.6 km/h
1449 13-03-2014 01:30:00 4.2 C 5.67 g/m*3 4.2 C 1.6 km/h
1450 13-03-2014 01:35:00 4.2 C 5.67 g/m*3 4.2 C 0 km/h
Sensor: Nr:Datum:Temp:Abs-Feuchte:Windchill:Wind:
Aussen-T/F 1451 13-03-2014 01:40:00 4.1 C 5.57 g/m*3 4.1 C 3.2 km/h
1452 13-03-2014 01:45:00 4.1 C 5.57 g/m*3 4.1 C 0 km/h
1453 13-03-2014 01:50:00 3.9 C 5.49 g/m*3 3.9 C 0 km/h
1454 13-03-2014 01:55:00 3.8 C 5.52 g/m*3 3.8 C 0 km/h
1455 13-03-2014 02:00:00 3.8 C 5.52 g/m*3 3.8 C 0 km/h
1456 13-03-2014 02:05:00 3.8 C 5.52 g/m*3 3.8 C 0 km/h
1457 13-03-2014 02:10:00 3.8 C 5.58 g/m*3 3.8 C 0 km/h
1458 13-03-2014 02:15:00 3.8 C 5.52 g/m*3 3.8 C 1.6 km/h
1459 13-03-2014 02:20:00 3.7 C 5.48 g/m*3 3.7 C 0 km/h
1460 13-03-2014 02:25:00 3.7 C 5.48 g/m*3 3.7 C 0 km/h
1461 13-03-2014 02:30:00 3.6 C 5.45 g/m*3 3.6 C 1.6 km/h
1462 13-03-2014 02:35:00 3.4 C 5.37 g/m*3 3.4 C 0 km/h
1463 13-03-2014 02:40:00 3.3 C 5.34 g/m*3 3.3 C 0 km/h
1464 13-03-2014 02:45:00 3.3 C 5.4 g/m*3 3.3 C 0 km/h
1465 13-03-2014 02:50:00 3.3 C 5.4 g/m*3 3.3 C 0 km/h
1466 13-03-2014 02:55:00 3.3 C 5.4 g/m*3 3.3 C 0 km/h
1467 13-03-2014 03:00:00 3.3 C 5.4 g/m*3 3.3 C 0 km/h
1468 13-03-2014 03:05:00 3.2 C 5.36 g/m*3 3.2 C 1.6 km/h
1469 13-03-2014 03:10:00 3.1 C 5.33 g/m*3 3.1 C 1.6 km/h
1470 13-03-2014 03:15:00 3.1 C 5.39 g/m*3 3.1 C 0 km/h
1471 13-03-2014 03:20:00 3.1 C 5.39 g/m*3 3.1 C 1.6 km/h
1472 13-03-2014 03:25:00 3.1 C 5.39 g/m*3 3.1 C 0 km/h
1473 13-03-2014 03:30:00 3 C 5.29 g/m*3 3 C 0 km/h
1474 13-03-2014 03:35:00 2.9 C 5.32 g/m*3 2.9 C 0 km/h
1475 13-03-2014 03:40:00 2.8 C 5.28 g/m*3 2.8 C 0 km/h
Sensor: Nr:Datum:Temp:Abs-Feuchte:Windchill:Wind:
Aussen-T/F 1476 13-03-2014 03:45:00 2.8 C 5.28 g/m*3 2.8 C 0 km/h
1477 13-03-2014 03:50:00 2.8 C 5.28 g/m*3 2.8 C 0 km/h
1478 13-03-2014 03:55:00 2.8 C 5.28 g/m*3 2.8 C 0 km/h
1479 13-03-2014 04:00:00 2.7 C 5.24 g/m*3 2.7 C 0 km/h
1480 13-03-2014 04:05:00 2.6 C 5.21 g/m*3 2.6 C 0 km/h
1481 13-03-2014 04:10:00 2.5 C 5.17 g/m*3 2.5 C 0 km/h
1482 13-03-2014 04:15:00 2.4 C 5.14 g/m*3 2.4 C 0 km/h
1483 13-03-2014 04:20:00 2.4 C 5.2 g/m*3 2.4 C 0 km/h
1484 13-03-2014 04:25:00 2.4 C 5.2 g/m*3 2.4 C 0 km/h
1485 13-03-2014 04:30:00 2.3 C 5.16 g/m*3 2.3 C 0 km/h
1486 13-03-2014 04:35:00 2.2 C 5.13 g/m*3 2.2 C 0 km/h
1487 13-03-2014 04:40:00 2.2 C 5.13 g/m*3 2.2 C 0 km/h
1488 13-03-2014 04:45:00 2.1 C 5.09 g/m*3 2.1 C 1.6 km/h
1489 13-03-2014 04:50:00 2.1 C 5.15 g/m*3 2.1 C 0 km/h
1490 13-03-2014 04:55:00 2 C 5.11 g/m*3 2 C 0 km/h
1491 13-03-2014 05:00:00 2 C 5.11 g/m*3 2 C 0 km/h
1492 13-03-2014 05:05:00 1.9 C 5.08 g/m*3 1.9 C 0 km/h
1493 13-03-2014 05:10:00 1.8 C 5.04 g/m*3 1.8 C 0 km/h
1494 13-03-2014 05:15:00 1.7 C 5.01 g/m*3 1.7 C 0 km/h
1495 13-03-2014 05:20:00 1.8 C 5.04 g/m*3 1.8 C 0 km/h
1496 13-03-2014 05:25:00 1.8 C 5.1 g/m*3 1.8 C 0 km/h
1497 13-03-2014 05:30:00 1.7 C 5.01 g/m*3 1.7 C 0 km/h
1498 13-03-2014 05:35:00 1.7 C 5.01 g/m*3 1.7 C 0 km/h
1499 13-03-2014 05:40:00 1.7 C 5.06 g/m*3 1.7 C 0 km/h
1500 13-03-2014 05:45:00 1.7 C 5.06 g/m*3 1.7 C 0 km/h
Sensor: Nr:Datum:Temp:Abs-Feuchte:Windchill:Wind:
Aussen-T/F 1501 13-03-2014 05:50:00 1.6 C 5.03 g/m*3 1.6 C 0 km/h
1502 13-03-2014 05:55:00 1.5 C 4.94 g/m*3 1.5 C 1.6 km/h
1503 13-03-2014 06:00:00 1.4 C 4.96 g/m*3 1.4 C 0 km/h
1504 13-03-2014 06:05:00 1.4 C 4.96 g/m*3 1.4 C 0 km/h
1505 13-03-2014 06:10:00 1.4 C 4.96 g/m*3 1.4 C 0 km/h
1506 13-03-2014 06:15:00 1.3 C 4.93 g/m*3 1.3 C 0 km/h
1507 13-03-2014 06:20:00 1.3 C 4.93 g/m*3 1.3 C 0 km/h
1508 13-03-2014 06:25:00 1.3 C 4.93 g/m*3 1.3 C 0 km/h
1509 13-03-2014 06:30:00 1.2 C 4.89 g/m*3 1.2 C 0 km/h
1510 13-03-2014 06:35:00 1.3 C 4.98 g/m*3 1.3 C 0 km/h
1511 13-03-2014 06:40:00 1.2 C 4.89 g/m*3 1.2 C 1.6 km/h
1512 13-03-2014 06:45:00 1.2 C 4.89 g/m*3 1.2 C 1.6 km/h
1513 13-03-2014 06:50:00 1.2 C 4.89 g/m*3 1.2 C 1.6 km/h
1514 13-03-2014 06:55:00 1.2 C 4.95 g/m*3 1.2 C 0 km/h
1515 13-03-2014 07:00:00 1.1 C 4.86 g/m*3 1.1 C 0 km/h
1516 13-03-2014 07:05:00 1 C 4.83 g/m*3 1 C 1.6 km/h
1517 13-03-2014 07:10:00 0.9 C 4.85 g/m*3 0.9 C 0 km/h
1518 13-03-2014 07:15:00 0.9 C 4.85 g/m*3 0.9 C 0 km/h
1519 13-03-2014 07:20:00 0.9 C 4.85 g/m*3 0.9 C 0 km/h
1520 13-03-2014 07:25:00 0.9 C 4.85 g/m*3 0.9 C 0 km/h
1521 13-03-2014 07:30:00 1 C 4.88 g/m*3 1 C 0 km/h
1522 13-03-2014 07:35:00 1 C 4.88 g/m*3 1 C 0 km/h
1523 13-03-2014 07:40:00 1.1 C 4.91 g/m*3 1.1 C 0 km/h
1524 13-03-2014 07:45:00 1.2 C 5 g/m*3 1.2 C 1.6 km/h
1525 13-03-2014 07:50:00 1.3 C 5.03 g/m*3 1.3 C 0 km/h
Sensor: Nr:Datum:Temp:Abs-Feuchte:Windchill:Wind:
Aussen-T/F 1526 13-03-2014 07:55:00 1.3 C 5.03 g/m*3 1.3 C 1.6 km/h
1527 13-03-2014 08:00:00 1.3 C 5.03 g/m*3 1.3 C 0 km/h
1528 13-03-2014 08:05:00 1.4 C 5.07 g/m*3 1.4 C 0 km/h
1529 13-03-2014 08:10:00 1.5 C 5.05 g/m*3 1.5 C 0 km/h
1530 13-03-2014 08:15:00 1.5 C 5.05 g/m*3 1.5 C 0 km/h
1531 13-03-2014 08:20:00 1.5 C 5.05 g/m*3 1.5 C 0 km/h
1532 13-03-2014 08:25:00 1.6 C 5.14 g/m*3 1.6 C 0 km/h
1533 13-03-2014 08:30:00 1.7 C 5.17 g/m*3 1.7 C 0 km/h
1534 13-03-2014 08:35:00 1.7 C 5.17 g/m*3 1.7 C 0 km/h
1535 13-03-2014 08:40:00 1.8 C 5.15 g/m*3 1.8 C 0 km/h
1536 13-03-2014 08:45:00 1.8 C 5.21 g/m*3 1.8 C 0 km/h
1537 13-03-2014 08:50:00 1.9 C 5.24 g/m*3 1.9 C 0 km/h
1538 13-03-2014 08:55:00 2 C 5.22 g/m*3 2 C 0 km/h
1539 13-03-2014 09:00:00 2.2 C 5.29 g/m*3 2.2 C 0 km/h
1540 13-03-2014 09:05:00 2.3 C 5.33 g/m*3 2.3 C 0 km/h
1541 13-03-2014 09:10:00 2.4 C 5.37 g/m*3 2.4 C 0 km/h
1542 13-03-2014 09:15:00 2.4 C 5.37 g/m*3 2.4 C 0 km/h
1543 13-03-2014 09:20:00 2.6 C 5.44 g/m*3 2.6 C 0 km/h
1544 13-03-2014 09:25:00 2.7 C 5.48 g/m*3 2.7 C 0 km/h
1545 13-03-2014 09:30:00 2.9 C 5.55 g/m*3 2.9 C 0 km/h
1546 13-03-2014 09:35:00 3.2 C 5.66 g/m*3 3.2 C 0 km/h
1547 13-03-2014 09:40:00 3.4 C 5.68 g/m*3 3.4 C 0 km/h
1548 13-03-2014 09:45:00 3.8 C 5.83 g/m*3 3.8 C 0 km/h
1549 13-03-2014 09:50:00 4 C 5.85 g/m*3 4 C 0 km/h
1550 13-03-2014 09:55:00 4.2 C 5.93 g/m*3 4.2 C 0 km/h
Sensor: Nr:Datum:Temp:Abs-Feuchte:Windchill:Wind:
Aussen-T/F 1551 13-03-2014 10:00:00 4.4 C 5.94 g/m*3 4.4 C 0 km/h
1552 13-03-2014 10:05:00 4.7 C 6.06 g/m*3 4.7 C 0 km/h
1553 13-03-2014 10:10:00 4.9 C 6.08 g/m*3 4.9 C 0 km/h
1554 13-03-2014 10:15:00 5.2 C 6.2 g/m*3 5.2 C 0 km/h
1555 13-03-2014 10:20:00 5.5 C 6.25 g/m*3 5.5 C 0 km/h
1556 13-03-2014 10:25:00 5.6 C 6.29 g/m*3 5.6 C 0 km/h
1557 13-03-2014 10:30:00 5.8 C 6.38 g/m*3 5.8 C 0 km/h
1558 13-03-2014 10:35:00 5.9 C 6.42 g/m*3 5.9 C 0 km/h
1559 13-03-2014 10:40:00 6.2 C 6.55 g/m*3 6.2 C 0 km/h
1560 13-03-2014 10:45:00 6.4 C 6.56 g/m*3 6.4 C 0 km/h
1561 13-03-2014 10:50:00 6.7 C 6.61 g/m*3 6.7 C 0 km/h
1562 13-03-2014 10:55:00 7 C 6.66 g/m*3 7 C 0 km/h
1563 13-03-2014 11:00:00 7.2 C 6.75 g/m*3 7.2 C 0 km/h
1564 13-03-2014 11:05:00 7.4 C 6.76 g/m*3 7.4 C 0 km/h
1565 13-03-2014 11:10:00 7.6 C 6.85 g/m*3 7.6 C 0 km/h
1566 13-03-2014 11:15:00 7.9 C 6.98 g/m*3 7.9 C 0 km/h
1567 13-03-2014 11:20:00 8.1 C 6.99 g/m*3 8.1 C 0 km/h
1568 13-03-2014 11:25:00 8.3 C 6.91 g/m*3 8.3 C 0 km/h
1569 13-03-2014 11:30:00 8.6 C 7.13 g/m*3 8.6 C 0 km/h
1570 13-03-2014 11:35:00 8.8 C 7.14 g/m*3 8.8 C 0 km/h
1571 13-03-2014 11:40:00 9.1 C 7.19 g/m*3 9.1 C 0 km/h
1572 13-03-2014 11:45:00 9.4 C 7.15 g/m*3 9.4 C 3.2 km/h
1573 13-03-2014 11:50:00 9.8 C 7.05 g/m*3 9.8 C 1.6 km/h
1574 13-03-2014 11:55:00 10.3 C 7.28 g/m*3 10.3 C 1.6 km/h
1575 13-03-2014 12:00:00 10.8 C 7.31 g/m*3 10.8 C 3.2 km/h
Sensor: Nr:Datum:Temp:Abs-Feuchte:Windchill:Wind:
Aussen-T/F 1576 13-03-2014 12:05:00 11.3 C 7.24 g/m*3 11.3 C 3.2 km/h
1577 13-03-2014 12:10:00 11.8 C 7.37 g/m*3 11.8 C 1.6 km/h
1578 13-03-2014 12:15:00 12.4 C 7.65 g/m*3 12.4 C 1.6 km/h
1579 13-03-2014 12:20:00 13.1 C 7.99 g/m*3 13.1 C 3.2 km/h
1580 13-03-2014 12:25:00 13.8 C 7.63 g/m*3 13.8 C 3.2 km/h
1581 13-03-2014 12:30:00 14.3 C 7.49 g/m*3 14.3 C 3.2 km/h
1582 13-03-2014 12:35:00 14.8 C 7.73 g/m*3 14.8 C 4.8 km/h
1583 13-03-2014 12:40:00 15.3 C 7.57 g/m*3 15.3 C 4.8 km/h
1584 13-03-2014 12:45:00 15.7 C 7.76 g/m*3 15.7 C 3.2 km/h
1585 13-03-2014 12:50:00 16.1 C 7.95 g/m*3 16.1 C 6.4 km/h
1586 13-03-2014 12:55:00 16.5 C 7.72 g/m*3 16.5 C 3.2 km/h
1587 13-03-2014 13:00:00 16.9 C 7.77 g/m*3 16.9 C 3.2 km/h
1588 13-03-2014 13:05:00 17.1 C 7.86 g/m*3 17.1 C 1.6 km/h
1589 13-03-2014 13:10:00 17.3 C 7.51 g/m*3 17.3 C 3.2 km/h
1590 13-03-2014 13:15:00 17.6 C 7.5 g/m*3 17.6 C 3.2 km/h
1591 13-03-2014 13:20:00 17.7 C 7.85 g/m*3 17.7 C 3.2 km/h
1592 13-03-2014 13:25:00 17.6 C 7.2 g/m*3 17.6 C 1.6 km/h
1593 13-03-2014 13:30:00 17.5 C 7.75 g/m*3 17.5 C 3.2 km/h
1594 13-03-2014 13:35:00 17.4 C 7.26 g/m*3 17.4 C 1.6 km/h
1595 13-03-2014 13:40:00 17.3 C 7.22 g/m*3 17.3 C 6.4 km/h
1596 13-03-2014 13:45:00 17.3 C 7.22 g/m*3 17.3 C 3.2 km/h
1597 13-03-2014 13:50:00 17.3 C 6.78 g/m*3 17.3 C 0 km/h
1598 13-03-2014 13:55:00 17.2 C 7.61 g/m*3 17.2 C 1.6 km/h
1599 13-03-2014 14:00:00 17.2 C 6.44 g/m*3 17.2 C 3.2 km/h
1600 13-03-2014 14:05:00 17.2 C 6.88 g/m*3 17.2 C 0 km/h
Sensor: Nr:Datum:Temp:Abs-Feuchte:Windchill:Wind:
Aussen-T/F 1601 13-03-2014 14:10:00 17.3 C 6.92 g/m*3 17.3 C 3.2 km/h
1602 13-03-2014 14:15:00 17.4 C 6.67 g/m*3 17.4 C 1.6 km/h
1603 13-03-2014 14:20:00 17.4 C 6.82 g/m*3 17.4 C 3.2 km/h
1604 13-03-2014 14:25:00 17.6 C 7.2 g/m*3 17.6 C 1.6 km/h
1605 13-03-2014 14:30:00 17.7 C 6.79 g/m*3 17.7 C 1.6 km/h
1606 13-03-2014 14:35:00 17.7 C 6.64 g/m*3 17.7 C 3.2 km/h
1607 13-03-2014 14:40:00 17.7 C 5.73 g/m*3 17.7 C 4.8 km/h
1608 13-03-2014 14:45:00 17.8 C 6.22 g/m*3 17.8 C 1.6 km/h
1609 13-03-2014 14:50:00 17.8 C 6.68 g/m*3 17.8 C 1.6 km/h
1610 13-03-2014 14:55:00 17.8 C 6.37 g/m*3 17.8 C 3.2 km/h
1611 13-03-2014 15:00:00 18.1 C 6.03 g/m*3 18.1 C 6.4 km/h
1612 13-03-2014 15:05:00 18.3 C 6.41 g/m*3 18.3 C 3.2 km/h
1613 13-03-2014 15:10:00 18.3 C 6.1 g/m*3 18.3 C 1.6 km/h
1614 13-03-2014 15:15:00 18.4 C 6.29 g/m*3 18.4 C 1.6 km/h
1615 13-03-2014 15:20:00 18.5 C 6.96 g/m*3 18.5 C 1.6 km/h
1616 13-03-2014 15:25:00 18.2 C 6.99 g/m*3 18.2 C 3.2 km/h
1617 13-03-2014 15:30:00 18.2 C 6.53 g/m*3 18.2 C 3.2 km/h
1618 13-03-2014 15:35:00 18.5 C 6.33 g/m*3 18.5 C 9.7 km/h
1619 13-03-2014 15:40:00 18.9 C 6.16 g/m*3 18.9 C 9.7 km/h
1620 13-03-2014 15:45:00 19.3 C 6.47 g/m*3 19.3 C 8.1 km/h
1621 13-03-2014 15:50:00 19.5 C 6.38 g/m*3 19.5 C 8.1 km/h
1622 13-03-2014 15:55:00 19.4 C 5.51 g/m*3 19.4 C 9.7 km/h
1623 13-03-2014 16:00:00 19.3 C 6.47 g/m*3 19.3 C 1.6 km/h
1624 13-03-2014 16:05:00 19.1 C 6.07 g/m*3 19.1 C 4.8 km/h
1625 13-03-2014 16:10:00 18.8 C 6.6 g/m*3 18.8 C 4.8 km/h
Sensor: Nr:Datum:Temp:Abs-Feuchte:Windchill:Wind:
Aussen-T/F 1626 13-03-2014 16:15:00 18.6 C 6.21 g/m*3 18.6 C 4.8 km/h
1627 13-03-2014 16:20:00 18.5 C 6.17 g/m*3 18.5 C 6.4 km/h
1628 13-03-2014 16:25:00 18.4 C 5.5 g/m*3 18.4 C 6.4 km/h
1629 13-03-2014 16:30:00 18.6 C 5.41 g/m*3 18.6 C 4.8 km/h
1630 13-03-2014 16:35:00 18.6 C 4.62 g/m*3 18.6 C 8.1 km/h
1631 13-03-2014 16:40:00 18.6 C 5.09 g/m*3 18.6 C 8.1 km/h
1632 13-03-2014 16:45:00 18.6 C 4.77 g/m*3 18.6 C 6.4 km/h
1633 13-03-2014 16:50:00 18.5 C 4.9 g/m*3 18.5 C 12.9 km/h
1634 13-03-2014 16:55:00 18.4 C 4.88 g/m*3 18.4 C 12.9 km/h
1635 13-03-2014 17:00:00 18.3 C 5.16 g/m*3 18.3 C 9.7 km/h
1636 13-03-2014 17:05:00 18.2 C 5.13 g/m*3 18.2 C 8.1 km/h
1637 13-03-2014 17:10:00 18.1 C 5.25 g/m*3 18.1 C 11.3 km/h
1638 13-03-2014 17:15:00 18.1 C 5.25 g/m*3 18.1 C 8.1 km/h
1639 13-03-2014 17:20:00 17.9 C 5.04 g/m*3 17.9 C 9.7 km/h
1640 13-03-2014 17:25:00 17.8 C 5.16 g/m*3 17.8 C 6.4 km/h
1641 13-03-2014 17:30:00 17.8 C 5.01 g/m*3 17.8 C 9.7 km/h
1642 13-03-2014 17:35:00 17.8 C 5.31 g/m*3 17.8 C 4.8 km/h
1643 13-03-2014 17:40:00 17.9 C 5.19 g/m*3 17.9 C 8.1 km/h
1644 13-03-2014 17:45:00 17.8 C 5.62 g/m*3 17.8 C 6.4 km/h
1645 13-03-2014 17:50:00 17.3 C 5.45 g/m*3 17.3 C 3.2 km/h
1646 13-03-2014 17:55:00 16.5 C 5.9 g/m*3 16.5 C 3.2 km/h
1647 13-03-2014 18:00:00 15.4 C 6.31 g/m*3 15.4 C 3.2 km/h
1648 13-03-2014 18:05:00 14.6 C 6.26 g/m*3 14.6 C 1.6 km/h
1649 13-03-2014 18:10:00 13.9 C 6.11 g/m*3 13.9 C 3.2 km/h
1650 13-03-2014 18:15:00 13.6 C 6.12 g/m*3 13.6 C 3.2 km/h
Sensor: Nr:Datum:Temp:Abs-Feuchte:Windchill:Wind:
Aussen-T/F 1651 13-03-2014 18:20:00 13.1 C 6.16 g/m*3 13.1 C 4.8 km/h
1652 13-03-2014 18:25:00 12.8 C 6.27 g/m*3 12.8 C 4.8 km/h
1653 13-03-2014 18:30:00 12.4 C 6.12 g/m*3 12.4 C 6.4 km/h
1654 13-03-2014 18:35:00 12.2 C 6.04 g/m*3 12.2 C 6.4 km/h
1655 13-03-2014 18:40:00 12 C 6.18 g/m*3 12 C 4.8 km/h
1656 13-03-2014 18:45:00 11.9 C 6.04 g/m*3 11.9 C 8.1 km/h
1657 13-03-2014 18:50:00 11.8 C 6 g/m*3 11.8 C 8.1 km/h
1658 13-03-2014 18:55:00 11.5 C 5.99 g/m*3 11.5 C 8.1 km/h
1659 13-03-2014 19:00:00 11.4 C 5.95 g/m*3 11.4 C 8.1 km/h
1660 13-03-2014 19:05:00 11.2 C 5.98 g/m*3 11.2 C 8.1 km/h
1661 13-03-2014 19:10:00 11.2 C 5.88 g/m*3 11.2 C 6.4 km/h
1662 13-03-2014 19:15:00 11.1 C 5.84 g/m*3 11.1 C 6.4 km/h
1663 13-03-2014 19:20:00 10.9 C 5.87 g/m*3 10.41 C 6.4 km/h
1664 13-03-2014 19:25:00 10.7 C 5.8 g/m*3 10.18 C 6.4 km/h
1665 13-03-2014 19:30:00 10.7 C 5.8 g/m*3 10.7 C 3.2 km/h
1666 13-03-2014 19:35:00 10.5 C 5.82 g/m*3 10.5 C 4.8 km/h
1667 13-03-2014 19:40:00 10.3 C 5.94 g/m*3 9.72 C 6.4 km/h
1668 13-03-2014 19:45:00 10.1 C 5.96 g/m*3 10.1 C 4.8 km/h
1669 13-03-2014 19:50:00 9.9 C 5.98 g/m*3 9.9 C 3.2 km/h
1670 13-03-2014 19:55:00 9.7 C 5.9 g/m*3 9.02 C 6.4 km/h
1671 13-03-2014 20:00:00 9.4 C 5.88 g/m*3 9.4 C 3.2 km/h
1672 13-03-2014 20:05:00 9.3 C 5.93 g/m*3 9.3 C 3.2 km/h
1673 13-03-2014 20:10:00 9.2 C 5.98 g/m*3 9.2 C 1.6 km/h
1674 13-03-2014 20:15:00 9.1 C 5.94 g/m*3 9.1 C 3.2 km/h
1675 13-03-2014 20:20:00 8.9 C 5.87 g/m*3 8.9 C 1.6 km/h
Sensor: Nr:Datum:Temp:Abs-Feuchte:Windchill:Wind:
Aussen-T/F 1676 13-03-2014 20:25:00 8.8 C 5.92 g/m*3 8.8 C 1.6 km/h
1677 13-03-2014 20:30:00 8.8 C 5.92 g/m*3 8.8 C 0 km/h
1678 13-03-2014 20:35:00 8.7 C 5.88 g/m*3 8.7 C 0 km/h
1679 13-03-2014 20:40:00 8.6 C 6.02 g/m*3 8.6 C 0 km/h
1680 13-03-2014 20:45:00 8.3 C 5.9 g/m*3 8.3 C 1.6 km/h
1681 13-03-2014 20:50:00 8.2 C 6.03 g/m*3 8.2 C 3.2 km/h
1682 13-03-2014 20:55:00 8.2 C 5.86 g/m*3 8.2 C 1.6 km/h
1683 13-03-2014 21:00:00 8.1 C 5.74 g/m*3 8.1 C 0 km/h
1684 13-03-2014 21:05:00 7.9 C 5.83 g/m*3 7.9 C 1.6 km/h
1685 13-03-2014 21:10:00 7.8 C 5.79 g/m*3 7.8 C 1.6 km/h
1686 13-03-2014 21:15:00 7.7 C 5.84 g/m*3 7.7 C 0 km/h
1687 13-03-2014 21:20:00 7.6 C 5.96 g/m*3 7.6 C 0 km/h
1688 13-03-2014 21:25:00 7.5 C 5.84 g/m*3 7.5 C 0 km/h
1689 13-03-2014 21:30:00 7.3 C 5.61 g/m*3 7.3 C 0 km/h
1690 13-03-2014 21:35:00 7.3 C 5.77 g/m*3 7.3 C 1.6 km/h
1691 13-03-2014 21:40:00 7.2 C 5.73 g/m*3 7.2 C 0 km/h
1692 13-03-2014 21:45:00 7.1 C 5.93 g/m*3 7.1 C 0 km/h
1693 13-03-2014 21:50:00 6.9 C 5.77 g/m*3 6.9 C 1.6 km/h
1694 13-03-2014 21:55:00 6.9 C 5.7 g/m*3 6.9 C 0 km/h
1695 13-03-2014 22:00:00 6.7 C 5.62 g/m*3 6.7 C 0 km/h
1696 13-03-2014 22:05:00 6.6 C 5.74 g/m*3 6.6 C 0 km/h
1697 13-03-2014 22:10:00 6.5 C 5.62 g/m*3 6.5 C 0 km/h
1698 13-03-2014 22:15:00 6.4 C 5.59 g/m*3 6.4 C 0 km/h
1699 13-03-2014 22:20:00 6.3 C 5.7 g/m*3 6.3 C 0 km/h
1700 13-03-2014 22:25:00 6.2 C 5.59 g/m*3 6.2 C 0 km/h
Sensor: Nr:Datum:Temp:Abs-Feuchte:Windchill:Wind:
Aussen-T/F 1701 13-03-2014 22:30:00 6.2 C 5.66 g/m*3 6.2 C 0 km/h
1702 13-03-2014 22:35:00 5.9 C 5.55 g/m*3 5.9 C 0 km/h
1703 13-03-2014 22:40:00 5.8 C 5.66 g/m*3 5.8 C 0 km/h
1704 13-03-2014 22:45:00 5.8 C 5.73 g/m*3 5.8 C 0 km/h
1705 13-03-2014 22:50:00 5.8 C 5.8 g/m*3 5.8 C 0 km/h
1706 13-03-2014 22:55:00 5.8 C 5.73 g/m*3 5.8 C 0 km/h
1707 13-03-2014 23:00:00 5.8 C 5.66 g/m*3 5.8 C 1.6 km/h
1708 13-03-2014 23:05:00 5.8 C 5.66 g/m*3 5.8 C 0 km/h
1709 13-03-2014 23:10:00 5.8 C 5.59 g/m*3 5.8 C 0 km/h
1710 13-03-2014 23:15:00 5.8 C 5.59 g/m*3 5.8 C 0 km/h
1711 13-03-2014 23:20:00 5.8 C 5.59 g/m*3 5.8 C 0 km/h
1712 13-03-2014 23:25:00 5.7 C 5.62 g/m*3 5.7 C 0 km/h
1713 13-03-2014 23:30:00 5.6 C 5.51 g/m*3 5.6 C 0 km/h
1714 13-03-2014 23:35:00 5.6 C 5.59 g/m*3 5.6 C 0 km/h
1715 13-03-2014 23:40:00 5.6 C 5.59 g/m*3 5.6 C 0 km/h
1716 13-03-2014 23:45:00 5.4 C 5.58 g/m*3 5.4 C 0 km/h
1717 13-03-2014 23:50:00 5.4 C 5.51 g/m*3 5.4 C 1.6 km/h
1718 13-03-2014 23:55:00 5.4 C 5.51 g/m*3 5.4 C 0 km/h
1719 14-03-2014 00:00:00 5.3 C 5.54 g/m*3 5.3 C 0 km/h
1720 14-03-2014 00:05:00 5.3 C 5.54 g/m*3 5.3 C 1.6 km/h
1721 14-03-2014 00:10:00 5.2 C 5.51 g/m*3 5.2 C 0 km/h
1722 14-03-2014 00:15:00 5.2 C 5.51 g/m*3 5.2 C 1.6 km/h
1723 14-03-2014 00:20:00 5.2 C 5.51 g/m*3 5.2 C 0 km/h
1724 14-03-2014 00:25:00 5.1 C 5.47 g/m*3 5.1 C 1.6 km/h
1725 14-03-2014 00:30:00 5.1 C 5.54 g/m*3 5.1 C 1.6 km/h
Sensor: Nr:Datum:Temp:Abs-Feuchte:Windchill:Wind:
Aussen-T/F 1726 14-03-2014 00:35:00 4.9 C 5.47 g/m*3 4.9 C 0 km/h
1727 14-03-2014 00:40:00 4.8 C 5.43 g/m*3 4.8 C 0 km/h
1728 14-03-2014 00:45:00 4.7 C 5.46 g/m*3 4.7 C 0 km/h
1729 14-03-2014 00:50:00 4.7 C 5.46 g/m*3 4.7 C 0 km/h
1730 14-03-2014 00:55:00 4.7 C 5.46 g/m*3 4.7 C 1.6 km/h
1731 14-03-2014 01:00:00 4.5 C 5.39 g/m*3 4.5 C 0 km/h
1732 14-03-2014 01:05:00 4.4 C 5.35 g/m*3 4.4 C 0 km/h
1733 14-03-2014 01:10:00 4.3 C 5.38 g/m*3 4.3 C 0 km/h
1734 14-03-2014 01:15:00 4.3 C 5.38 g/m*3 4.3 C 1.6 km/h
1735 14-03-2014 01:20:00 4.3 C 5.38 g/m*3 4.3 C 0 km/h
1736 14-03-2014 01:25:00 4.3 C 5.38 g/m*3 4.3 C 0 km/h
1737 14-03-2014 01:30:00 4.2 C 5.35 g/m*3 4.2 C 0 km/h
1738 14-03-2014 01:35:00 4.2 C 5.48 g/m*3 4.2 C 1.6 km/h
1739 14-03-2014 01:40:00 4.2 C 5.41 g/m*3 4.2 C 0 km/h
1740 14-03-2014 01:45:00 4.2 C 5.41 g/m*3 4.2 C 0 km/h
1741 14-03-2014 01:50:00 4.1 C 5.38 g/m*3 4.1 C 0 km/h
1742 14-03-2014 01:55:00 4.1 C 5.38 g/m*3 4.1 C 1.6 km/h
1743 14-03-2014 02:00:00 3.9 C 5.31 g/m*3 3.9 C 0 km/h
1744 14-03-2014 02:05:00 4 C 5.34 g/m*3 4 C 1.6 km/h
1745 14-03-2014 02:10:00 3.9 C 5.31 g/m*3 3.9 C 0 km/h
1746 14-03-2014 02:15:00 3.8 C 5.27 g/m*3 3.8 C 0 km/h
1747 14-03-2014 02:20:00 3.7 C 5.23 g/m*3 3.7 C 0 km/h
1748 14-03-2014 02:25:00 3.5 C 5.23 g/m*3 3.5 C 0 km/h
1749 14-03-2014 02:30:00 3.4 C 5.25 g/m*3 3.4 C 0 km/h
1750 14-03-2014 02:35:00 3.4 C 5.25 g/m*3 3.4 C 1.6 km/h
Sensor: Nr:Datum:Temp:Abs-Feuchte:Windchill:Wind:
Aussen-T/F 1751 14-03-2014 02:40:00 3.3 C 5.22 g/m*3 3.3 C 1.6 km/h
1752 14-03-2014 02:45:00 3.2 C 5.18 g/m*3 3.2 C 0 km/h
1753 14-03-2014 02:50:00 2.9 C 5.08 g/m*3 2.9 C 0 km/h
1754 14-03-2014 02:55:00 2.9 C 5.14 g/m*3 2.9 C 1.6 km/h
1755 14-03-2014 03:00:00 2.8 C 5.16 g/m*3 2.8 C 1.6 km/h
1756 14-03-2014 03:05:00 2.8 C 5.16 g/m*3 2.8 C 1.6 km/h
1757 14-03-2014 03:10:00 2.8 C 5.16 g/m*3 2.8 C 1.6 km/h
1758 14-03-2014 03:15:00 2.8 C 5.16 g/m*3 2.8 C 1.6 km/h
1759 14-03-2014 03:20:00 2.7 C 5.13 g/m*3 2.7 C 3.2 km/h
1760 14-03-2014 03:25:00 2.7 C 5.13 g/m*3 2.7 C 1.6 km/h
1761 14-03-2014 03:30:00 2.7 C 5.13 g/m*3 2.7 C 0 km/h
1762 14-03-2014 03:35:00 2.6 C 5.09 g/m*3 2.6 C 0 km/h
1763 14-03-2014 03:40:00 2.6 C 5.09 g/m*3 2.6 C 0 km/h
1764 14-03-2014 03:45:00 2.4 C 5.02 g/m*3 2.4 C 0 km/h
1765 14-03-2014 03:50:00 2.4 C 5.08 g/m*3 2.4 C 0 km/h
1766 14-03-2014 03:55:00 2.4 C 5.08 g/m*3 2.4 C 0 km/h
1767 14-03-2014 04:00:00 2.3 C 5.05 g/m*3 2.3 C 0 km/h
1768 14-03-2014 04:05:00 2.2 C 5.01 g/m*3 2.2 C 0 km/h
1769 14-03-2014 04:10:00 2.2 C 5.01 g/m*3 2.2 C 0 km/h
1770 14-03-2014 04:15:00 2.1 C 5.04 g/m*3 2.1 C 0 km/h
1771 14-03-2014 04:20:00 2.1 C 5.04 g/m*3 2.1 C 0 km/h
1772 14-03-2014 04:25:00 2.1 C 5.04 g/m*3 2.1 C 0 km/h
1773 14-03-2014 04:30:00 2 C 5 g/m*3 2 C 0 km/h
1774 14-03-2014 04:35:00 1.9 C 4.97 g/m*3 1.9 C 0 km/h
1775 14-03-2014 04:40:00 1.9 C 4.97 g/m*3 1.9 C 0 km/h
Sensor: Nr:Datum:Temp:Abs-Feuchte:Windchill:Wind:
Aussen-T/F 1776 14-03-2014 04:45:00 1.8 C 4.93 g/m*3 1.8 C 0 km/h
1777 14-03-2014 04:50:00 1.8 C 4.93 g/m*3 1.8 C 0 km/h
1778 14-03-2014 04:55:00 1.7 C 4.95 g/m*3 1.7 C 0 km/h
1779 14-03-2014 05:00:00 1.7 C 4.95 g/m*3 1.7 C 0 km/h
1780 14-03-2014 05:05:00 1.7 C 4.95 g/m*3 1.7 C 0 km/h
1781 14-03-2014 05:10:00 1.6 C 4.92 g/m*3 1.6 C 1.6 km/h
1782 14-03-2014 05:15:00 1.6 C 4.92 g/m*3 1.6 C 0 km/h
1783 14-03-2014 05:20:00 1.6 C 4.92 g/m*3 1.6 C 3.2 km/h
1784 14-03-2014 05:25:00 1.7 C 5.01 g/m*3 1.7 C 1.6 km/h
1785 14-03-2014 05:30:00 1.7 C 5.01 g/m*3 1.7 C 0 km/h
1786 14-03-2014 05:35:00 1.7 C 4.95 g/m*3 1.7 C 0 km/h
1787 14-03-2014 05:40:00 1.6 C 4.92 g/m*3 1.6 C 0 km/h
1788 14-03-2014 05:45:00 1.6 C 4.97 g/m*3 1.6 C 1.6 km/h
1789 14-03-2014 05:50:00 1.7 C 5.01 g/m*3 1.7 C 1.6 km/h
1790 14-03-2014 05:55:00 1.7 C 5.01 g/m*3 1.7 C 1.6 km/h
1791 14-03-2014 06:00:00 1.7 C 4.95 g/m*3 1.7 C 1.6 km/h
1792 14-03-2014 06:05:00 1.6 C 4.92 g/m*3 1.6 C 1.6 km/h
1793 14-03-2014 06:10:00 1.4 C 4.85 g/m*3 1.4 C 0 km/h
1794 14-03-2014 06:15:00 1.4 C 4.85 g/m*3 1.4 C 0 km/h
1795 14-03-2014 06:20:00 1.3 C 4.87 g/m*3 1.3 C 0 km/h
1796 14-03-2014 06:25:00 1.2 C 4.84 g/m*3 1.2 C 0 km/h
1797 14-03-2014 06:30:00 1.2 C 4.84 g/m*3 1.2 C 3.2 km/h
1798 14-03-2014 06:35:00 1.2 C 4.84 g/m*3 1.2 C 3.2 km/h
1799 14-03-2014 06:40:00 1.1 C 4.81 g/m*3 1.1 C 1.6 km/h
1800 14-03-2014 06:45:00 0.9 C 4.74 g/m*3 0.9 C 0 km/h
Sensor: Nr:Datum:Temp:Abs-Feuchte:Windchill:Wind:
Aussen-T/F 1801 14-03-2014 06:50:00 1 C 4.83 g/m*3 1 C 0 km/h
1802 14-03-2014 06:55:00 1.1 C 4.86 g/m*3 1.1 C 1.6 km/h
1803 14-03-2014 07:00:00 1.1 C 4.86 g/m*3 1.1 C 1.6 km/h
1804 14-03-2014 07:05:00 1.2 C 4.89 g/m*3 1.2 C 1.6 km/h
1805 14-03-2014 07:10:00 1.2 C 4.89 g/m*3 1.2 C 0 km/h
1806 14-03-2014 07:15:00 1.2 C 4.89 g/m*3 1.2 C 1.6 km/h
1807 14-03-2014 07:20:00 1.1 C 4.81 g/m*3 1.1 C 0 km/h
1808 14-03-2014 07:25:00 1 C 4.83 g/m*3 1 C 0 km/h
1809 14-03-2014 07:30:00 0.9 C 4.79 g/m*3 0.9 C 0 km/h
1810 14-03-2014 07:35:00 0.9 C 4.79 g/m*3 0.9 C 0 km/h
1811 14-03-2014 07:40:00 0.9 C 4.79 g/m*3 0.9 C 0 km/h
1812 14-03-2014 07:45:00 1 C 4.83 g/m*3 1 C 0 km/h
1813 14-03-2014 07:50:00 1.1 C 4.86 g/m*3 1.1 C 0 km/h
1814 14-03-2014 07:55:00 1.1 C 4.86 g/m*3 1.1 C 0 km/h
1815 14-03-2014 08:00:00 1.2 C 4.89 g/m*3 1.2 C 0 km/h
1816 14-03-2014 08:05:00 1.2 C 4.89 g/m*3 1.2 C 0 km/h
1817 14-03-2014 08:10:00 1.2 C 4.95 g/m*3 1.2 C 0 km/h
1818 14-03-2014 08:15:00 1.3 C 4.98 g/m*3 1.3 C 1.6 km/h
1819 14-03-2014 08:20:00 1.3 C 4.98 g/m*3 1.3 C 0 km/h
1820 14-03-2014 08:25:00 1.4 C 5.01 g/m*3 1.4 C 1.6 km/h
1821 14-03-2014 08:30:00 1.5 C 5.05 g/m*3 1.5 C 0 km/h
1822 14-03-2014 08:35:00 1.6 C 5.08 g/m*3 1.6 C 0 km/h
1823 14-03-2014 08:40:00 1.7 C 5.12 g/m*3 1.7 C 0 km/h
1824 14-03-2014 08:45:00 1.7 C 5.12 g/m*3 1.7 C 0 km/h
1825 14-03-2014 08:50:00 1.8 C 5.15 g/m*3 1.8 C 0 km/h
Sensor: Nr:Datum:Temp:Abs-Feuchte:Windchill:Wind:
Aussen-T/F 1826 14-03-2014 08:55:00 1.8 C 5.15 g/m*3 1.8 C 0 km/h
1827 14-03-2014 09:00:00 2 C 5.22 g/m*3 2 C 0 km/h
1828 14-03-2014 09:05:00 2.1 C 5.26 g/m*3 2.1 C 0 km/h
1829 14-03-2014 09:10:00 2.3 C 5.33 g/m*3 2.3 C 0 km/h
1830 14-03-2014 09:15:00 2.4 C 5.37 g/m*3 2.4 C 0 km/h
1831 14-03-2014 09:20:00 2.7 C 5.48 g/m*3 2.7 C 0 km/h
1832 14-03-2014 09:25:00 2.8 C 5.51 g/m*3 2.8 C 0 km/h
1833 14-03-2014 09:30:00 3.1 C 5.63 g/m*3 3.1 C 0 km/h
1834 14-03-2014 09:35:00 3.3 C 5.64 g/m*3 3.3 C 0 km/h
1835 14-03-2014 09:40:00 3.6 C 5.69 g/m*3 3.6 C 0 km/h
1836 14-03-2014 09:45:00 3.8 C 5.71 g/m*3 3.8 C 0 km/h
1837 14-03-2014 09:50:00 4.1 C 5.82 g/m*3 4.1 C 0 km/h
1838 14-03-2014 09:55:00 4.3 C 5.84 g/m*3 4.3 C 0 km/h
1839 14-03-2014 10:00:00 4.6 C 5.96 g/m*3 4.6 C 0 km/h
1840 14-03-2014 10:05:00 4.8 C 5.9 g/m*3 4.8 C 0 km/h
1841 14-03-2014 10:10:00 5.2 C 6.06 g/m*3 5.2 C 0 km/h
1842 14-03-2014 10:15:00 5.5 C 6.18 g/m*3 5.5 C 0 km/h
1843 14-03-2014 10:20:00 5.7 C 6.19 g/m*3 5.7 C 0 km/h
1844 14-03-2014 10:25:00 5.9 C 6.27 g/m*3 5.9 C 0 km/h
1845 14-03-2014 10:30:00 6.2 C 6.25 g/m*3 6.2 C 0 km/h
1846 14-03-2014 10:35:00 6.5 C 6.37 g/m*3 6.5 C 0 km/h
1847 14-03-2014 10:40:00 6.7 C 6.46 g/m*3 6.7 C 0 km/h
1848 14-03-2014 10:45:00 6.9 C 6.47 g/m*3 6.9 C 0 km/h
1849 14-03-2014 10:50:00 7.2 C 6.59 g/m*3 7.2 C 0 km/h
1850 14-03-2014 10:55:00 7.4 C 6.44 g/m*3 7.4 C 0 km/h
Sensor: Nr:Datum:Temp:Abs-Feuchte:Windchill:Wind:
Aussen-T/F 1851 14-03-2014 11:00:00 7.7 C 6.73 g/m*3 7.7 C 0 km/h
1852 14-03-2014 11:05:00 7.8 C 6.69 g/m*3 7.8 C 1.6 km/h
1853 14-03-2014 11:10:00 8.1 C 6.57 g/m*3 8.1 C 1.6 km/h
1854 14-03-2014 11:15:00 8.2 C 6.62 g/m*3 8.2 C 1.6 km/h
1855 14-03-2014 11:20:00 8.4 C 6.62 g/m*3 8.4 C 1.6 km/h
1856 14-03-2014 11:25:00 8.7 C 6.66 g/m*3 8.7 C 3.2 km/h
1857 14-03-2014 11:30:00 9.1 C 6.83 g/m*3 9.1 C 0 km/h
1858 14-03-2014 11:35:00 9.4 C 6.87 g/m*3 9.4 C 3.2 km/h
1859 14-03-2014 11:40:00 9.7 C 7.01 g/m*3 9.7 C 1.6 km/h
1860 14-03-2014 11:45:00 10.1 C 7.38 g/m*3 10.1 C 3.2 km/h
1861 14-03-2014 11:50:00 10.4 C 7.23 g/m*3 10.4 C 4.8 km/h
1862 14-03-2014 11:55:00 10.8 C 7.12 g/m*3 10.8 C 1.6 km/h
1863 14-03-2014 12:00:00 11.1 C 7.35 g/m*3 11.1 C 3.2 km/h
1864 14-03-2014 12:05:00 11.4 C 7.39 g/m*3 11.4 C 3.2 km/h
1865 14-03-2014 12:10:00 11.8 C 7.47 g/m*3 11.8 C 1.6 km/h
1866 14-03-2014 12:15:00 12.3 C 7.71 g/m*3 12.3 C 1.6 km/h
1867 14-03-2014 12:20:00 12.8 C 7.73 g/m*3 12.8 C 3.2 km/h
1868 14-03-2014 12:25:00 13.3 C 7.74 g/m*3 13.3 C 3.2 km/h
1869 14-03-2014 12:30:00 13.8 C 7.63 g/m*3 13.8 C 3.2 km/h
1870 14-03-2014 12:35:00 14.2 C 7.45 g/m*3 14.2 C 3.2 km/h
1871 14-03-2014 12:40:00 14.6 C 8.01 g/m*3 14.6 C 3.2 km/h
1872 14-03-2014 12:45:00 14.8 C 7.6 g/m*3 14.8 C 3.2 km/h
1873 14-03-2014 12:50:00 15.3 C 7.97 g/m*3 15.3 C 3.2 km/h
1874 14-03-2014 12:55:00 15.5 C 7.93 g/m*3 15.5 C 1.6 km/h
1875 14-03-2014 13:00:00 15.7 C 7.49 g/m*3 15.7 C 3.2 km/h
Sensor: Nr:Datum:Temp:Abs-Feuchte:Windchill:Wind:
Aussen-T/F 1876 14-03-2014 13:05:00 15.7 C 7.36 g/m*3 15.7 C 4.8 km/h
1877 14-03-2014 13:10:00 15.7 C 7.49 g/m*3 15.7 C 1.6 km/h
1878 14-03-2014 13:15:00 15.7 C 7.36 g/m*3 15.7 C 3.2 km/h
1879 14-03-2014 13:20:00 15.7 C 7.49 g/m*3 15.7 C 1.6 km/h
1880 14-03-2014 13:25:00 15.8 C 7.4 g/m*3 15.8 C 1.6 km/h
1881 14-03-2014 13:30:00 15.9 C 7.45 g/m*3 15.9 C 3.2 km/h
1882 14-03-2014 13:35:00 16 C 7.77 g/m*3 16 C 6.4 km/h
1883 14-03-2014 13:40:00 15.9 C 7.58 g/m*3 15.9 C 6.4 km/h
1884 14-03-2014 13:45:00 15.9 C 7.31 g/m*3 15.9 C 4.8 km/h
1885 14-03-2014 13:50:00 15.9 C 7.18 g/m*3 15.9 C 1.6 km/h
1886 14-03-2014 13:55:00 15.9 C 7.18 g/m*3 15.9 C 4.8 km/h
1887 14-03-2014 14:00:00 15.8 C 7.4 g/m*3 15.8 C 6.4 km/h
1888 14-03-2014 14:05:00 15.9 C 7.31 g/m*3 15.9 C 6.4 km/h
1889 14-03-2014 14:10:00 16 C 6.95 g/m*3 16 C 4.8 km/h
1890 14-03-2014 14:15:00 16.2 C 6.62 g/m*3 16.2 C 6.4 km/h
1891 14-03-2014 14:20:00 16.2 C 6.21 g/m*3 16.2 C 6.4 km/h
1892 14-03-2014 14:25:00 16.2 C 6.62 g/m*3 16.2 C 4.8 km/h
1893 14-03-2014 14:30:00 16.3 C 7.08 g/m*3 16.3 C 3.2 km/h
1894 14-03-2014 14:35:00 16.3 C 6.66 g/m*3 16.3 C 3.2 km/h
1895 14-03-2014 14:40:00 16.4 C 6.56 g/m*3 16.4 C 1.6 km/h
1896 14-03-2014 14:45:00 16.6 C 6.64 g/m*3 16.6 C 1.6 km/h
1897 14-03-2014 14:50:00 16.7 C 6.68 g/m*3 16.7 C 3.2 km/h
1898 14-03-2014 14:55:00 16.8 C 6.58 g/m*3 16.8 C 3.2 km/h
1899 14-03-2014 15:00:00 16.9 C 7.19 g/m*3 16.9 C 3.2 km/h
1900 14-03-2014 15:05:00 16.9 C 6.76 g/m*3 16.9 C 1.6 km/h
Sensor: Nr:Datum:Temp:Abs-Feuchte:Windchill:Wind:
Aussen-T/F 1901 14-03-2014 15:10:00 17.1 C 6.84 g/m*3 17.1 C 4.8 km/h
1902 14-03-2014 15:15:00 17.1 C 6.55 g/m*3 17.1 C 3.2 km/h
1903 14-03-2014 15:20:00 17.1 C 6.84 g/m*3 17.1 C 3.2 km/h
1904 14-03-2014 15:25:00 17.2 C 6.44 g/m*3 17.2 C 1.6 km/h
1905 14-03-2014 15:30:00 17.4 C 6.37 g/m*3 17.4 C 4.8 km/h
1906 14-03-2014 15:35:00 17.6 C 6.6 g/m*3 17.6 C 3.2 km/h
1907 14-03-2014 15:40:00 17.8 C 6.37 g/m*3 17.8 C 4.8 km/h
1908 14-03-2014 15:45:00 17.9 C 6.72 g/m*3 17.9 C 1.6 km/h
1909 14-03-2014 15:50:00 18.2 C 6.22 g/m*3 18.2 C 3.2 km/h
1910 14-03-2014 15:55:00 18.1 C 6.33 g/m*3 18.1 C 3.2 km/h
1911 14-03-2014 16:00:00 17.9 C 5.95 g/m*3 17.9 C 6.4 km/h
1912 14-03-2014 16:05:00 17.7 C 6.19 g/m*3 17.7 C 3.2 km/h
1913 14-03-2014 16:10:00 17.4 C 6.08 g/m*3 17.4 C 3.2 km/h
1914 14-03-2014 16:15:00 17.3 C 6.19 g/m*3 17.3 C 4.8 km/h
1915 14-03-2014 16:20:00 17.3 C 6.04 g/m*3 17.3 C 4.8 km/h
1916 14-03-2014 16:25:00 17.2 C 6.3 g/m*3 17.2 C 6.4 km/h
1917 14-03-2014 16:30:00 17.1 C 6.84 g/m*3 17.1 C 3.2 km/h
1918 14-03-2014 16:35:00 16.9 C 6.62 g/m*3 16.9 C 4.8 km/h
1919 14-03-2014 16:40:00 16.8 C 6.72 g/m*3 16.8 C 3.2 km/h
1920 14-03-2014 16:45:00 16.6 C 6.64 g/m*3 16.6 C 3.2 km/h
1921 14-03-2014 16:50:00 16.4 C 6.84 g/m*3 16.4 C 1.6 km/h
1922 14-03-2014 16:55:00 16.2 C 6.76 g/m*3 16.2 C 3.2 km/h
1923 14-03-2014 17:00:00 16 C 7.36 g/m*3 16 C 3.2 km/h
1924 14-03-2014 17:05:00 15.7 C 7.49 g/m*3 15.7 C 0 km/h
1925 14-03-2014 17:10:00 15.2 C 7.66 g/m*3 15.2 C 0 km/h
Sensor: Nr:Datum:Temp:Abs-Feuchte:Windchill:Wind:
Aussen-T/F 1926 14-03-2014 17:15:00 14.9 C 7.52 g/m*3 14.9 C 1.6 km/h
1927 14-03-2014 17:20:00 14.7 C 7.68 g/m*3 14.7 C 3.2 km/h
1928 14-03-2014 17:25:00 14.4 C 7.54 g/m*3 14.4 C 1.6 km/h
1929 14-03-2014 17:30:00 14.3 C 7.62 g/m*3 14.3 C 1.6 km/h
1930 14-03-2014 17:35:00 14.1 C 7.52 g/m*3 14.1 C 3.2 km/h
1931 14-03-2014 17:40:00 13.9 C 7.43 g/m*3 13.9 C 3.2 km/h
1932 14-03-2014 17:45:00 13.8 C 7.51 g/m*3 13.8 C 1.6 km/h
1933 14-03-2014 17:50:00 13.6 C 7.53 g/m*3 13.6 C 3.2 km/h
1934 14-03-2014 17:55:00 13.4 C 7.56 g/m*3 13.4 C 4.8 km/h
1935 14-03-2014 18:00:00 13.2 C 7.58 g/m*3 13.2 C 4.8 km/h
1936 14-03-2014 18:05:00 12.9 C 7.44 g/m*3 12.9 C 4.8 km/h
1937 14-03-2014 18:10:00 12.8 C 7.39 g/m*3 12.8 C 4.8 km/h
1938 14-03-2014 18:15:00 12.7 C 7.46 g/m*3 12.7 C 4.8 km/h
1939 14-03-2014 18:20:00 12.5 C 7.37 g/m*3 12.5 C 6.4 km/h
1940 14-03-2014 18:25:00 12.3 C 7.28 g/m*3 12.3 C 6.4 km/h
1941 14-03-2014 18:30:00 12.1 C 7.29 g/m*3 12.1 C 4.8 km/h
1942 14-03-2014 18:35:00 11.8 C 7.26 g/m*3 11.8 C 4.8 km/h
1943 14-03-2014 18:40:00 11.6 C 7.17 g/m*3 11.6 C 4.8 km/h
1944 14-03-2014 18:45:00 11.5 C 7.23 g/m*3 11.5 C 4.8 km/h
1945 14-03-2014 18:50:00 11.3 C 7.14 g/m*3 11.3 C 4.8 km/h
1946 14-03-2014 18:55:00 11.2 C 7.2 g/m*3 11.2 C 6.4 km/h
1947 14-03-2014 19:00:00 11.2 C 7.2 g/m*3 11.2 C 4.8 km/h
1948 14-03-2014 19:05:00 11.1 C 7.25 g/m*3 11.1 C 4.8 km/h
1949 14-03-2014 19:10:00 10.8 C 7.22 g/m*3 10.29 C 6.4 km/h
1950 14-03-2014 19:15:00 10.7 C 7.17 g/m*3 10.7 C 1.6 km/h
Sensor: Nr:Datum:Temp:Abs-Feuchte:Windchill:Wind:
Aussen-T/F 1951 14-03-2014 19:20:00 10.4 C 7.13 g/m*3 10.4 C 3.2 km/h
1952 14-03-2014 19:25:00 10.3 C 6.99 g/m*3 10.3 C 3.2 km/h
1953 14-03-2014 19:30:00 10.2 C 7.14 g/m*3 10.2 C 3.2 km/h
1954 14-03-2014 19:35:00 9.9 C 7.1 g/m*3 9.9 C 3.2 km/h
1955 14-03-2014 19:40:00 9.8 C 7.05 g/m*3 9.14 C 6.4 km/h
1956 14-03-2014 19:45:00 9.7 C 7.1 g/m*3 9.7 C 4.8 km/h
1957 14-03-2014 19:50:00 9.6 C 6.96 g/m*3 9.6 C 4.8 km/h
1958 14-03-2014 19:55:00 9.7 C 7.1 g/m*3 9.7 C 3.2 km/h
1959 14-03-2014 20:00:00 9.8 C 7.14 g/m*3 9.8 C 3.2 km/h
1960 14-03-2014 20:05:00 9.8 C 7.14 g/m*3 9.8 C 1.6 km/h
1961 14-03-2014 20:10:00 9.7 C 7.19 g/m*3 9.7 C 3.2 km/h
1962 14-03-2014 20:15:00 9.4 C 7.15 g/m*3 9.4 C 4.8 km/h
1963 14-03-2014 20:20:00 9.4 C 7.05 g/m*3 9.4 C 1.6 km/h
1964 14-03-2014 20:25:00 9.4 C 7.15 g/m*3 9.4 C 1.6 km/h
1965 14-03-2014 20:30:00 9.5 C 7.19 g/m*3 8.4 C 8.1 km/h
1966 14-03-2014 20:35:00 9.6 C 7.15 g/m*3 8.91 C 6.4 km/h
1967 14-03-2014 20:40:00 9.6 C 7.24 g/m*3 8.91 C 6.4 km/h
1968 14-03-2014 20:45:00 9.5 C 7.28 g/m*3 9.5 C 3.2 km/h
1969 14-03-2014 20:50:00 9.3 C 7.19 g/m*3 9.3 C 1.6 km/h
1970 14-03-2014 20:55:00 9.1 C 7.1 g/m*3 9.1 C 1.6 km/h
1971 14-03-2014 21:00:00 9 C 7.14 g/m*3 9 C 4.8 km/h
1972 14-03-2014 21:05:00 8.9 C 7.1 g/m*3 8.9 C 4.8 km/h
1973 14-03-2014 21:10:00 8.8 C 7.14 g/m*3 8.8 C 0 km/h
1974 14-03-2014 21:15:00 8.8 C 6.96 g/m*3 8.8 C 3.2 km/h
1975 14-03-2014 21:20:00 8.6 C 6.87 g/m*3 8.6 C 1.6 km/h
Sensor: Nr:Datum:Temp:Abs-Feuchte:Windchill:Wind:
Aussen-T/F 1976 14-03-2014 21:25:00 8.3 C 6.91 g/m*3 8.3 C 1.6 km/h
1977 14-03-2014 21:30:00 8.2 C 6.95 g/m*3 8.2 C 1.6 km/h
1978 14-03-2014 21:35:00 8.2 C 6.87 g/m*3 8.2 C 3.2 km/h
1979 14-03-2014 21:40:00 8 C 6.78 g/m*3 8 C 0 km/h
1980 14-03-2014 21:45:00 7.9 C 6.82 g/m*3 7.9 C 0 km/h
1981 14-03-2014 21:50:00 7.7 C 6.81 g/m*3 7.7 C 1.6 km/h
1982 14-03-2014 21:55:00 7.6 C 6.85 g/m*3 7.6 C 0 km/h
1983 14-03-2014 22:00:00 7.5 C 6.8 g/m*3 7.5 C 0 km/h
1984 14-03-2014 22:05:00 7.4 C 6.76 g/m*3 7.4 C 0 km/h
1985 14-03-2014 22:10:00 7.2 C 6.59 g/m*3 7.2 C 0 km/h
1986 14-03-2014 22:15:00 7 C 6.59 g/m*3 7 C 1.6 km/h
1987 14-03-2014 22:20:00 6.8 C 6.58 g/m*3 6.8 C 0 km/h
1988 14-03-2014 22:25:00 6.8 C 6.65 g/m*3 6.8 C 1.6 km/h
1989 14-03-2014 22:30:00 6.7 C 6.61 g/m*3 6.7 C 0 km/h
1990 14-03-2014 22:35:00 6.6 C 6.57 g/m*3 6.6 C 1.6 km/h
1991 14-03-2014 22:40:00 6.6 C 6.64 g/m*3 6.6 C 3.2 km/h
1992 14-03-2014 22:45:00 6.8 C 6.65 g/m*3 6.8 C 4.8 km/h
1993 14-03-2014 22:50:00 7.2 C 6.67 g/m*3 7.2 C 1.6 km/h
1994 14-03-2014 22:55:00 7.4 C 6.68 g/m*3 7.4 C 3.2 km/h
1995 14-03-2014 23:00:00 7.5 C 6.64 g/m*3 7.5 C 3.2 km/h
1996 14-03-2014 23:05:00 7.5 C 6.64 g/m*3 7.5 C 3.2 km/h
1997 14-03-2014 23:10:00 7.5 C 6.64 g/m*3 7.5 C 3.2 km/h
1998 14-03-2014 23:15:00 7.3 C 6.56 g/m*3 7.3 C 1.6 km/h
1999 14-03-2014 23:20:00 7.2 C 6.59 g/m*3 7.2 C 3.2 km/h
2000 14-03-2014 23:25:00 7.2 C 6.52 g/m*3 6.13 C 6.4 km/h
Sensor: Nr:Datum:Temp:Abs-Feuchte:Windchill:Wind:
Aussen-T/F 2001 14-03-2014 23:30:00 7.2 C 6.52 g/m*3 7.2 C 3.2 km/h
2002 14-03-2014 23:35:00 7.2 C 6.52 g/m*3 7.2 C 4.8 km/h
2003 14-03-2014 23:40:00 7.2 C 6.52 g/m*3 7.2 C 4.8 km/h
2004 14-03-2014 23:45:00 7.2 C 6.52 g/m*3 7.2 C 3.2 km/h
2005 14-03-2014 23:50:00 7.2 C 6.52 g/m*3 7.2 C 3.2 km/h
2006 14-03-2014 23:55:00 7.1 C 6.55 g/m*3 7.1 C 4.8 km/h
2007 15-03-2014 00:00:00 6.9 C 6.47 g/m*3 6.9 C 3.2 km/h
2008 15-03-2014 00:05:00 6.9 C 6.47 g/m*3 5.79 C 6.4 km/h
2009 15-03-2014 00:10:00 7 C 6.43 g/m*3 7 C 4.8 km/h
2010 15-03-2014 00:15:00 6.9 C 6.39 g/m*3 5.79 C 6.4 km/h
2011 15-03-2014 00:20:00 6.9 C 6.39 g/m*3 4.99 C 9.7 km/h
2012 15-03-2014 00:25:00 6.8 C 6.35 g/m*3 5.67 C 6.4 km/h
2013 15-03-2014 00:30:00 6.8 C 6.35 g/m*3 6.8 C 4.8 km/h
2014 15-03-2014 00:35:00 7 C 6.43 g/m*3 7 C 4.8 km/h
2015 15-03-2014 00:40:00 6.9 C 6.39 g/m*3 6.9 C 4.8 km/h
2016 15-03-2014 00:45:00 6.6 C 6.27 g/m*3 6.6 C 1.6 km/h
2017 15-03-2014 00:50:00 6.4 C 6.26 g/m*3 5.21 C 6.4 km/h
2018 15-03-2014 00:55:00 6.6 C 6.34 g/m*3 4.99 C 8.1 km/h
2019 15-03-2014 01:00:00 6.7 C 6.31 g/m*3 6.7 C 4.8 km/h
2020 15-03-2014 01:05:00 6.8 C 6.35 g/m*3 5.67 C 6.4 km/h
2021 15-03-2014 01:10:00 6.9 C 6.31 g/m*3 6.9 C 4.8 km/h
2022 15-03-2014 01:15:00 7 C 6.35 g/m*3 7 C 4.8 km/h
2023 15-03-2014 01:20:00 7.1 C 6.4 g/m*3 5.58 C 8.1 km/h
2024 15-03-2014 01:25:00 7.2 C 6.44 g/m*3 6.13 C 6.4 km/h
2025 15-03-2014 01:30:00 7.2 C 6.44 g/m*3 5.69 C 8.1 km/h
Sensor: Nr:Datum:Temp:Abs-Feuchte:Windchill:Wind:
Aussen-T/F 2026 15-03-2014 01:35:00 7.2 C 6.44 g/m*3 5.04 C 11.3 km/h
2027 15-03-2014 01:40:00 7.5 C 6.4 g/m*3 5.14 C 12.9 km/h
2028 15-03-2014 01:45:00 7.6 C 6.44 g/m*3 7.6 C 3.2 km/h
2029 15-03-2014 01:50:00 7.5 C 6.4 g/m*3 7.5 C 3.2 km/h
2030 15-03-2014 01:55:00 7.4 C 6.36 g/m*3 7.4 C 4.8 km/h
2031 15-03-2014 02:00:00 7.5 C 6.4 g/m*3 6.48 C 6.4 km/h
2032 15-03-2014 02:05:00 7.6 C 6.44 g/m*3 7.6 C 4.8 km/h
2033 15-03-2014 02:10:00 7.4 C 6.36 g/m*3 7.4 C 4.8 km/h
2034 15-03-2014 02:15:00 7.2 C 6.36 g/m*3 7.2 C 1.6 km/h
2035 15-03-2014 02:20:00 7.1 C 6.32 g/m*3 7.1 C 4.8 km/h
2036 15-03-2014 02:25:00 7 C 6.35 g/m*3 5.46 C 8.1 km/h
2037 15-03-2014 02:30:00 7.1 C 6.32 g/m*3 6.02 C 6.4 km/h
2038 15-03-2014 02:35:00 7.1 C 6.32 g/m*3 6.02 C 6.4 km/h
2039 15-03-2014 02:40:00 7.1 C 6.32 g/m*3 7.1 C 4.8 km/h
2040 15-03-2014 02:45:00 7.1 C 6.32 g/m*3 5.23 C 9.7 km/h
2041 15-03-2014 02:50:00 7.3 C 6.32 g/m*3 5.47 C 9.7 km/h
2042 15-03-2014 02:55:00 7.3 C 6.24 g/m*3 5.81 C 8.1 km/h
2043 15-03-2014 03:00:00 7.3 C 6.24 g/m*3 5.81 C 8.1 km/h
2044 15-03-2014 03:05:00 7.2 C 6.2 g/m*3 7.2 C 4.8 km/h
2045 15-03-2014 03:10:00 7.1 C 6.24 g/m*3 6.02 C 6.4 km/h
2046 15-03-2014 03:15:00 7 C 6.2 g/m*3 7 C 3.2 km/h
2047 15-03-2014 03:20:00 7 C 6.2 g/m*3 7 C 3.2 km/h
2048 15-03-2014 03:25:00 7.1 C 6.24 g/m*3 6.02 C 6.4 km/h
2049 15-03-2014 03:30:00 7.1 C 6.24 g/m*3 6.02 C 6.4 km/h
2050 15-03-2014 03:35:00 7.1 C 6.16 g/m*3 6.02 C 6.4 km/h
Sensor: Nr:Datum:Temp:Abs-Feuchte:Windchill:Wind:
Aussen-T/F 2051 15-03-2014 03:40:00 7.2 C 6.2 g/m*3 5.04 C 11.3 km/h
2052 15-03-2014 03:45:00 7.3 C 6.24 g/m*3 6.25 C 6.4 km/h
2053 15-03-2014 03:50:00 7.3 C 6.24 g/m*3 7.3 C 4.8 km/h
2054 15-03-2014 03:55:00 7.4 C 6.2 g/m*3 7.4 C 4.8 km/h
2055 15-03-2014 04:00:00 7.5 C 6.24 g/m*3 5.41 C 11.3 km/h
2056 15-03-2014 04:05:00 7.6 C 6.28 g/m*3 7.6 C 1.6 km/h
2057 15-03-2014 04:10:00 7.4 C 6.2 g/m*3 7.4 C 3.2 km/h
2058 15-03-2014 04:15:00 7.5 C 6.24 g/m*3 6.05 C 8.1 km/h
2059 15-03-2014 04:20:00 7.6 C 6.28 g/m*3 6.6 C 6.4 km/h
2060 15-03-2014 04:25:00 7.8 C 6.28 g/m*3 7.8 C 4.8 km/h
2061 15-03-2014 04:30:00 7.7 C 6.32 g/m*3 7.7 C 3.2 km/h
2062 15-03-2014 04:35:00 7.5 C 6.24 g/m*3 7.5 C 1.6 km/h
2063 15-03-2014 04:40:00 7.6 C 6.28 g/m*3 7.6 C 4.8 km/h
2064 15-03-2014 04:45:00 7.8 C 6.28 g/m*3 6.83 C 6.4 km/h
2065 15-03-2014 04:50:00 8 C 6.37 g/m*3 7.06 C 6.4 km/h
2066 15-03-2014 04:55:00 8.1 C 6.32 g/m*3 8.1 C 4.8 km/h
2067 15-03-2014 05:00:00 8.2 C 6.36 g/m*3 8.2 C 4.8 km/h
2068 15-03-2014 05:05:00 8.2 C 6.36 g/m*3 8.2 C 1.6 km/h
2069 15-03-2014 05:10:00 8.2 C 6.45 g/m*3 8.2 C 4.8 km/h
2070 15-03-2014 05:15:00 8.1 C 6.41 g/m*3 8.1 C 3.2 km/h
2071 15-03-2014 05:20:00 8.2 C 6.45 g/m*3 8.2 C 4.8 km/h
2072 15-03-2014 05:25:00 8.2 C 6.45 g/m*3 8.2 C 4.8 km/h
2073 15-03-2014 05:30:00 8.3 C 6.41 g/m*3 6.99 C 8.1 km/h
2074 15-03-2014 05:35:00 8.3 C 6.57 g/m*3 7.41 C 6.4 km/h
2075 15-03-2014 05:40:00 8.7 C 6.83 g/m*3 7.46 C 8.1 km/h
Sensor: Nr:Datum:Temp:Abs-Feuchte:Windchill:Wind:
Aussen-T/F 2076 15-03-2014 05:45:00 9 C 6.88 g/m*3 7.81 C 8.1 km/h
2077 15-03-2014 05:50:00 9.2 C 6.88 g/m*3 8.05 C 8.1 km/h
2078 15-03-2014 05:55:00 9.2 C 6.88 g/m*3 9.2 C 3.2 km/h
2079 15-03-2014 06:00:00 9.1 C 6.92 g/m*3 9.1 C 3.2 km/h
2080 15-03-2014 06:05:00 8.9 C 6.92 g/m*3 8.9 C 4.8 km/h
2081 15-03-2014 06:10:00 9.1 C 7.01 g/m*3 8.33 C 6.4 km/h
2082 15-03-2014 06:15:00 9.1 C 6.92 g/m*3 9.1 C 4.8 km/h
2083 15-03-2014 06:20:00 9.2 C 7.05 g/m*3 7.73 C 9.7 km/h
2084 15-03-2014 06:25:00 9.2 C 6.97 g/m*3 9.2 C 4.8 km/h
2085 15-03-2014 06:30:00 9.2 C 7.05 g/m*3 8.05 C 8.1 km/h
2086 15-03-2014 06:35:00 9.2 C 7.05 g/m*3 9.2 C 3.2 km/h
2087 15-03-2014 06:40:00 9.2 C 7.05 g/m*3 7.73 C 9.7 km/h
2088 15-03-2014 06:45:00 9.3 C 7.1 g/m*3 9.3 C 4.8 km/h
2089 15-03-2014 06:50:00 9.4 C 7.15 g/m*3 7.24 C 14.5 km/h
2090 15-03-2014 06:55:00 9.5 C 7.19 g/m*3 8.4 C 8.1 km/h
2091 15-03-2014 07:00:00 9.5 C 7.19 g/m*3 8.79 C 6.4 km/h
2092 15-03-2014 07:05:00 9.5 C 7.19 g/m*3 8.4 C 8.1 km/h
2093 15-03-2014 07:10:00 9.6 C 7.15 g/m*3 8.91 C 6.4 km/h
2094 15-03-2014 07:15:00 9.6 C 7.15 g/m*3 8.21 C 9.7 km/h
2095 15-03-2014 07:20:00 9.6 C 7.15 g/m*3 7.7 C 12.9 km/h
2096 15-03-2014 07:25:00 9.6 C 7.15 g/m*3 7.48 C 14.5 km/h
2097 15-03-2014 07:30:00 9.6 C 7.15 g/m*3 8.91 C 6.4 km/h
2098 15-03-2014 07:35:00 9.6 C 7.15 g/m*3 7.94 C 11.3 km/h
2099 15-03-2014 07:40:00 9.6 C 7.15 g/m*3 7.94 C 11.3 km/h
2100 15-03-2014 07:45:00 9.6 C 7.15 g/m*3 7.48 C 14.5 km/h
Sensor: Nr:Datum:Temp:Abs-Feuchte:Windchill:Wind:
Aussen-T/F 2101 15-03-2014 07:50:00 9.6 C 7.15 g/m*3 7.7 C 12.9 km/h
2102 15-03-2014 07:55:00 9.6 C 7.24 g/m*3 7.29 C 16.1 km/h
2103 15-03-2014 08:00:00 9.6 C 7.24 g/m*3 6.64 C 22.5 km/h
2104 15-03-2014 08:05:00 9.6 C 7.33 g/m*3 7.48 C 14.5 km/h
2105 15-03-2014 08:10:00 9.5 C 7.28 g/m*3 6.98 C 17.7 km/h
2106 15-03-2014 08:15:00 9.4 C 7.33 g/m*3 8.28 C 8.1 km/h
2107 15-03-2014 08:20:00 9.4 C 7.42 g/m*3 7.04 C 16.1 km/h
2108 15-03-2014 08:25:00 9.3 C 7.46 g/m*3 6.56 C 19.3 km/h
2109 15-03-2014 08:30:00 9.2 C 7.5 g/m*3 7.73 C 9.7 km/h
2110 15-03-2014 08:35:00 9.1 C 7.45 g/m*3 8.33 C 6.4 km/h
2111 15-03-2014 08:40:00 9.1 C 7.54 g/m*3 6.48 C 17.7 km/h
2112 15-03-2014 08:45:00 8.9 C 7.53 g/m*3 7.37 C 9.7 km/h
2113 15-03-2014 08:50:00 8.8 C 7.57 g/m*3 6.72 C 12.9 km/h
2114 15-03-2014 08:55:00 8.7 C 7.61 g/m*3 6.17 C 16.1 km/h
2115 15-03-2014 09:00:00 8.6 C 7.65 g/m*3 6.73 C 11.3 km/h
2116 15-03-2014 09:05:00 8.4 C 7.63 g/m*3 6.78 C 9.7 km/h
2117 15-03-2014 09:10:00 8.3 C 7.59 g/m*3 6.99 C 8.1 km/h
2118 15-03-2014 09:15:00 8.3 C 7.67 g/m*3 6.12 C 12.9 km/h
2119 15-03-2014 09:20:00 8.3 C 7.67 g/m*3 5.89 C 14.5 km/h
2120 15-03-2014 09:25:00 8.3 C 7.67 g/m*3 6.99 C 8.1 km/h
2121 15-03-2014 09:30:00 8.3 C 7.67 g/m*3 6.12 C 12.9 km/h
2122 15-03-2014 09:35:00 8.4 C 7.72 g/m*3 7.52 C 6.4 km/h
2123 15-03-2014 09:40:00 8.4 C 7.72 g/m*3 7.52 C 6.4 km/h
2124 15-03-2014 09:45:00 8.4 C 7.72 g/m*3 6.49 C 11.3 km/h
2125 15-03-2014 09:50:00 8.4 C 7.72 g/m*3 7.52 C 6.4 km/h
Sensor: Nr:Datum:Temp:Abs-Feuchte:Windchill:Wind:
Aussen-T/F 2126 15-03-2014 09:55:00 8.4 C 7.72 g/m*3 6.01 C 14.5 km/h
2127 15-03-2014 10:00:00 8.4 C 7.72 g/m*3 7.11 C 8.1 km/h
2128 15-03-2014 10:05:00 8.4 C 7.63 g/m*3 5.8 C 16.1 km/h
2129 15-03-2014 10:10:00 8.4 C 7.63 g/m*3 6.24 C 12.9 km/h
2130 15-03-2014 10:15:00 8.4 C 7.63 g/m*3 7.52 C 6.4 km/h
2131 15-03-2014 10:20:00 8.5 C 7.68 g/m*3 6.9 C 9.7 km/h
2132 15-03-2014 10:25:00 8.6 C 7.73 g/m*3 6.05 C 16.1 km/h
2133 15-03-2014 10:30:00 8.6 C 7.65 g/m*3 6.25 C 14.5 km/h
2134 15-03-2014 10:35:00 8.7 C 7.61 g/m*3 7.13 C 9.7 km/h
2135 15-03-2014 10:40:00 8.7 C 7.7 g/m*3 7.13 C 9.7 km/h
2136 15-03-2014 10:45:00 8.6 C 7.65 g/m*3 6.05 C 16.1 km/h
2137 15-03-2014 10:50:00 8.5 C 7.6 g/m*3 6.61 C 11.3 km/h
2138 15-03-2014 10:55:00 8.5 C 7.6 g/m*3 6.36 C 12.9 km/h
2139 15-03-2014 11:00:00 8.5 C 7.43 g/m*3 6.9 C 9.7 km/h
2140 15-03-2014 11:05:00 8.5 C 7.51 g/m*3 5.92 C 16.1 km/h
2141 15-03-2014 11:10:00 8.4 C 7.47 g/m*3 6.01 C 14.5 km/h
2142 15-03-2014 11:15:00 8.3 C 7.59 g/m*3 5.48 C 17.7 km/h
2143 15-03-2014 11:20:00 8.1 C 7.49 g/m*3 5.23 C 17.7 km/h
2144 15-03-2014 11:25:00 7.9 C 7.39 g/m*3 6.18 C 9.7 km/h
2145 15-03-2014 11:30:00 7.7 C 7.22 g/m*3 6.71 C 6.4 km/h
2146 15-03-2014 11:35:00 7.7 C 7.38 g/m*3 7.7 C 4.8 km/h
2147 15-03-2014 11:40:00 7.6 C 7.25 g/m*3 7.6 C 4.8 km/h
2148 15-03-2014 11:45:00 7.6 C 7.25 g/m*3 7.6 C 0 km/h
2149 15-03-2014 11:50:00 7.7 C 7.46 g/m*3 7.7 C 3.2 km/h
2150 15-03-2014 11:55:00 7.7 C 7.3 g/m*3 6.28 C 8.1 km/h
Sensor: Nr:Datum:Temp:Abs-Feuchte:Windchill:Wind:
Aussen-T/F 2151 15-03-2014 12:00:00 7.8 C 7.26 g/m*3 6.4 C 8.1 km/h
2152 15-03-2014 12:05:00 7.8 C 7.18 g/m*3 6.4 C 8.1 km/h
2153 15-03-2014 12:10:00 7.9 C 7.15 g/m*3 6.52 C 8.1 km/h
2154 15-03-2014 12:15:00 8 C 7.11 g/m*3 5.75 C 12.9 km/h
2155 15-03-2014 12:20:00 8.1 C 7.16 g/m*3 6.42 C 9.7 km/h
2156 15-03-2014 12:25:00 8.3 C 7.33 g/m*3 6.37 C 11.3 km/h
2157 15-03-2014 12:30:00 8.6 C 7.39 g/m*3 6.48 C 12.9 km/h
2158 15-03-2014 12:35:00 8.9 C 7.53 g/m*3 8.9 C 4.8 km/h
2159 15-03-2014 12:40:00 9 C 7.49 g/m*3 9 C 4.8 km/h
2160 15-03-2014 12:45:00 9.1 C 7.63 g/m*3 7.93 C 8.1 km/h
2161 15-03-2014 12:50:00 9.3 C 7.73 g/m*3 8.16 C 8.1 km/h
2162 15-03-2014 12:55:00 9.4 C 7.69 g/m*3 7.04 C 16.1 km/h
2163 15-03-2014 13:00:00 9.4 C 7.33 g/m*3 7.24 C 14.5 km/h
2164 15-03-2014 13:05:00 9.4 C 7.24 g/m*3 7.97 C 9.7 km/h
2165 15-03-2014 13:10:00 9.4 C 7.15 g/m*3 7.46 C 12.9 km/h
2166 15-03-2014 13:15:00 9.4 C 6.96 g/m*3 7.46 C 12.9 km/h
2167 15-03-2014 13:20:00 9.6 C 6.96 g/m*3 7.94 C 11.3 km/h
2168 15-03-2014 13:25:00 9.7 C 7.19 g/m*3 8.63 C 8.1 km/h
2169 15-03-2014 13:30:00 10 C 7.42 g/m*3 8.99 C 8.1 km/h
2170 15-03-2014 13:35:00 10.3 C 7.37 g/m*3 8.34 C 14.5 km/h
2171 15-03-2014 13:40:00 10.5 C 7.27 g/m*3 8.4 C 16.1 km/h
2172 15-03-2014 13:45:00 10.4 C 6.94 g/m*3 8.28 C 16.1 km/h
2173 15-03-2014 13:50:00 10.3 C 6.99 g/m*3 7.82 C 19.3 km/h
2174 15-03-2014 13:55:00 10.2 C 6.85 g/m*3 8.22 C 14.5 km/h
2175 15-03-2014 14:00:00 10.1 C 6.71 g/m*3 7.14 C 24.1 km/h
Sensor: Nr:Datum:Temp:Abs-Feuchte:Windchill:Wind:
Aussen-T/F 2176 15-03-2014 14:05:00 10 C 6.86 g/m*3 8.42 C 11.3 km/h
2177 15-03-2014 14:10:00 10.1 C 6.81 g/m*3 8.1 C 14.5 km/h
2178 15-03-2014 14:15:00 10.2 C 6.66 g/m*3 8.03 C 16.1 km/h
2179 15-03-2014 14:20:00 10.2 C 6.76 g/m*3 8.22 C 14.5 km/h
2180 15-03-2014 14:25:00 10.2 C 6.66 g/m*3 8.66 C 11.3 km/h
2181 15-03-2014 14:30:00 10.3 C 6.7 g/m*3 8.78 C 11.3 km/h
2182 15-03-2014 14:35:00 10.5 C 6.4 g/m*3 8.59 C 14.5 km/h
2183 15-03-2014 14:40:00 10.7 C 6.29 g/m*3 8.32 C 19.3 km/h
2184 15-03-2014 14:45:00 10.7 C 6.09 g/m*3 8.04 C 22.5 km/h
2185 15-03-2014 14:50:00 10.7 C 6.09 g/m*3 8.32 C 19.3 km/h
2186 15-03-2014 14:55:00 10.7 C 6.09 g/m*3 8.84 C 14.5 km/h
2187 15-03-2014 15:00:00 10.7 C 6.19 g/m*3 9.04 C 12.9 km/h
2188 15-03-2014 15:05:00 10.8 C 6.03 g/m*3 8.96 C 14.5 km/h
2189 15-03-2014 15:10:00 10.8 C 6.13 g/m*3 9.64 C 9.7 km/h
2190 15-03-2014 15:15:00 10.8 C 5.93 g/m*3 8.78 C 16.1 km/h
2191 15-03-2014 15:20:00 10.8 C 6.23 g/m*3 8.45 C 19.3 km/h
2192 15-03-2014 15:25:00 10.8 C 6.03 g/m*3 8.78 C 16.1 km/h
2193 15-03-2014 15:30:00 10.9 C 6.17 g/m*3 8.73 C 17.7 km/h
2194 15-03-2014 15:35:00 10.8 C 6.23 g/m*3 9.38 C 11.3 km/h
2195 15-03-2014 15:40:00 10.8 C 6.23 g/m*3 9.64 C 9.7 km/h
2196 15-03-2014 15:45:00 10.8 C 6.13 g/m*3 9.64 C 9.7 km/h
2197 15-03-2014 15:50:00 10.8 C 6.13 g/m*3 9.16 C 12.9 km/h
2198 15-03-2014 15:55:00 10.8 C 6.13 g/m*3 8.78 C 16.1 km/h
2199 15-03-2014 16:00:00 10.8 C 6.13 g/m*3 8.96 C 14.5 km/h
2200 15-03-2014 16:05:00 10.7 C 5.99 g/m*3 9.52 C 9.7 km/h
Sensor: Nr:Datum:Temp:Abs-Feuchte:Windchill:Wind:
Aussen-T/F 2201 15-03-2014 16:10:00 10.7 C 6.09 g/m*3 9.26 C 11.3 km/h
2202 15-03-2014 16:15:00 10.7 C 5.89 g/m*3 8.65 C 16.1 km/h
2203 15-03-2014 16:20:00 10.7 C 5.89 g/m*3 9.26 C 11.3 km/h
2204 15-03-2014 16:25:00 10.7 C 5.89 g/m*3 9.52 C 9.7 km/h
2205 15-03-2014 16:30:00 10.6 C 5.95 g/m*3 9.14 C 11.3 km/h
2206 15-03-2014 16:35:00 10.6 C 5.86 g/m*3 9.4 C 9.7 km/h
2207 15-03-2014 16:40:00 10.6 C 5.95 g/m*3 9.14 C 11.3 km/h
2208 15-03-2014 16:45:00 10.6 C 5.95 g/m*3 8.92 C 12.9 km/h
2209 15-03-2014 16:50:00 10.6 C 5.95 g/m*3 9.69 C 8.1 km/h
2210 15-03-2014 16:55:00 10.6 C 5.95 g/m*3 9.69 C 8.1 km/h
2211 15-03-2014 17:00:00 10.6 C 6.05 g/m*3 9.69 C 8.1 km/h
2212 15-03-2014 17:05:00 10.5 C 6.01 g/m*3 9.57 C 8.1 km/h
2213 15-03-2014 17:10:00 10.5 C 6.11 g/m*3 9.57 C 8.1 km/h
2214 15-03-2014 17:15:00 10.5 C 6.11 g/m*3 9.28 C 9.7 km/h
2215 15-03-2014 17:20:00 10.6 C 6.15 g/m*3 10.6 C 4.8 km/h
2216 15-03-2014 17:25:00 10.5 C 6.11 g/m*3 9.95 C 6.4 km/h
2217 15-03-2014 17:30:00 10.4 C 6.17 g/m*3 8.47 C 14.5 km/h
2218 15-03-2014 17:35:00 10.4 C 6.17 g/m*3 9.16 C 9.7 km/h
2219 15-03-2014 17:40:00 10.4 C 6.17 g/m*3 9.16 C 9.7 km/h
2220 15-03-2014 17:45:00 10.4 C 6.17 g/m*3 9.16 C 9.7 km/h
2221 15-03-2014 17:50:00 10.4 C 6.17 g/m*3 8.47 C 14.5 km/h
2222 15-03-2014 17:55:00 10.4 C 6.26 g/m*3 9.16 C 9.7 km/h
2223 15-03-2014 18:00:00 10.4 C 6.26 g/m*3 9.83 C 6.4 km/h
2224 15-03-2014 18:05:00 10.3 C 6.32 g/m*3 10.3 C 4.8 km/h
2225 15-03-2014 18:10:00 10.2 C 6.28 g/m*3 9.22 C 8.1 km/h
Sensor: Nr:Datum:Temp:Abs-Feuchte:Windchill:Wind:
Aussen-T/F 2226 15-03-2014 18:15:00 10.2 C 6.38 g/m*3 10.2 C 3.2 km/h
2227 15-03-2014 18:20:00 10.2 C 6.28 g/m*3 9.6 C 6.4 km/h
2228 15-03-2014 18:25:00 10.2 C 6.38 g/m*3 9.6 C 6.4 km/h
2229 15-03-2014 18:30:00 10.1 C 6.34 g/m*3 8.8 C 9.7 km/h
2230 15-03-2014 18:35:00 10.1 C 6.43 g/m*3 10.1 C 4.8 km/h
2231 15-03-2014 18:40:00 10 C 6.48 g/m*3 9.37 C 6.4 km/h
2232 15-03-2014 18:45:00 9.9 C 6.44 g/m*3 9.25 C 6.4 km/h
2233 15-03-2014 18:50:00 9.8 C 6.49 g/m*3 9.14 C 6.4 km/h
2234 15-03-2014 18:55:00 9.8 C 6.68 g/m*3 9.14 C 6.4 km/h
2235 15-03-2014 19:00:00 9.7 C 6.64 g/m*3 9.7 C 4.8 km/h
2236 15-03-2014 19:05:00 9.7 C 6.64 g/m*3 9.7 C 4.8 km/h
2237 15-03-2014 19:10:00 9.7 C 6.73 g/m*3 9.7 C 3.2 km/h
2238 15-03-2014 19:15:00 9.6 C 6.78 g/m*3 9.6 C 4.8 km/h
2239 15-03-2014 19:20:00 9.5 C 6.83 g/m*3 9.5 C 1.6 km/h
2240 15-03-2014 19:25:00 9.5 C 6.83 g/m*3 8.79 C 6.4 km/h
2241 15-03-2014 19:30:00 9.5 C 6.83 g/m*3 8.4 C 8.1 km/h
2242 15-03-2014 19:35:00 9.5 C 6.92 g/m*3 9.5 C 4.8 km/h
2243 15-03-2014 19:40:00 9.4 C 6.78 g/m*3 8.28 C 8.1 km/h
2244 15-03-2014 19:45:00 9.4 C 6.78 g/m*3 7.46 C 12.9 km/h
2245 15-03-2014 19:50:00 9.5 C 6.92 g/m*3 8.79 C 6.4 km/h
2246 15-03-2014 19:55:00 9.5 C 6.83 g/m*3 9.5 C 4.8 km/h
2247 15-03-2014 20:00:00 9.5 C 6.92 g/m*3 9.5 C 4.8 km/h
2248 15-03-2014 20:05:00 9.5 C 6.83 g/m*3 8.79 C 6.4 km/h
2249 15-03-2014 20:10:00 9.5 C 6.83 g/m*3 8.79 C 6.4 km/h
2250 15-03-2014 20:15:00 9.6 C 6.87 g/m*3 8.52 C 8.1 km/h
Sensor: Nr:Datum:Temp:Abs-Feuchte:Windchill:Wind:
Aussen-T/F 2251 15-03-2014 20:20:00 9.5 C 6.83 g/m*3 8.4 C 8.1 km/h
2252 15-03-2014 20:25:00 9.6 C 6.87 g/m*3 7.94 C 11.3 km/h
2253 15-03-2014 20:30:00 9.6 C 6.87 g/m*3 8.21 C 9.7 km/h
2254 15-03-2014 20:35:00 9.5 C 6.83 g/m*3 9.5 C 4.8 km/h
2255 15-03-2014 20:40:00 9.5 C 6.92 g/m*3 8.09 C 9.7 km/h
2256 15-03-2014 20:45:00 9.4 C 6.87 g/m*3 7.46 C 12.9 km/h
2257 15-03-2014 20:50:00 9.5 C 6.92 g/m*3 8.4 C 8.1 km/h
2258 15-03-2014 20:55:00 9.5 C 6.92 g/m*3 8.09 C 9.7 km/h
2259 15-03-2014 21:00:00 9.6 C 6.87 g/m*3 7.29 C 16.1 km/h
2260 15-03-2014 21:05:00 9.6 C 6.87 g/m*3 7.11 C 17.7 km/h
2261 15-03-2014 21:10:00 9.6 C 6.87 g/m*3 8.21 C 9.7 km/h
2262 15-03-2014 21:15:00 9.5 C 6.83 g/m*3 8.4 C 8.1 km/h
2263 15-03-2014 21:20:00 9.5 C 6.83 g/m*3 7.58 C 12.9 km/h
2264 15-03-2014 21:25:00 9.5 C 6.92 g/m*3 8.79 C 6.4 km/h
2265 15-03-2014 21:30:00 9.4 C 6.96 g/m*3 7.7 C 11.3 km/h
2266 15-03-2014 21:35:00 9.4 C 6.96 g/m*3 7.7 C 11.3 km/h
2267 15-03-2014 21:40:00 9.3 C 6.92 g/m*3 7.33 C 12.9 km/h
2268 15-03-2014 21:45:00 9.3 C 7.01 g/m*3 8.16 C 8.1 km/h
2269 15-03-2014 21:50:00 9.3 C 7.01 g/m*3 8.16 C 8.1 km/h
2270 15-03-2014 21:55:00 9.3 C 7.01 g/m*3 7.58 C 11.3 km/h
2271 15-03-2014 22:00:00 9.3 C 6.92 g/m*3 8.16 C 8.1 km/h
2272 15-03-2014 22:05:00 9.3 C 6.92 g/m*3 7.12 C 14.5 km/h
2273 15-03-2014 22:10:00 9.4 C 6.87 g/m*3 8.28 C 8.1 km/h
2274 15-03-2014 22:15:00 9.4 C 6.96 g/m*3 7.97 C 9.7 km/h
2275 15-03-2014 22:20:00 9.3 C 6.92 g/m*3 8.16 C 8.1 km/h
Sensor: Nr:Datum:Temp:Abs-Feuchte:Windchill:Wind:
Aussen-T/F 2276 15-03-2014 22:25:00 9.3 C 7.01 g/m*3 7.58 C 11.3 km/h
2277 15-03-2014 22:30:00 9.3 C 7.01 g/m*3 8.16 C 8.1 km/h
2278 15-03-2014 22:35:00 9.3 C 7.01 g/m*3 8.16 C 8.1 km/h
2279 15-03-2014 22:40:00 9.3 C 7.01 g/m*3 7.85 C 9.7 km/h
2280 15-03-2014 22:45:00 9.2 C 6.97 g/m*3 8.05 C 8.1 km/h
2281 15-03-2014 22:50:00 9.3 C 7.01 g/m*3 7.85 C 9.7 km/h
2282 15-03-2014 22:55:00 9.3 C 7.01 g/m*3 7.85 C 9.7 km/h
2283 15-03-2014 23:00:00 9.3 C 7.01 g/m*3 8.16 C 8.1 km/h
2284 15-03-2014 23:05:00 9.3 C 7.01 g/m*3 8.16 C 8.1 km/h
2285 15-03-2014 23:10:00 9.3 C 7.01 g/m*3 7.33 C 12.9 km/h
2286 15-03-2014 23:15:00 9.3 C 6.92 g/m*3 8.16 C 8.1 km/h
2287 15-03-2014 23:20:00 9.3 C 6.92 g/m*3 8.56 C 6.4 km/h
2288 15-03-2014 23:25:00 9.3 C 6.92 g/m*3 7.33 C 12.9 km/h
2289 15-03-2014 23:30:00 9.4 C 7.05 g/m*3 8.68 C 6.4 km/h
2290 15-03-2014 23:35:00 9.4 C 7.05 g/m*3 7.97 C 9.7 km/h
2291 15-03-2014 23:40:00 9.3 C 6.92 g/m*3 7.58 C 11.3 km/h
2292 15-03-2014 23:45:00 9.4 C 7.05 g/m*3 8.28 C 8.1 km/h
2293 15-03-2014 23:50:00 9.3 C 6.92 g/m*3 8.56 C 6.4 km/h
2294 15-03-2014 23:55:00 9.4 C 6.96 g/m*3 7.97 C 9.7 km/h
2295 16-03-2014 00:00:00 9.4 C 6.96 g/m*3 7.97 C 9.7 km/h
2296 16-03-2014 00:05:00 9.5 C 7.01 g/m*3 7.82 C 11.3 km/h
2297 16-03-2014 00:10:00 9.5 C 7.01 g/m*3 8.09 C 9.7 km/h
2298 16-03-2014 00:15:00 9.5 C 7.01 g/m*3 7.58 C 12.9 km/h
2299 16-03-2014 00:20:00 9.5 C 7.01 g/m*3 7.36 C 14.5 km/h
2300 16-03-2014 00:25:00 9.6 C 7.05 g/m*3 7.48 C 14.5 km/h
Sensor: Nr:Datum:Temp:Abs-Feuchte:Windchill:Wind:
Aussen-T/F 2301 16-03-2014 00:30:00 9.6 C 7.05 g/m*3 8.21 C 9.7 km/h
2302 16-03-2014 00:35:00 9.6 C 7.05 g/m*3 7.7 C 12.9 km/h
2303 16-03-2014 00:40:00 9.7 C 7.01 g/m*3 8.06 C 11.3 km/h
2304 16-03-2014 00:45:00 9.7 C 7.01 g/m*3 7.82 C 12.9 km/h
2305 16-03-2014 00:50:00 9.7 C 7.01 g/m*3 7.41 C 16.1 km/h
2306 16-03-2014 00:55:00 9.7 C 7.01 g/m*3 7.23 C 17.7 km/h
2307 16-03-2014 01:00:00 9.8 C 7.05 g/m*3 8.18 C 11.3 km/h
2308 16-03-2014 01:05:00 9.8 C 7.05 g/m*3 7.54 C 16.1 km/h
2309 16-03-2014 01:10:00 9.8 C 7.05 g/m*3 7.94 C 12.9 km/h
2310 16-03-2014 01:15:00 9.8 C 7.05 g/m*3 7.73 C 14.5 km/h
2311 16-03-2014 01:20:00 9.8 C 7.05 g/m*3 7.94 C 12.9 km/h
2312 16-03-2014 01:25:00 9.9 C 7.1 g/m*3 7.85 C 14.5 km/h
2313 16-03-2014 01:30:00 9.9 C 7.1 g/m*3 7.66 C 16.1 km/h
2314 16-03-2014 01:35:00 9.9 C 7.1 g/m*3 8.3 C 11.3 km/h
2315 16-03-2014 01:40:00 9.9 C 7.19 g/m*3 7.85 C 14.5 km/h
2316 16-03-2014 01:45:00 9.8 C 7.14 g/m*3 7.73 C 14.5 km/h
2317 16-03-2014 01:50:00 9.8 C 7.24 g/m*3 8.18 C 11.3 km/h
2318 16-03-2014 01:55:00 9.8 C 7.24 g/m*3 7.19 C 19.3 km/h
2319 16-03-2014 02:00:00 9.7 C 7.19 g/m*3 7.23 C 17.7 km/h
2320 16-03-2014 02:05:00 9.7 C 7.19 g/m*3 8.33 C 9.7 km/h
2321 16-03-2014 02:10:00 9.7 C 7.28 g/m*3 8.33 C 9.7 km/h
2322 16-03-2014 02:15:00 9.7 C 7.28 g/m*3 7.61 C 14.5 km/h
2323 16-03-2014 02:20:00 9.7 C 7.28 g/m*3 7.82 C 12.9 km/h
2324 16-03-2014 02:25:00 9.7 C 7.28 g/m*3 7.41 C 16.1 km/h
2325 16-03-2014 02:30:00 9.7 C 7.28 g/m*3 8.33 C 9.7 km/h
Sensor: Nr:Datum:Temp:Abs-Feuchte:Windchill:Wind:
Aussen-T/F 2326 16-03-2014 02:35:00 9.7 C 7.28 g/m*3 8.06 C 11.3 km/h
2327 16-03-2014 02:40:00 9.7 C 7.28 g/m*3 8.06 C 11.3 km/h
2328 16-03-2014 02:45:00 9.7 C 7.28 g/m*3 7.61 C 14.5 km/h
2329 16-03-2014 02:50:00 9.8 C 7.33 g/m*3 8.18 C 11.3 km/h
2330 16-03-2014 02:55:00 9.7 C 7.28 g/m*3 9.02 C 6.4 km/h
2331 16-03-2014 03:00:00 9.8 C 7.33 g/m*3 7.73 C 14.5 km/h
2332 16-03-2014 03:05:00 9.8 C 7.33 g/m*3 8.75 C 8.1 km/h
2333 16-03-2014 03:10:00 9.8 C 7.33 g/m*3 8.45 C 9.7 km/h
2334 16-03-2014 03:15:00 9.8 C 7.33 g/m*3 8.18 C 11.3 km/h
2335 16-03-2014 03:20:00 9.8 C 7.33 g/m*3 8.18 C 11.3 km/h
2336 16-03-2014 03:25:00 9.8 C 7.33 g/m*3 8.18 C 11.3 km/h
2337 16-03-2014 03:30:00 9.9 C 7.38 g/m*3 7.66 C 16.1 km/h
2338 16-03-2014 03:35:00 9.8 C 7.33 g/m*3 9.14 C 6.4 km/h
2339 16-03-2014 03:40:00 9.9 C 7.38 g/m*3 8.06 C 12.9 km/h
2340 16-03-2014 03:45:00 9.9 C 7.38 g/m*3 8.06 C 12.9 km/h
2341 16-03-2014 03:50:00 10.1 C 7.47 g/m*3 8.31 C 12.9 km/h
2342 16-03-2014 03:55:00 10.1 C 7.38 g/m*3 8.54 C 11.3 km/h
2343 16-03-2014 04:00:00 10.1 C 7.47 g/m*3 8.1 C 14.5 km/h
2344 16-03-2014 04:05:00 10.1 C 7.47 g/m*3 8.54 C 11.3 km/h
2345 16-03-2014 04:10:00 10 C 7.42 g/m*3 7.98 C 14.5 km/h
2346 16-03-2014 04:15:00 10 C 7.42 g/m*3 8.68 C 9.7 km/h
2347 16-03-2014 04:20:00 10 C 7.42 g/m*3 8.68 C 9.7 km/h
2348 16-03-2014 04:25:00 10 C 7.42 g/m*3 8.42 C 11.3 km/h
2349 16-03-2014 04:30:00 10.1 C 7.56 g/m*3 9.1 C 8.1 km/h
2350 16-03-2014 04:35:00 10.1 C 7.56 g/m*3 8.8 C 9.7 km/h
Sensor: Nr:Datum:Temp:Abs-Feuchte:Windchill:Wind:
Aussen-T/F 2351 16-03-2014 04:40:00 10.1 C 7.56 g/m*3 9.1 C 8.1 km/h
2352 16-03-2014 04:45:00 10.2 C 7.61 g/m*3 9.22 C 8.1 km/h
2353 16-03-2014 04:50:00 10.3 C 7.66 g/m*3 9.72 C 6.4 km/h
2354 16-03-2014 04:55:00 10.3 C 7.57 g/m*3 9.34 C 8.1 km/h
2355 16-03-2014 05:00:00 10.4 C 7.71 g/m*3 8.9 C 11.3 km/h
2356 16-03-2014 05:05:00 10.5 C 7.66 g/m*3 8.59 C 14.5 km/h
2357 16-03-2014 05:10:00 10.6 C 7.71 g/m*3 9.14 C 11.3 km/h
2358 16-03-2014 05:15:00 10.5 C 7.66 g/m*3 9.28 C 9.7 km/h
2359 16-03-2014 05:20:00 10.6 C 7.71 g/m*3 8.71 C 14.5 km/h
2360 16-03-2014 05:25:00 10.6 C 7.71 g/m*3 8.92 C 12.9 km/h
2361 16-03-2014 05:30:00 10.6 C 7.71 g/m*3 8.92 C 12.9 km/h
2362 16-03-2014 05:35:00 10.5 C 7.66 g/m*3 8.07 C 19.3 km/h
2363 16-03-2014 05:40:00 10.4 C 7.61 g/m*3 8.67 C 12.9 km/h
2364 16-03-2014 05:45:00 10.4 C 7.61 g/m*3 8.28 C 16.1 km/h
2365 16-03-2014 05:50:00 10.3 C 7.57 g/m*3 8.34 C 14.5 km/h
2366 16-03-2014 05:55:00 10.3 C 7.57 g/m*3 9.04 C 9.7 km/h
2367 16-03-2014 06:00:00 10.3 C 7.66 g/m*3 9.04 C 9.7 km/h
2368 16-03-2014 06:05:00 10.2 C 7.61 g/m*3 8.43 C 12.9 km/h
2369 16-03-2014 06:10:00 10.2 C 7.61 g/m*3 8.92 C 9.7 km/h
2370 16-03-2014 06:15:00 10.2 C 7.71 g/m*3 8.43 C 12.9 km/h
2371 16-03-2014 06:20:00 10.2 C 7.71 g/m*3 8.92 C 9.7 km/h
2372 16-03-2014 06:25:00 10.3 C 7.76 g/m*3 9.04 C 9.7 km/h
2373 16-03-2014 06:30:00 10.3 C 7.76 g/m*3 9.34 C 8.1 km/h
2374 16-03-2014 06:35:00 10.4 C 7.81 g/m*3 8.47 C 14.5 km/h
2375 16-03-2014 06:40:00 10.4 C 7.71 g/m*3 8.67 C 12.9 km/h
Sensor: Nr:Datum:Temp:Abs-Feuchte:Windchill:Wind:
Aussen-T/F 2376 16-03-2014 06:45:00 10.5 C 7.76 g/m*3 8.59 C 14.5 km/h
2377 16-03-2014 06:50:00 10.5 C 7.76 g/m*3 9.02 C 11.3 km/h
2378 16-03-2014 06:55:00 10.5 C 7.76 g/m*3 8.8 C 12.9 km/h
2379 16-03-2014 07:00:00 10.6 C 7.81 g/m*3 8.92 C 12.9 km/h
2380 16-03-2014 07:05:00 10.6 C 7.81 g/m*3 9.14 C 11.3 km/h
2381 16-03-2014 07:10:00 10.7 C 7.86 g/m*3 9.81 C 8.1 km/h
2382 16-03-2014 07:15:00 10.7 C 7.86 g/m*3 9.26 C 11.3 km/h
2383 16-03-2014 07:20:00 10.7 C 7.86 g/m*3 9.81 C 8.1 km/h
2384 16-03-2014 07:25:00 10.7 C 7.86 g/m*3 9.04 C 12.9 km/h
2385 16-03-2014 07:30:00 10.7 C 7.86 g/m*3 9.52 C 9.7 km/h
2386 16-03-2014 07:35:00 10.7 C 7.86 g/m*3 9.04 C 12.9 km/h
2387 16-03-2014 07:40:00 10.7 C 7.86 g/m*3 8.65 C 16.1 km/h
2388 16-03-2014 07:45:00 10.7 C 7.86 g/m*3 9.26 C 11.3 km/h
2389 16-03-2014 07:50:00 10.7 C 7.86 g/m*3 8.84 C 14.5 km/h
2390 16-03-2014 07:55:00 10.7 C 7.86 g/m*3 9.81 C 8.1 km/h
2391 16-03-2014 08:00:00 10.7 C 7.86 g/m*3 9.52 C 9.7 km/h
2392 16-03-2014 08:05:00 10.7 C 7.86 g/m*3 9.04 C 12.9 km/h
2393 16-03-2014 08:10:00 10.6 C 7.81 g/m*3 8.53 C 16.1 km/h
2394 16-03-2014 08:15:00 10.6 C 7.81 g/m*3 9.4 C 9.7 km/h
2395 16-03-2014 08:20:00 10.6 C 7.81 g/m*3 9.4 C 9.7 km/h
2396 16-03-2014 08:25:00 10.6 C 7.81 g/m*3 9.4 C 9.7 km/h
2397 16-03-2014 08:30:00 10.6 C 7.81 g/m*3 8.71 C 14.5 km/h
2398 16-03-2014 08:35:00 10.7 C 7.86 g/m*3 8.84 C 14.5 km/h
2399 16-03-2014 08:40:00 10.7 C 7.86 g/m*3 9.04 C 12.9 km/h
2400 16-03-2014 08:45:00 10.7 C 7.86 g/m*3 9.81 C 8.1 km/h
Sensor: Nr:Datum:Temp:Abs-Feuchte:Windchill:Wind:
Aussen-T/F 2401 16-03-2014 08:50:00 10.7 C 7.86 g/m*3 8.65 C 16.1 km/h
2402 16-03-2014 08:55:00 10.8 C 7.91 g/m*3 9.93 C 8.1 km/h
2403 16-03-2014 09:00:00 10.8 C 7.91 g/m*3 9.64 C 9.7 km/h
2404 16-03-2014 09:05:00 10.8 C 7.91 g/m*3 9.16 C 12.9 km/h
2405 16-03-2014 09:10:00 10.9 C 7.96 g/m*3 9.76 C 9.7 km/h
2406 16-03-2014 09:15:00 10.9 C 7.96 g/m*3 9.51 C 11.3 km/h
2407 16-03-2014 09:20:00 11 C 7.91 g/m*3 8.86 C 17.7 km/h
2408 16-03-2014 09:25:00 11 C 7.91 g/m*3 9.21 C 14.5 km/h
2409 16-03-2014 09:30:00 11.1 C 7.96 g/m*3 11.1 C 12.9 km/h
2410 16-03-2014 09:35:00 11.1 C 7.96 g/m*3 11.1 C 16.1 km/h
2411 16-03-2014 09:40:00 11.1 C 7.96 g/m*3 11.1 C 17.7 km/h
2412 16-03-2014 09:45:00 11.1 C 7.96 g/m*3 11.1 C 11.3 km/h
2413 16-03-2014 09:50:00 11.1 C 7.96 g/m*3 11.1 C 17.7 km/h
2414 16-03-2014 09:55:00 11.1 C 7.96 g/m*3 11.1 C 16.1 km/h
2415 16-03-2014 10:00:00 11.1 C 7.96 g/m*3 11.1 C 16.1 km/h
2416 16-03-2014 10:05:00 11.1 C 7.96 g/m*3 11.1 C 22.5 km/h
2417 16-03-2014 10:10:00 11.1 C 7.96 g/m*3 11.1 C 16.1 km/h
2418 16-03-2014 10:15:00 11.2 C 8.01 g/m*3 11.2 C 11.3 km/h
2419 16-03-2014 10:20:00 11.2 C 8.01 g/m*3 11.2 C 16.1 km/h
2420 16-03-2014 10:25:00 11.3 C 7.96 g/m*3 11.3 C 16.1 km/h
2421 16-03-2014 10:30:00 11.3 C 7.96 g/m*3 11.3 C 17.7 km/h
2422 16-03-2014 10:35:00 11.4 C 8.01 g/m*3 11.4 C 16.1 km/h
2423 16-03-2014 10:40:00 11.5 C 8.06 g/m*3 11.5 C 17.7 km/h
2424 16-03-2014 10:45:00 11.7 C 8.16 g/m*3 11.7 C 14.5 km/h
2425 16-03-2014 10:50:00 11.8 C 8.1 g/m*3 11.8 C 19.3 km/h
Sensor: Nr:Datum:Temp:Abs-Feuchte:Windchill:Wind:
Aussen-T/F 2426 16-03-2014 10:55:00 11.9 C 8.15 g/m*3 11.9 C 12.9 km/h
2427 16-03-2014 11:00:00 12.1 C 8.26 g/m*3 12.1 C 14.5 km/h
2428 16-03-2014 11:05:00 12.3 C 8.25 g/m*3 12.3 C 12.9 km/h
2429 16-03-2014 11:10:00 12.5 C 8.36 g/m*3 12.5 C 12.9 km/h
2430 16-03-2014 11:15:00 12.7 C 8.46 g/m*3 12.7 C 17.7 km/h
2431 16-03-2014 11:20:00 12.8 C 8.4 g/m*3 12.8 C 11.3 km/h
2432 16-03-2014 11:25:00 12.9 C 8.34 g/m*3 12.9 C 16.1 km/h
2433 16-03-2014 11:30:00 13.1 C 8.44 g/m*3 13.1 C 19.3 km/h
2434 16-03-2014 11:35:00 13.2 C 8.5 g/m*3 13.2 C 9.7 km/h
2435 16-03-2014 11:40:00 13.3 C 8.43 g/m*3 13.3 C 16.1 km/h
2436 16-03-2014 11:45:00 13.4 C 8.49 g/m*3 13.4 C 19.3 km/h
2437 16-03-2014 11:50:00 13.5 C 8.54 g/m*3 13.5 C 14.5 km/h
2438 16-03-2014 11:55:00 13.7 C 8.64 g/m*3 13.7 C 17.7 km/h
2439 16-03-2014 12:00:00 13.9 C 8.75 g/m*3 13.9 C 12.9 km/h
2440 16-03-2014 12:05:00 14.1 C 8.74 g/m*3 14.1 C 9.7 km/h
2441 16-03-2014 12:10:00 14.2 C 8.67 g/m*3 14.2 C 12.9 km/h
2442 16-03-2014 12:15:00 14.3 C 8.72 g/m*3 14.3 C 11.3 km/h
2443 16-03-2014 12:20:00 14.5 C 8.83 g/m*3 14.5 C 12.9 km/h
2444 16-03-2014 12:25:00 14.7 C 8.81 g/m*3 14.7 C 8.1 km/h
2445 16-03-2014 12:30:00 14.9 C 8.79 g/m*3 14.9 C 11.3 km/h
2446 16-03-2014 12:35:00 15 C 8.85 g/m*3 15 C 11.3 km/h
2447 16-03-2014 12:40:00 15.1 C 8.9 g/m*3 15.1 C 9.7 km/h
2448 16-03-2014 12:45:00 15.3 C 8.88 g/m*3 15.3 C 14.5 km/h
2449 16-03-2014 12:50:00 15.4 C 8.8 g/m*3 15.4 C 12.9 km/h
2450 16-03-2014 12:55:00 15.5 C 8.99 g/m*3 15.5 C 17.7 km/h
Sensor: Nr:Datum:Temp:Abs-Feuchte:Windchill:Wind:
Aussen-T/F 2451 16-03-2014 13:00:00 15.3 C 8.88 g/m*3 15.3 C 12.9 km/h
2452 16-03-2014 13:05:00 15.1 C 8.9 g/m*3 15.1 C 9.7 km/h
2453 16-03-2014 13:10:00 15 C 8.98 g/m*3 15 C 4.8 km/h
2454 16-03-2014 13:15:00 14.9 C 9.05 g/m*3 14.9 C 6.4 km/h
2455 16-03-2014 13:20:00 14.9 C 8.92 g/m*3 14.9 C 6.4 km/h
2456 16-03-2014 13:25:00 14.9 C 9.05 g/m*3 14.9 C 3.2 km/h
2457 16-03-2014 13:30:00 14.9 C 9.05 g/m*3 14.9 C 4.8 km/h
2458 16-03-2014 13:35:00 14.9 C 9.05 g/m*3 14.9 C 8.1 km/h
2459 16-03-2014 13:40:00 14.9 C 8.92 g/m*3 14.9 C 12.9 km/h
2460 16-03-2014 13:45:00 15.1 C 8.77 g/m*3 15.1 C 16.1 km/h
2461 16-03-2014 13:50:00 15.3 C 8.75 g/m*3 15.3 C 17.7 km/h
2462 16-03-2014 13:55:00 15.3 C 8.75 g/m*3 15.3 C 16.1 km/h
2463 16-03-2014 14:00:00 15.3 C 8.75 g/m*3 15.3 C 16.1 km/h
2464 16-03-2014 14:05:00 15.3 C 8.75 g/m*3 15.3 C 11.3 km/h
2465 16-03-2014 14:10:00 15.3 C 8.75 g/m*3 15.3 C 11.3 km/h
2466 16-03-2014 14:15:00 15.1 C 8.77 g/m*3 15.1 C 11.3 km/h
2467 16-03-2014 14:20:00 14.9 C 8.67 g/m*3 14.9 C 14.5 km/h
2468 16-03-2014 14:25:00 14.9 C 8.67 g/m*3 14.9 C 11.3 km/h
2469 16-03-2014 14:30:00 14.9 C 8.67 g/m*3 14.9 C 14.5 km/h
2470 16-03-2014 14:35:00 15 C 8.85 g/m*3 15 C 14.5 km/h
2471 16-03-2014 14:40:00 15.1 C 8.9 g/m*3 15.1 C 8.1 km/h
2472 16-03-2014 14:45:00 15.1 C 8.9 g/m*3 15.1 C 16.1 km/h
2473 16-03-2014 14:50:00 15.2 C 8.96 g/m*3 15.2 C 17.7 km/h
2474 16-03-2014 14:55:00 15.4 C 8.93 g/m*3 15.4 C 16.1 km/h
2475 16-03-2014 15:00:00 15.4 C 8.8 g/m*3 15.4 C 16.1 km/h
Sensor: Nr:Datum:Temp:Abs-Feuchte:Windchill:Wind:
Aussen-T/F 2476 16-03-2014 15:05:00 15.4 C 8.93 g/m*3 15.4 C 16.1 km/h
2477 16-03-2014 15:10:00 15.4 C 8.8 g/m*3 15.4 C 20.9 km/h
2478 16-03-2014 15:15:00 15.3 C 8.75 g/m*3 15.3 C 14.5 km/h
2479 16-03-2014 15:20:00 15.4 C 8.8 g/m*3 15.4 C 14.5 km/h
2480 16-03-2014 15:25:00 15.2 C 8.7 g/m*3 15.2 C 17.7 km/h
2481 16-03-2014 15:30:00 15.3 C 8.75 g/m*3 15.3 C 16.1 km/h
2482 16-03-2014 15:35:00 15.5 C 8.86 g/m*3 15.5 C 17.7 km/h
2483 16-03-2014 15:40:00 15.8 C 8.88 g/m*3 15.8 C 14.5 km/h
2484 16-03-2014 15:45:00 15.9 C 8.8 g/m*3 15.9 C 19.3 km/h
2485 16-03-2014 15:50:00 15.7 C 8.83 g/m*3 15.7 C 17.7 km/h
2486 16-03-2014 15:55:00 15.7 C 8.7 g/m*3 15.7 C 19.3 km/h
2487 16-03-2014 16:00:00 15.5 C 8.72 g/m*3 15.5 C 16.1 km/h
2488 16-03-2014 16:05:00 15.2 C 8.57 g/m*3 15.2 C 27.4 km/h
2489 16-03-2014 16:10:00 14.9 C 8.54 g/m*3 14.9 C 17.7 km/h
2490 16-03-2014 16:15:00 14.7 C 8.56 g/m*3 14.7 C 11.3 km/h
2491 16-03-2014 16:20:00 14.6 C 8.51 g/m*3 14.6 C 17.7 km/h
2492 16-03-2014 16:25:00 14.4 C 8.53 g/m*3 14.4 C 20.9 km/h
2493 16-03-2014 16:30:00 14.4 C 8.53 g/m*3 14.4 C 11.3 km/h
2494 16-03-2014 16:35:00 14.4 C 8.53 g/m*3 14.4 C 11.3 km/h
2495 16-03-2014 16:40:00 14.4 C 8.53 g/m*3 14.4 C 17.7 km/h
2496 16-03-2014 16:45:00 14.5 C 8.71 g/m*3 14.5 C 9.7 km/h
2497 16-03-2014 16:50:00 14.6 C 8.63 g/m*3 14.6 C 19.3 km/h
2498 16-03-2014 16:55:00 14.7 C 8.69 g/m*3 14.7 C 16.1 km/h
2499 16-03-2014 17:00:00 14.7 C 8.81 g/m*3 14.7 C 14.5 km/h
2500 16-03-2014 17:05:00 14.8 C 8.74 g/m*3 14.8 C 14.5 km/h
Sensor: Nr:Datum:Temp:Abs-Feuchte:Windchill:Wind:
Aussen-T/F 2501 16-03-2014 17:10:00 14.7 C 8.69 g/m*3 14.7 C 14.5 km/h
2502 16-03-2014 17:15:00 14.6 C 8.63 g/m*3 14.6 C 17.7 km/h
2503 16-03-2014 17:20:00 14.6 C 8.63 g/m*3 14.6 C 11.3 km/h
2504 16-03-2014 17:25:00 14.6 C 8.63 g/m*3 14.6 C 11.3 km/h
2505 16-03-2014 17:30:00 14.7 C 8.69 g/m*3 14.7 C 12.9 km/h
2506 16-03-2014 17:35:00 14.8 C 8.74 g/m*3 14.8 C 9.7 km/h
2507 16-03-2014 17:40:00 14.8 C 8.74 g/m*3 14.8 C 11.3 km/h
2508 16-03-2014 17:45:00 14.8 C 8.74 g/m*3 14.8 C 11.3 km/h
2509 16-03-2014 17:50:00 14.8 C 8.74 g/m*3 14.8 C 9.7 km/h
2510 16-03-2014 17:55:00 14.8 C 8.61 g/m*3 14.8 C 8.1 km/h
2511 16-03-2014 18:00:00 14.8 C 8.74 g/m*3 14.8 C 6.4 km/h
2512 16-03-2014 18:05:00 14.7 C 8.69 g/m*3 14.7 C 4.8 km/h
2513 16-03-2014 18:10:00 14.6 C 8.51 g/m*3 14.6 C 4.8 km/h
2514 16-03-2014 18:15:00 14.5 C 8.46 g/m*3 14.5 C 4.8 km/h
2515 16-03-2014 18:20:00 14.1 C 8.5 g/m*3 14.1 C 4.8 km/h
2516 16-03-2014 18:25:00 13.6 C 8.36 g/m*3 13.6 C 3.2 km/h
2517 16-03-2014 18:30:00 12.9 C 8.34 g/m*3 12.9 C 3.2 km/h
2518 16-03-2014 18:35:00 12.4 C 8.3 g/m*3 12.4 C 3.2 km/h
2519 16-03-2014 18:40:00 11.9 C 8.15 g/m*3 11.9 C 4.8 km/h
2520 16-03-2014 18:45:00 11.6 C 8.11 g/m*3 11.6 C 4.8 km/h
2521 16-03-2014 18:50:00 11.3 C 8.06 g/m*3 11.3 C 4.8 km/h
2522 16-03-2014 18:55:00 11.1 C 8.06 g/m*3 11.1 C 3.2 km/h
2523 16-03-2014 19:00:00 10.8 C 8.01 g/m*3 10.8 C 3.2 km/h
2524 16-03-2014 19:05:00 10.7 C 7.96 g/m*3 10.7 C 3.2 km/h
2525 16-03-2014 19:10:00 10.7 C 7.96 g/m*3 10.7 C 4.8 km/h
Sensor: Nr:Datum:Temp:Abs-Feuchte:Windchill:Wind:
Aussen-T/F 2526 16-03-2014 19:15:00 10.6 C 8 g/m*3 10.6 C 4.8 km/h
2527 16-03-2014 19:20:00 10.3 C 7.85 g/m*3 10.3 C 3.2 km/h
2528 16-03-2014 19:25:00 10.2 C 7.9 g/m*3 10.2 C 4.8 km/h
2529 16-03-2014 19:30:00 10.2 C 7.9 g/m*3 10.2 C 3.2 km/h
2530 16-03-2014 19:35:00 10.1 C 7.94 g/m*3 10.1 C 3.2 km/h
2531 16-03-2014 19:40:00 10 C 7.89 g/m*3 10 C 3.2 km/h
2532 16-03-2014 19:45:00 9.9 C 7.84 g/m*3 9.9 C 4.8 km/h
2533 16-03-2014 19:50:00 9.8 C 7.89 g/m*3 9.8 C 4.8 km/h
2534 16-03-2014 19:55:00 9.7 C 7.84 g/m*3 9.7 C 3.2 km/h
2535 16-03-2014 20:00:00 9.7 C 7.84 g/m*3 9.7 C 4.8 km/h
2536 16-03-2014 20:05:00 9.7 C 7.84 g/m*3 9.7 C 4.8 km/h
2537 16-03-2014 20:10:00 9.6 C 7.88 g/m*3 9.6 C 3.2 km/h
2538 16-03-2014 20:15:00 9.6 C 7.88 g/m*3 9.6 C 4.8 km/h
2539 16-03-2014 20:20:00 9.6 C 7.88 g/m*3 9.6 C 1.6 km/h
2540 16-03-2014 20:25:00 9.7 C 7.93 g/m*3 9.7 C 4.8 km/h
2541 16-03-2014 20:30:00 9.8 C 7.89 g/m*3 9.8 C 4.8 km/h
2542 16-03-2014 20:35:00 9.7 C 7.84 g/m*3 9.7 C 3.2 km/h
2543 16-03-2014 20:40:00 9.5 C 7.74 g/m*3 9.5 C 4.8 km/h
2544 16-03-2014 20:45:00 9.3 C 7.73 g/m*3 9.3 C 3.2 km/h
2545 16-03-2014 20:50:00 9.2 C 7.77 g/m*3 9.2 C 3.2 km/h
2546 16-03-2014 20:55:00 9.2 C 7.77 g/m*3 9.2 C 1.6 km/h
2547 16-03-2014 21:00:00 9.3 C 7.82 g/m*3 9.3 C 3.2 km/h
2548 16-03-2014 21:05:00 9.4 C 7.78 g/m*3 9.4 C 1.6 km/h
2549 16-03-2014 21:10:00 9.5 C 7.83 g/m*3 9.5 C 3.2 km/h
2550 16-03-2014 21:15:00 9.5 C 7.83 g/m*3 9.5 C 4.8 km/h
Sensor: Nr:Datum:Temp:Abs-Feuchte:Windchill:Wind:
Aussen-T/F 2551 16-03-2014 21:20:00 9.5 C 7.74 g/m*3 9.5 C 3.2 km/h
2552 16-03-2014 21:25:00 9.6 C 7.79 g/m*3 9.6 C 3.2 km/h
2553 16-03-2014 21:30:00 9.5 C 7.74 g/m*3 9.5 C 1.6 km/h
2554 16-03-2014 21:35:00 9.5 C 7.74 g/m*3 9.5 C 3.2 km/h
2555 16-03-2014 21:40:00 9.4 C 7.78 g/m*3 9.4 C 4.8 km/h
2556 16-03-2014 21:45:00 9.3 C 7.73 g/m*3 9.3 C 3.2 km/h
2557 16-03-2014 21:50:00 9.2 C 7.68 g/m*3 9.2 C 3.2 km/h
2558 16-03-2014 21:55:00 9.2 C 7.68 g/m*3 9.2 C 3.2 km/h
2559 16-03-2014 22:00:00 9.2 C 7.77 g/m*3 9.2 C 3.2 km/h
2560 16-03-2014 22:05:00 9.1 C 7.63 g/m*3 9.1 C 1.6 km/h
2561 16-03-2014 22:10:00 9 C 7.58 g/m*3 9 C 1.6 km/h
2562 16-03-2014 22:15:00 9.1 C 7.72 g/m*3 7.33 C 11.3 km/h
2563 16-03-2014 22:20:00 9.6 C 7.88 g/m*3 8.91 C 6.4 km/h
2564 16-03-2014 22:25:00 10.1 C 7.94 g/m*3 9.48 C 6.4 km/h
2565 16-03-2014 22:30:00 10.3 C 7.95 g/m*3 10.3 C 4.8 km/h
2566 16-03-2014 22:35:00 10.4 C 7.81 g/m*3 9.46 C 8.1 km/h
2567 16-03-2014 22:40:00 10.1 C 7.75 g/m*3 10.1 C 4.8 km/h
2568 16-03-2014 22:45:00 9.6 C 7.6 g/m*3 8.91 C 6.4 km/h
2569 16-03-2014 22:50:00 9.3 C 7.55 g/m*3 9.3 C 0 km/h
2570 16-03-2014 22:55:00 8.9 C 7.45 g/m*3 8.9 C 1.6 km/h
2571 16-03-2014 23:00:00 8.6 C 7.3 g/m*3 8.6 C 0 km/h
2572 16-03-2014 23:05:00 8.3 C 7.33 g/m*3 8.3 C 1.6 km/h
2573 16-03-2014 23:10:00 8.2 C 7.37 g/m*3 8.2 C 3.2 km/h
2574 16-03-2014 23:15:00 8.1 C 7.32 g/m*3 8.1 C 0 km/h
2575 16-03-2014 23:20:00 7.9 C 7.31 g/m*3 7.9 C 0 km/h
Sensor: Nr:Datum:Temp:Abs-Feuchte:Windchill:Wind:
Aussen-T/F 2576 16-03-2014 23:25:00 7.8 C 7.26 g/m*3 7.8 C 3.2 km/h
2577 16-03-2014 23:30:00 7.7 C 7.22 g/m*3 7.7 C 1.6 km/h
2578 16-03-2014 23:35:00 7.6 C 7.17 g/m*3 7.6 C 0 km/h
2579 16-03-2014 23:40:00 7.4 C 7.08 g/m*3 7.4 C 1.6 km/h
2580 16-03-2014 23:45:00 7.3 C 7.11 g/m*3 7.3 C 4.8 km/h
2581 16-03-2014 23:50:00 7.3 C 7.19 g/m*3 7.3 C 3.2 km/h
2582 16-03-2014 23:55:00 7.3 C 7.19 g/m*3 7.3 C 1.6 km/h
2583 17-03-2014 00:00:00 7.3 C 7.19 g/m*3 7.3 C 0 km/h
2584 17-03-2014 00:05:00 7.3 C 7.11 g/m*3 7.3 C 3.2 km/h
2585 17-03-2014 00:10:00 7.3 C 7.11 g/m*3 7.3 C 1.6 km/h
2586 17-03-2014 00:15:00 7.2 C 7.06 g/m*3 7.2 C 0 km/h
2587 17-03-2014 00:20:00 7.1 C 7.02 g/m*3 7.1 C 0 km/h
2588 17-03-2014 00:25:00 6.9 C 6.93 g/m*3 6.9 C 1.6 km/h
2589 17-03-2014 00:30:00 6.9 C 7.01 g/m*3 6.9 C 0 km/h
2590 17-03-2014 00:35:00 6.9 C 7.08 g/m*3 6.9 C 0 km/h
2591 17-03-2014 00:40:00 7 C 7.13 g/m*3 7 C 1.6 km/h
2592 17-03-2014 00:45:00 7 C 7.05 g/m*3 7 C 1.6 km/h
2593 17-03-2014 00:50:00 7.1 C 7.18 g/m*3 7.1 C 1.6 km/h
2594 17-03-2014 00:55:00 7.1 C 7.18 g/m*3 7.1 C 0 km/h
2595 17-03-2014 01:00:00 7.1 C 7.1 g/m*3 7.1 C 3.2 km/h
2596 17-03-2014 01:05:00 7.1 C 7.1 g/m*3 7.1 C 0 km/h
2597 17-03-2014 01:10:00 7.1 C 7.1 g/m*3 7.1 C 3.2 km/h
2598 17-03-2014 01:15:00 7.1 C 7.1 g/m*3 6.02 C 6.4 km/h
2599 17-03-2014 01:20:00 7.1 C 7.18 g/m*3 5.23 C 9.7 km/h
2600 17-03-2014 01:25:00 7.2 C 7.22 g/m*3 6.13 C 6.4 km/h
Sensor: Nr:Datum:Temp:Abs-Feuchte:Windchill:Wind:
Aussen-T/F 2601 17-03-2014 01:30:00 7.1 C 7.1 g/m*3 7.1 C 3.2 km/h
2602 17-03-2014 01:35:00 7.1 C 7.1 g/m*3 6.02 C 6.4 km/h
2603 17-03-2014 01:40:00 7.2 C 7.22 g/m*3 7.2 C 4.8 km/h
2604 17-03-2014 01:45:00 7.2 C 7.14 g/m*3 7.2 C 4.8 km/h
2605 17-03-2014 01:50:00 7.1 C 7.1 g/m*3 5.58 C 8.1 km/h
2606 17-03-2014 01:55:00 7.2 C 7.14 g/m*3 6.13 C 6.4 km/h
2607 17-03-2014 02:00:00 7.1 C 7.1 g/m*3 4.92 C 11.3 km/h
2608 17-03-2014 02:05:00 7.1 C 7.1 g/m*3 6.02 C 6.4 km/h
2609 17-03-2014 02:10:00 7.1 C 7.1 g/m*3 6.02 C 6.4 km/h
2610 17-03-2014 02:15:00 7.1 C 7.1 g/m*3 5.58 C 8.1 km/h
2611 17-03-2014 02:20:00 7 C 7.05 g/m*3 7 C 4.8 km/h
2612 17-03-2014 02:25:00 7 C 7.13 g/m*3 5.46 C 8.1 km/h
2613 17-03-2014 02:30:00 6.9 C 7.08 g/m*3 5.34 C 8.1 km/h
2614 17-03-2014 02:35:00 6.9 C 7.08 g/m*3 4.99 C 9.7 km/h
2615 17-03-2014 02:40:00 7.1 C 7.18 g/m*3 6.02 C 6.4 km/h
2616 17-03-2014 02:45:00 7.2 C 7.22 g/m*3 5.69 C 8.1 km/h
2617 17-03-2014 02:50:00 7.2 C 7.22 g/m*3 5.69 C 8.1 km/h
2618 17-03-2014 02:55:00 7.3 C 7.27 g/m*3 5.81 C 8.1 km/h
2619 17-03-2014 03:00:00 7.3 C 7.19 g/m*3 5.81 C 8.1 km/h
2620 17-03-2014 03:05:00 7.3 C 7.27 g/m*3 5.81 C 8.1 km/h
2621 17-03-2014 03:10:00 7.3 C 7.27 g/m*3 6.25 C 6.4 km/h
2622 17-03-2014 03:15:00 7.4 C 7.24 g/m*3 7.4 C 4.8 km/h
2623 17-03-2014 03:20:00 7.4 C 7.24 g/m*3 5.58 C 9.7 km/h
2624 17-03-2014 03:25:00 7.4 C 7.24 g/m*3 5.58 C 9.7 km/h
2625 17-03-2014 03:30:00 7.5 C 7.28 g/m*3 6.05 C 8.1 km/h
Sensor: Nr:Datum:Temp:Abs-Feuchte:Windchill:Wind:
Aussen-T/F 2626 17-03-2014 03:35:00 7.6 C 7.33 g/m*3 6.16 C 8.1 km/h
2627 17-03-2014 03:40:00 7.7 C 7.38 g/m*3 6.28 C 8.1 km/h
2628 17-03-2014 03:45:00 7.6 C 7.25 g/m*3 6.6 C 6.4 km/h
2629 17-03-2014 03:50:00 7.6 C 7.33 g/m*3 5.82 C 9.7 km/h
2630 17-03-2014 03:55:00 7.6 C 7.33 g/m*3 5.82 C 9.7 km/h
2631 17-03-2014 04:00:00 7.5 C 7.2 g/m*3 7.5 C 3.2 km/h
2632 17-03-2014 04:05:00 7.4 C 7.24 g/m*3 5.93 C 8.1 km/h
2633 17-03-2014 04:10:00 7.5 C 7.28 g/m*3 6.05 C 8.1 km/h
2634 17-03-2014 04:15:00 7.5 C 7.28 g/m*3 7.5 C 4.8 km/h
2635 17-03-2014 04:20:00 7.6 C 7.33 g/m*3 6.16 C 8.1 km/h
2636 17-03-2014 04:25:00 7.8 C 7.43 g/m*3 6.83 C 6.4 km/h
2637 17-03-2014 04:30:00 8.2 C 7.62 g/m*3 6.25 C 11.3 km/h
2638 17-03-2014 04:35:00 8.3 C 7.5 g/m*3 7.41 C 6.4 km/h
2639 17-03-2014 04:40:00 8.4 C 7.55 g/m*3 6.78 C 9.7 km/h
2640 17-03-2014 04:45:00 8.4 C 7.47 g/m*3 7.11 C 8.1 km/h
2641 17-03-2014 04:50:00 8.2 C 7.37 g/m*3 8.2 C 4.8 km/h
2642 17-03-2014 04:55:00 8.1 C 7.41 g/m*3 6.13 C 11.3 km/h
2643 17-03-2014 05:00:00 8.2 C 7.45 g/m*3 6.87 C 8.1 km/h
2644 17-03-2014 05:05:00 8.2 C 7.45 g/m*3 6.25 C 11.3 km/h
2645 17-03-2014 05:10:00 8.2 C 7.45 g/m*3 6.25 C 11.3 km/h
2646 17-03-2014 05:15:00 8.2 C 7.45 g/m*3 6.87 C 8.1 km/h
2647 17-03-2014 05:20:00 8.2 C 7.45 g/m*3 7.29 C 6.4 km/h
2648 17-03-2014 05:25:00 8.2 C 7.45 g/m*3 6.87 C 8.1 km/h
2649 17-03-2014 05:30:00 8.2 C 7.45 g/m*3 6.87 C 8.1 km/h
2650 17-03-2014 05:35:00 8.2 C 7.45 g/m*3 7.29 C 6.4 km/h
Sensor: Nr:Datum:Temp:Abs-Feuchte:Windchill:Wind:
Aussen-T/F 2651 17-03-2014 05:40:00 8.3 C 7.5 g/m*3 6.99 C 8.1 km/h
2652 17-03-2014 05:45:00 8.3 C 7.5 g/m*3 6.99 C 8.1 km/h
2653 17-03-2014 05:50:00 8.3 C 7.5 g/m*3 6.99 C 8.1 km/h
2654 17-03-2014 05:55:00 8.3 C 7.5 g/m*3 6.37 C 11.3 km/h
2655 17-03-2014 06:00:00 8.3 C 7.5 g/m*3 5.89 C 14.5 km/h
2656 17-03-2014 06:05:00 8.3 C 7.5 g/m*3 6.37 C 11.3 km/h
2657 17-03-2014 06:10:00 8.3 C 7.5 g/m*3 6.66 C 9.7 km/h
2658 17-03-2014 06:15:00 8.3 C 7.5 g/m*3 6.37 C 11.3 km/h
2659 17-03-2014 06:20:00 8.3 C 7.5 g/m*3 8.3 C 4.8 km/h
2660 17-03-2014 06:25:00 8.2 C 7.45 g/m*3 7.29 C 6.4 km/h
2661 17-03-2014 06:30:00 8.3 C 7.5 g/m*3 6.99 C 8.1 km/h
2662 17-03-2014 06:35:00 8.3 C 7.5 g/m*3 8.3 C 4.8 km/h
2663 17-03-2014 06:40:00 8.3 C 7.5 g/m*3 7.41 C 6.4 km/h
2664 17-03-2014 06:45:00 8.3 C 7.5 g/m*3 7.41 C 6.4 km/h
2665 17-03-2014 06:50:00 8.4 C 7.55 g/m*3 6.78 C 9.7 km/h
2666 17-03-2014 06:55:00 8.5 C 7.6 g/m*3 6.9 C 9.7 km/h
2667 17-03-2014 07:00:00 8.6 C 7.56 g/m*3 7.34 C 8.1 km/h
2668 17-03-2014 07:05:00 8.6 C 7.56 g/m*3 6.73 C 11.3 km/h
2669 17-03-2014 07:10:00 8.6 C 7.56 g/m*3 7.34 C 8.1 km/h
2670 17-03-2014 07:15:00 8.6 C 7.56 g/m*3 7.75 C 6.4 km/h
2671 17-03-2014 07:20:00 8.7 C 7.61 g/m*3 7.46 C 8.1 km/h
2672 17-03-2014 07:25:00 8.8 C 7.66 g/m*3 7.58 C 8.1 km/h
2673 17-03-2014 07:30:00 8.8 C 7.66 g/m*3 7.58 C 8.1 km/h
2674 17-03-2014 07:35:00 8.8 C 7.66 g/m*3 7.58 C 8.1 km/h
2675 17-03-2014 07:40:00 8.8 C 7.66 g/m*3 6.5 C 14.5 km/h
Sensor: Nr:Datum:Temp:Abs-Feuchte:Windchill:Wind:
Aussen-T/F 2676 17-03-2014 07:45:00 8.8 C 7.66 g/m*3 7.58 C 8.1 km/h
2677 17-03-2014 07:50:00 8.8 C 7.66 g/m*3 8.8 C 4.8 km/h
2678 17-03-2014 07:55:00 8.9 C 7.71 g/m*3 8.1 C 6.4 km/h
2679 17-03-2014 08:00:00 8.9 C 7.71 g/m*3 7.69 C 8.1 km/h
2680 17-03-2014 08:05:00 9 C 7.76 g/m*3 7.81 C 8.1 km/h
2681 17-03-2014 08:10:00 9.1 C 7.72 g/m*3 7.33 C 11.3 km/h
2682 17-03-2014 08:15:00 9.2 C 7.77 g/m*3 8.05 C 8.1 km/h
2683 17-03-2014 08:20:00 9.2 C 7.77 g/m*3 8.05 C 8.1 km/h
2684 17-03-2014 08:25:00 9.2 C 7.77 g/m*3 8.05 C 8.1 km/h
2685 17-03-2014 08:30:00 9.3 C 7.82 g/m*3 7.85 C 9.7 km/h
2686 17-03-2014 08:35:00 9.3 C 7.82 g/m*3 8.56 C 6.4 km/h
2687 17-03-2014 08:40:00 9.3 C 7.82 g/m*3 8.16 C 8.1 km/h
2688 17-03-2014 08:45:00 9.3 C 7.82 g/m*3 9.3 C 4.8 km/h
2689 17-03-2014 08:50:00 9.4 C 7.78 g/m*3 7.97 C 9.7 km/h
2690 17-03-2014 08:55:00 9.5 C 7.83 g/m*3 7.82 C 11.3 km/h
2691 17-03-2014 09:00:00 9.5 C 7.83 g/m*3 8.09 C 9.7 km/h
2692 17-03-2014 09:05:00 9.6 C 7.88 g/m*3 8.21 C 9.7 km/h
2693 17-03-2014 09:10:00 9.7 C 7.93 g/m*3 8.33 C 9.7 km/h
2694 17-03-2014 09:15:00 9.7 C 7.93 g/m*3 8.63 C 8.1 km/h
2695 17-03-2014 09:20:00 9.8 C 7.89 g/m*3 9.14 C 6.4 km/h
2696 17-03-2014 09:25:00 9.9 C 7.94 g/m*3 8.87 C 8.1 km/h
2697 17-03-2014 09:30:00 10 C 7.99 g/m*3 10 C 4.8 km/h
2698 17-03-2014 09:35:00 10.1 C 8.04 g/m*3 9.1 C 8.1 km/h
2699 17-03-2014 09:40:00 10.3 C 8.04 g/m*3 9.04 C 9.7 km/h
2700 17-03-2014 09:45:00 10.3 C 8.04 g/m*3 9.72 C 6.4 km/h
Sensor: Nr:Datum:Temp:Abs-Feuchte:Windchill:Wind:
Aussen-T/F 2701 17-03-2014 09:50:00 10.5 C 8.15 g/m*3 9.28 C 9.7 km/h
2702 17-03-2014 09:55:00 10.6 C 8.1 g/m*3 10.06 C 6.4 km/h
2703 17-03-2014 10:00:00 10.7 C 8.05 g/m*3 9.52 C 9.7 km/h
2704 17-03-2014 10:05:00 10.8 C 8.11 g/m*3 9.93 C 8.1 km/h
2705 17-03-2014 10:10:00 10.9 C 8.16 g/m*3 10.41 C 6.4 km/h
2706 17-03-2014 10:15:00 11 C 8.21 g/m*3 9.88 C 9.7 km/h
2707 17-03-2014 10:20:00 11.1 C 8.26 g/m*3 11.1 C 9.7 km/h
2708 17-03-2014 10:25:00 11.1 C 8.16 g/m*3 11.1 C 8.1 km/h
2709 17-03-2014 10:30:00 11.2 C 8.21 g/m*3 11.2 C 8.1 km/h
2710 17-03-2014 10:35:00 11.2 C 8.21 g/m*3 11.2 C 8.1 km/h
2711 17-03-2014 10:40:00 11.3 C 8.16 g/m*3 11.3 C 9.7 km/h
2712 17-03-2014 10:45:00 11.4 C 8.21 g/m*3 11.4 C 12.9 km/h
2713 17-03-2014 10:50:00 11.4 C 8.21 g/m*3 11.4 C 9.7 km/h
2714 17-03-2014 10:55:00 11.4 C 8.11 g/m*3 11.4 C 11.3 km/h
2715 17-03-2014 11:00:00 11.5 C 8.26 g/m*3 11.5 C 8.1 km/h
2716 17-03-2014 11:05:00 11.6 C 8.21 g/m*3 11.6 C 12.9 km/h
2717 17-03-2014 11:10:00 11.6 C 8.21 g/m*3 11.6 C 11.3 km/h
2718 17-03-2014 11:15:00 11.6 C 8.21 g/m*3 11.6 C 9.7 km/h
2719 17-03-2014 11:20:00 11.7 C 8.26 g/m*3 11.7 C 11.3 km/h
2720 17-03-2014 11:25:00 11.8 C 8.21 g/m*3 11.8 C 11.3 km/h
2721 17-03-2014 11:30:00 11.9 C 8.26 g/m*3 11.9 C 12.9 km/h
2722 17-03-2014 11:35:00 12.1 C 8.26 g/m*3 12.1 C 14.5 km/h
2723 17-03-2014 11:40:00 12.1 C 8.26 g/m*3 12.1 C 11.3 km/h
2724 17-03-2014 11:45:00 12.2 C 8.31 g/m*3 12.2 C 14.5 km/h
2725 17-03-2014 11:50:00 12.3 C 8.36 g/m*3 12.3 C 11.3 km/h
Sensor: Nr:Datum:Temp:Abs-Feuchte:Windchill:Wind:
Aussen-T/F 2726 17-03-2014 11:55:00 12.4 C 8.3 g/m*3 12.4 C 9.7 km/h
2727 17-03-2014 12:00:00 12.5 C 8.36 g/m*3 12.5 C 12.9 km/h
2728 17-03-2014 12:05:00 12.6 C 8.41 g/m*3 12.6 C 11.3 km/h
2729 17-03-2014 12:10:00 12.6 C 8.41 g/m*3 12.6 C 11.3 km/h
2730 17-03-2014 12:15:00 12.7 C 8.46 g/m*3 12.7 C 8.1 km/h
2731 17-03-2014 12:20:00 12.7 C 8.35 g/m*3 12.7 C 9.7 km/h
2732 17-03-2014 12:25:00 12.7 C 8.35 g/m*3 12.7 C 8.1 km/h
2733 17-03-2014 12:30:00 12.7 C 8.35 g/m*3 12.7 C 8.1 km/h
2734 17-03-2014 12:35:00 12.7 C 8.35 g/m*3 12.7 C 6.4 km/h
2735 17-03-2014 12:40:00 12.7 C 8.35 g/m*3 12.7 C 9.7 km/h
2736 17-03-2014 12:45:00 12.7 C 8.35 g/m*3 12.7 C 8.1 km/h
2737 17-03-2014 12:50:00 12.7 C 8.35 g/m*3 12.7 C 3.2 km/h
2738 17-03-2014 12:55:00 12.7 C 8.35 g/m*3 12.7 C 8.1 km/h
2739 17-03-2014 13:00:00 12.7 C 8.35 g/m*3 12.7 C 6.4 km/h
2740 17-03-2014 13:05:00 12.8 C 8.4 g/m*3 12.8 C 4.8 km/h
2741 17-03-2014 13:10:00 12.8 C 8.4 g/m*3 12.8 C 6.4 km/h
2742 17-03-2014 13:15:00 12.8 C 8.4 g/m*3 12.8 C 9.7 km/h
2743 17-03-2014 13:20:00 12.8 C 8.51 g/m*3 12.8 C 4.8 km/h
2744 17-03-2014 13:25:00 12.9 C 8.57 g/m*3 12.9 C 8.1 km/h
2745 17-03-2014 13:30:00 13.1 C 8.56 g/m*3 13.1 C 9.7 km/h
2746 17-03-2014 13:35:00 13.2 C 8.73 g/m*3 13.2 C 9.7 km/h
2747 17-03-2014 13:40:00 13.3 C 8.66 g/m*3 13.3 C 8.1 km/h
2748 17-03-2014 13:45:00 13.3 C 8.55 g/m*3 13.3 C 8.1 km/h
2749 17-03-2014 13:50:00 13.4 C 8.6 g/m*3 13.4 C 4.8 km/h
2750 17-03-2014 13:55:00 13.5 C 8.66 g/m*3 13.5 C 6.4 km/h
Sensor: Nr:Datum:Temp:Abs-Feuchte:Windchill:Wind:
Aussen-T/F 2751 17-03-2014 14:00:00 13.6 C 8.59 g/m*3 13.6 C 11.3 km/h
2752 17-03-2014 14:05:00 13.7 C 8.53 g/m*3 13.7 C 8.1 km/h
2753 17-03-2014 14:10:00 13.8 C 8.7 g/m*3 13.8 C 9.7 km/h
2754 17-03-2014 14:15:00 13.8 C 8.46 g/m*3 13.8 C 9.7 km/h
2755 17-03-2014 14:20:00 13.8 C 8.34 g/m*3 13.8 C 11.3 km/h
2756 17-03-2014 14:25:00 13.8 C 8.46 g/m*3 13.8 C 8.1 km/h
2757 17-03-2014 14:30:00 13.8 C 8.46 g/m*3 13.8 C 8.1 km/h
2758 17-03-2014 14:35:00 13.8 C 8.46 g/m*3 13.8 C 11.3 km/h
2759 17-03-2014 14:40:00 13.9 C 8.51 g/m*3 13.9 C 6.4 km/h
2760 17-03-2014 14:45:00 14.1 C 8.37 g/m*3 14.1 C 14.5 km/h
2761 17-03-2014 14:50:00 13.9 C 8.27 g/m*3 13.9 C 6.4 km/h
2762 17-03-2014 14:55:00 14.1 C 8.37 g/m*3 14.1 C 11.3 km/h
2763 17-03-2014 15:00:00 14.1 C 8.37 g/m*3 14.1 C 11.3 km/h
2764 17-03-2014 15:05:00 14.2 C 8.43 g/m*3 14.2 C 12.9 km/h
2765 17-03-2014 15:10:00 14.1 C 8.25 g/m*3 14.1 C 17.7 km/h
2766 17-03-2014 15:15:00 13.9 C 8.27 g/m*3 13.9 C 14.5 km/h
2767 17-03-2014 15:20:00 13.8 C 8.22 g/m*3 13.8 C 14.5 km/h
2768 17-03-2014 15:25:00 13.8 C 8.1 g/m*3 13.8 C 8.1 km/h
2769 17-03-2014 15:30:00 13.6 C 8.12 g/m*3 13.6 C 9.7 km/h
2770 17-03-2014 15:35:00 13.6 C 8.24 g/m*3 13.6 C 9.7 km/h
2771 17-03-2014 15:40:00 13.5 C 8.07 g/m*3 13.5 C 8.1 km/h
2772 17-03-2014 15:45:00 13.4 C 8.02 g/m*3 13.4 C 16.1 km/h
2773 17-03-2014 15:50:00 13.4 C 8.02 g/m*3 13.4 C 8.1 km/h
2774 17-03-2014 15:55:00 13.3 C 8.09 g/m*3 13.3 C 9.7 km/h
2775 17-03-2014 16:00:00 13.3 C 8.09 g/m*3 13.3 C 16.1 km/h
Sensor: Nr:Datum:Temp:Abs-Feuchte:Windchill:Wind:
Aussen-T/F 2776 17-03-2014 16:05:00 13.2 C 7.92 g/m*3 13.2 C 8.1 km/h
2777 17-03-2014 16:10:00 13.2 C 7.92 g/m*3 13.2 C 4.8 km/h
2778 17-03-2014 16:15:00 13.1 C 7.87 g/m*3 13.1 C 4.8 km/h
2779 17-03-2014 16:20:00 13.1 C 7.87 g/m*3 13.1 C 4.8 km/h
2780 17-03-2014 16:25:00 13.1 C 7.87 g/m*3 13.1 C 6.4 km/h
2781 17-03-2014 16:30:00 13.1 C 7.99 g/m*3 13.1 C 8.1 km/h
2782 17-03-2014 16:35:00 13.1 C 7.87 g/m*3 13.1 C 6.4 km/h
2783 17-03-2014 16:40:00 13.1 C 7.99 g/m*3 13.1 C 11.3 km/h
2784 17-03-2014 16:45:00 13.1 C 7.87 g/m*3 13.1 C 8.1 km/h
2785 17-03-2014 16:50:00 13.1 C 7.87 g/m*3 13.1 C 9.7 km/h
2786 17-03-2014 16:55:00 13.1 C 7.87 g/m*3 13.1 C 8.1 km/h
2787 17-03-2014 17:00:00 13.1 C 7.87 g/m*3 13.1 C 8.1 km/h
2788 17-03-2014 17:05:00 13 C 7.83 g/m*3 13 C 6.4 km/h
2789 17-03-2014 17:10:00 13 C 7.83 g/m*3 13 C 6.4 km/h
2790 17-03-2014 17:15:00 12.9 C 7.89 g/m*3 12.9 C 6.4 km/h
2791 17-03-2014 17:20:00 12.9 C 7.78 g/m*3 12.9 C 8.1 km/h
2792 17-03-2014 17:25:00 12.9 C 7.89 g/m*3 12.9 C 6.4 km/h
2793 17-03-2014 17:30:00 12.8 C 7.73 g/m*3 12.8 C 6.4 km/h
2794 17-03-2014 17:35:00 12.8 C 7.84 g/m*3 12.8 C 6.4 km/h
2795 17-03-2014 17:40:00 12.8 C 7.84 g/m*3 12.8 C 4.8 km/h
2796 17-03-2014 17:45:00 12.8 C 7.84 g/m*3 12.8 C 4.8 km/h
2797 17-03-2014 17:50:00 12.8 C 7.84 g/m*3 12.8 C 6.4 km/h
2798 17-03-2014 17:55:00 12.7 C 7.79 g/m*3 12.7 C 4.8 km/h
2799 17-03-2014 18:00:00 12.7 C 7.79 g/m*3 12.7 C 8.1 km/h
2800 17-03-2014 18:05:00 12.6 C 7.85 g/m*3 12.6 C 4.8 km/h
Sensor: Nr:Datum:Temp:Abs-Feuchte:Windchill:Wind:
Aussen-T/F 2801 17-03-2014 18:10:00 12.5 C 7.81 g/m*3 12.5 C 6.4 km/h
2802 17-03-2014 18:15:00 12.4 C 7.76 g/m*3 12.4 C 9.7 km/h
2803 17-03-2014 18:20:00 12.3 C 7.71 g/m*3 12.3 C 9.7 km/h
2804 17-03-2014 18:25:00 12.3 C 7.82 g/m*3 12.3 C 3.2 km/h
2805 17-03-2014 18:30:00 12.3 C 7.82 g/m*3 12.3 C 3.2 km/h
2806 17-03-2014 18:35:00 12.2 C 7.77 g/m*3 12.2 C 6.4 km/h
2807 17-03-2014 18:40:00 12.1 C 7.72 g/m*3 12.1 C 4.8 km/h
2808 17-03-2014 18:45:00 12.1 C 7.72 g/m*3 12.1 C 4.8 km/h
2809 17-03-2014 18:50:00 12 C 7.78 g/m*3 12 C 3.2 km/h
2810 17-03-2014 18:55:00 11.9 C 7.73 g/m*3 11.9 C 1.6 km/h
2811 17-03-2014 19:00:00 11.9 C 7.73 g/m*3 11.9 C 3.2 km/h
2812 17-03-2014 19:05:00 11.8 C 7.79 g/m*3 11.8 C 3.2 km/h
2813 17-03-2014 19:10:00 11.7 C 7.74 g/m*3 11.7 C 4.8 km/h
2814 17-03-2014 19:15:00 11.6 C 7.69 g/m*3 11.6 C 0 km/h
2815 17-03-2014 19:20:00 11.5 C 7.64 g/m*3 11.5 C 0 km/h
2816 17-03-2014 19:25:00 11.2 C 7.7 g/m*3 11.2 C 0 km/h
2817 17-03-2014 19:30:00 11 C 7.71 g/m*3 11 C 0 km/h
2818 17-03-2014 19:35:00 10.8 C 7.61 g/m*3 10.8 C 0 km/h
2819 17-03-2014 19:40:00 10.8 C 7.71 g/m*3 10.8 C 0 km/h
2820 17-03-2014 19:45:00 10.8 C 7.61 g/m*3 10.8 C 0 km/h
2821 17-03-2014 19:50:00 10.8 C 7.61 g/m*3 10.8 C 0 km/h
2822 17-03-2014 19:55:00 10.8 C 7.81 g/m*3 10.8 C 1.6 km/h
2823 17-03-2014 20:00:00 10.7 C 7.76 g/m*3 10.7 C 0 km/h
2824 17-03-2014 20:05:00 10.6 C 7.71 g/m*3 10.6 C 1.6 km/h
2825 17-03-2014 20:10:00 10.5 C 7.66 g/m*3 10.5 C 1.6 km/h
Sensor: Nr:Datum:Temp:Abs-Feuchte:Windchill:Wind:
Aussen-T/F 2826 17-03-2014 20:15:00 10.3 C 7.66 g/m*3 10.3 C 3.2 km/h
2827 17-03-2014 20:20:00 10.2 C 7.61 g/m*3 10.2 C 3.2 km/h
2828 17-03-2014 20:25:00 10.2 C 7.71 g/m*3 10.2 C 0 km/h
2829 17-03-2014 20:30:00 10.2 C 7.71 g/m*3 10.2 C 0 km/h
2830 17-03-2014 20:35:00 10.2 C 7.71 g/m*3 10.2 C 1.6 km/h
2831 17-03-2014 20:40:00 10.3 C 7.66 g/m*3 10.3 C 1.6 km/h
2832 17-03-2014 20:45:00 10.4 C 7.61 g/m*3 10.4 C 1.6 km/h
2833 17-03-2014 20:50:00 10.3 C 7.66 g/m*3 10.3 C 3.2 km/h
2834 17-03-2014 20:55:00 10.2 C 7.71 g/m*3 10.2 C 3.2 km/h
2835 17-03-2014 21:00:00 10.1 C 7.66 g/m*3 10.1 C 4.8 km/h
2836 17-03-2014 21:05:00 10 C 7.71 g/m*3 10 C 4.8 km/h
2837 17-03-2014 21:10:00 9.9 C 7.75 g/m*3 9.9 C 0 km/h
2838 17-03-2014 21:15:00 9.8 C 7.7 g/m*3 9.8 C 0 km/h
2839 17-03-2014 21:20:00 9.8 C 7.79 g/m*3 9.8 C 0 km/h
2840 17-03-2014 21:25:00 9.9 C 7.84 g/m*3 9.9 C 0 km/h
2841 17-03-2014 21:30:00 9.8 C 7.79 g/m*3 9.8 C 0 km/h
2842 17-03-2014 21:35:00 9.8 C 7.7 g/m*3 9.8 C 3.2 km/h
2843 17-03-2014 21:40:00 9.8 C 7.7 g/m*3 9.8 C 0 km/h
2844 17-03-2014 21:45:00 9.8 C 7.61 g/m*3 9.8 C 3.2 km/h
2845 17-03-2014 21:50:00 9.8 C 7.61 g/m*3 9.8 C 0 km/h
2846 17-03-2014 21:55:00 9.8 C 7.7 g/m*3 9.8 C 0 km/h
2847 17-03-2014 22:00:00 9.7 C 7.74 g/m*3 9.7 C 0 km/h
2848 17-03-2014 22:05:00 9.7 C 7.74 g/m*3 9.7 C 0 km/h
2849 17-03-2014 22:10:00 9.7 C 7.65 g/m*3 9.7 C 1.6 km/h
2850 17-03-2014 22:15:00 9.8 C 7.7 g/m*3 9.8 C 4.8 km/h
Sensor: Nr:Datum:Temp:Abs-Feuchte:Windchill:Wind:
Aussen-T/F 2851 17-03-2014 22:20:00 9.8 C 7.7 g/m*3 9.8 C 3.2 km/h
2852 17-03-2014 22:25:00 9.8 C 7.7 g/m*3 9.8 C 4.8 km/h
2853 17-03-2014 22:30:00 9.8 C 7.7 g/m*3 9.8 C 1.6 km/h
2854 17-03-2014 22:35:00 9.8 C 7.7 g/m*3 9.8 C 1.6 km/h
2855 17-03-2014 22:40:00 9.8 C 7.7 g/m*3 9.8 C 0 km/h
2856 17-03-2014 22:45:00 9.8 C 7.7 g/m*3 9.8 C 0 km/h
2857 17-03-2014 22:50:00 9.7 C 7.65 g/m*3 9.02 C 6.4 km/h
2858 17-03-2014 22:55:00 9.7 C 7.65 g/m*3 9.7 C 4.8 km/h
2859 17-03-2014 23:00:00 9.7 C 7.65 g/m*3 9.7 C 3.2 km/h
2860 17-03-2014 23:05:00 9.7 C 7.65 g/m*3 9.7 C 4.8 km/h
2861 17-03-2014 23:10:00 9.8 C 7.7 g/m*3 9.8 C 1.6 km/h
2862 17-03-2014 23:15:00 9.8 C 7.7 g/m*3 9.8 C 3.2 km/h
2863 17-03-2014 23:20:00 9.8 C 7.7 g/m*3 9.8 C 3.2 km/h
2864 17-03-2014 23:25:00 9.8 C 7.7 g/m*3 9.8 C 3.2 km/h
2865 17-03-2014 23:30:00 9.7 C 7.65 g/m*3 9.7 C 1.6 km/h
2866 17-03-2014 23:35:00 9.7 C 7.65 g/m*3 9.7 C 1.6 km/h
2867 17-03-2014 23:40:00 9.7 C 7.65 g/m*3 9.7 C 1.6 km/h
2868 17-03-2014 23:45:00 9.7 C 7.65 g/m*3 9.7 C 0 km/h
2869 17-03-2014 23:50:00 9.6 C 7.6 g/m*3 9.6 C 0 km/h
2870 17-03-2014 23:55:00 9.5 C 7.55 g/m*3 9.5 C 3.2 km/h
2871 18-03-2014 00:00:00 9.3 C 7.55 g/m*3 9.3 C 0 km/h
2872 18-03-2014 00:05:00 9.1 C 7.45 g/m*3 9.1 C 1.6 km/h
2873 18-03-2014 00:10:00 8.8 C 7.4 g/m*3 8.8 C 1.6 km/h
2874 18-03-2014 00:15:00 8.7 C 7.44 g/m*3 8.7 C 1.6 km/h
2875 18-03-2014 00:20:00 8.6 C 7.3 g/m*3 8.6 C 0 km/h
Sensor: Nr:Datum:Temp:Abs-Feuchte:Windchill:Wind:
Aussen-T/F 2876 18-03-2014 00:25:00 8.3 C 7.25 g/m*3 8.3 C 0 km/h
2877 18-03-2014 00:30:00 8.1 C 7.16 g/m*3 8.1 C 1.6 km/h
2878 18-03-2014 00:35:00 8 C 7.19 g/m*3 8 C 3.2 km/h
2879 18-03-2014 00:40:00 7.9 C 7.15 g/m*3 7.9 C 0 km/h
2880 18-03-2014 00:45:00 7.9 C 7.23 g/m*3 7.9 C 0 km/h
2881 18-03-2014 00:50:00 7.9 C 7.31 g/m*3 7.9 C 1.6 km/h
2882 18-03-2014 00:55:00 7.9 C 7.31 g/m*3 7.9 C 0 km/h
2883 18-03-2014 01:00:00 8.1 C 7.41 g/m*3 8.1 C 0 km/h
2884 18-03-2014 01:05:00 8.1 C 7.41 g/m*3 8.1 C 0 km/h
2885 18-03-2014 01:10:00 8.2 C 7.45 g/m*3 8.2 C 0 km/h
2886 18-03-2014 01:15:00 8.2 C 7.37 g/m*3 8.2 C 3.2 km/h
2887 18-03-2014 01:20:00 8.3 C 7.42 g/m*3 8.3 C 3.2 km/h
2888 18-03-2014 01:25:00 8.3 C 7.42 g/m*3 8.3 C 0 km/h
2889 18-03-2014 01:30:00 8.4 C 7.47 g/m*3 8.4 C 0 km/h
2890 18-03-2014 01:35:00 8.4 C 7.47 g/m*3 8.4 C 3.2 km/h
2891 18-03-2014 01:40:00 8.4 C 7.47 g/m*3 8.4 C 0 km/h
2892 18-03-2014 01:45:00 8.4 C 7.47 g/m*3 8.4 C 0 km/h
2893 18-03-2014 01:50:00 8.4 C 7.47 g/m*3 8.4 C 1.6 km/h
2894 18-03-2014 01:55:00 8.4 C 7.47 g/m*3 8.4 C 0 km/h
2895 18-03-2014 02:00:00 8.5 C 7.51 g/m*3 8.5 C 0 km/h
2896 18-03-2014 02:05:00 8.5 C 7.51 g/m*3 8.5 C 0 km/h
2897 18-03-2014 02:10:00 8.5 C 7.51 g/m*3 8.5 C 1.6 km/h
2898 18-03-2014 02:15:00 8.6 C 7.48 g/m*3 8.6 C 4.8 km/h
2899 18-03-2014 02:20:00 8.7 C 7.52 g/m*3 8.7 C 3.2 km/h
2900 18-03-2014 02:25:00 8.8 C 7.57 g/m*3 8.8 C 1.6 km/h
Sensor: Nr:Datum:Temp:Abs-Feuchte:Windchill:Wind:
Aussen-T/F 2901 18-03-2014 02:30:00 8.8 C 7.49 g/m*3 8.8 C 0 km/h
2902 18-03-2014 02:35:00 8.8 C 7.49 g/m*3 8.8 C 3.2 km/h
2903 18-03-2014 02:40:00 8.8 C 7.49 g/m*3 8.8 C 0 km/h
2904 18-03-2014 02:45:00 8.8 C 7.49 g/m*3 8.8 C 0 km/h
2905 18-03-2014 02:50:00 8.8 C 7.49 g/m*3 8.8 C 0 km/h
2906 18-03-2014 02:55:00 8.7 C 7.52 g/m*3 8.7 C 0 km/h
2907 18-03-2014 03:00:00 8.6 C 7.48 g/m*3 8.6 C 1.6 km/h
2908 18-03-2014 03:05:00 8.6 C 7.48 g/m*3 8.6 C 0 km/h
2909 18-03-2014 03:10:00 8.6 C 7.48 g/m*3 8.6 C 0 km/h
2910 18-03-2014 03:15:00 8.6 C 7.48 g/m*3 8.6 C 3.2 km/h
2911 18-03-2014 03:20:00 8.6 C 7.48 g/m*3 8.6 C 4.8 km/h
2912 18-03-2014 03:25:00 8.6 C 7.48 g/m*3 8.6 C 0 km/h
2913 18-03-2014 03:30:00 8.6 C 7.48 g/m*3 7.75 C 6.4 km/h
2914 18-03-2014 03:35:00 8.7 C 7.52 g/m*3 8.7 C 4.8 km/h
2915 18-03-2014 03:40:00 8.6 C 7.48 g/m*3 8.6 C 4.8 km/h
2916 18-03-2014 03:45:00 8.5 C 7.34 g/m*3 8.5 C 0 km/h
2917 18-03-2014 03:50:00 8.3 C 7.33 g/m*3 8.3 C 1.6 km/h
2918 18-03-2014 03:55:00 8.2 C 7.29 g/m*3 8.2 C 0 km/h
2919 18-03-2014 04:00:00 8 C 7.19 g/m*3 8 C 3.2 km/h
2920 18-03-2014 04:05:00 7.8 C 7.18 g/m*3 7.8 C 0 km/h
2921 18-03-2014 04:10:00 7.7 C 7.14 g/m*3 7.7 C 0 km/h
2922 18-03-2014 04:15:00 7.7 C 7.14 g/m*3 7.7 C 0 km/h
2923 18-03-2014 04:20:00 7.7 C 7.22 g/m*3 7.7 C 1.6 km/h
2924 18-03-2014 04:25:00 7.7 C 7.22 g/m*3 7.7 C 0 km/h
2925 18-03-2014 04:30:00 7.7 C 7.22 g/m*3 7.7 C 1.6 km/h
Sensor: Nr:Datum:Temp:Abs-Feuchte:Windchill:Wind:
Aussen-T/F 2926 18-03-2014 04:35:00 7.7 C 7.3 g/m*3 6.71 C 6.4 km/h
2927 18-03-2014 04:40:00 7.7 C 7.3 g/m*3 7.7 C 1.6 km/h
2928 18-03-2014 04:45:00 7.7 C 7.3 g/m*3 7.7 C 0 km/h
2929 18-03-2014 04:50:00 7.7 C 7.22 g/m*3 7.7 C 0 km/h
2930 18-03-2014 04:55:00 7.7 C 7.22 g/m*3 7.7 C 0 km/h
2931 18-03-2014 05:00:00 7.6 C 7.17 g/m*3 7.6 C 0 km/h
2932 18-03-2014 05:05:00 7.6 C 7.17 g/m*3 7.6 C 0 km/h
2933 18-03-2014 05:10:00 7.6 C 7.25 g/m*3 7.6 C 0 km/h
2934 18-03-2014 05:15:00 7.7 C 7.3 g/m*3 7.7 C 3.2 km/h
2935 18-03-2014 05:20:00 7.7 C 7.22 g/m*3 7.7 C 3.2 km/h
2936 18-03-2014 05:25:00 7.7 C 7.22 g/m*3 7.7 C 0 km/h
2937 18-03-2014 05:30:00 7.6 C 7.17 g/m*3 7.6 C 0 km/h
2938 18-03-2014 05:35:00 7.5 C 7.12 g/m*3 7.5 C 0 km/h
2939 18-03-2014 05:40:00 7.4 C 7.16 g/m*3 7.4 C 0 km/h
2940 18-03-2014 05:45:00 7.3 C 7.11 g/m*3 7.3 C 3.2 km/h
2941 18-03-2014 05:50:00 7.3 C 7.11 g/m*3 6.25 C 6.4 km/h
2942 18-03-2014 05:55:00 7.4 C 7.16 g/m*3 7.4 C 4.8 km/h
2943 18-03-2014 06:00:00 7.4 C 7.16 g/m*3 6.37 C 6.4 km/h
2944 18-03-2014 06:05:00 7.4 C 7.16 g/m*3 7.4 C 4.8 km/h
2945 18-03-2014 06:10:00 7.5 C 7.2 g/m*3 7.5 C 4.8 km/h
2946 18-03-2014 06:15:00 7.6 C 7.25 g/m*3 7.6 C 3.2 km/h
2947 18-03-2014 06:20:00 7.6 C 7.25 g/m*3 7.6 C 3.2 km/h
2948 18-03-2014 06:25:00 7.7 C 7.3 g/m*3 7.7 C 1.6 km/h
2949 18-03-2014 06:30:00 7.8 C 7.35 g/m*3 7.8 C 1.6 km/h
2950 18-03-2014 06:35:00 7.8 C 7.35 g/m*3 7.8 C 0 km/h
Sensor: Nr:Datum:Temp:Abs-Feuchte:Windchill:Wind:
Aussen-T/F 2951 18-03-2014 06:40:00 7.8 C 7.35 g/m*3 7.8 C 3.2 km/h
2952 18-03-2014 06:45:00 7.8 C 7.35 g/m*3 7.8 C 3.2 km/h
2953 18-03-2014 06:50:00 7.8 C 7.35 g/m*3 6.83 C 6.4 km/h
2954 18-03-2014 06:55:00 7.7 C 7.3 g/m*3 7.7 C 3.2 km/h
2955 18-03-2014 07:00:00 7.7 C 7.3 g/m*3 7.7 C 4.8 km/h
2956 18-03-2014 07:05:00 7.7 C 7.3 g/m*3 6.71 C 6.4 km/h
2957 18-03-2014 07:10:00 7.7 C 7.38 g/m*3 7.7 C 3.2 km/h
2958 18-03-2014 07:15:00 7.8 C 7.43 g/m*3 7.8 C 4.8 km/h
2959 18-03-2014 07:20:00 7.9 C 7.47 g/m*3 7.9 C 4.8 km/h
2960 18-03-2014 07:25:00 7.9 C 7.47 g/m*3 7.9 C 4.8 km/h
2961 18-03-2014 07:30:00 8 C 7.52 g/m*3 8 C 3.2 km/h
2962 18-03-2014 07:35:00 8.1 C 7.57 g/m*3 8.1 C 3.2 km/h
2963 18-03-2014 07:40:00 8.2 C 7.54 g/m*3 6.87 C 8.1 km/h
2964 18-03-2014 07:45:00 8.2 C 7.54 g/m*3 6.87 C 8.1 km/h
2965 18-03-2014 07:50:00 8.3 C 7.59 g/m*3 6.66 C 9.7 km/h
2966 18-03-2014 07:55:00 8.3 C 7.59 g/m*3 6.66 C 9.7 km/h
2967 18-03-2014 08:00:00 8.4 C 7.55 g/m*3 7.11 C 8.1 km/h
2968 18-03-2014 08:05:00 8.4 C 7.55 g/m*3 7.52 C 6.4 km/h
2969 18-03-2014 08:10:00 8.5 C 7.6 g/m*3 8.5 C 4.8 km/h
2970 18-03-2014 08:15:00 8.5 C 7.6 g/m*3 7.22 C 8.1 km/h
2971 18-03-2014 08:20:00 8.6 C 7.65 g/m*3 8.6 C 4.8 km/h
2972 18-03-2014 08:25:00 8.6 C 7.73 g/m*3 7.75 C 6.4 km/h
2973 18-03-2014 08:30:00 8.6 C 7.65 g/m*3 8.6 C 3.2 km/h
2974 18-03-2014 08:35:00 8.6 C 7.65 g/m*3 7.75 C 6.4 km/h
2975 18-03-2014 08:40:00 8.6 C 7.65 g/m*3 7.34 C 8.1 km/h
Sensor: Nr:Datum:Temp:Abs-Feuchte:Windchill:Wind:
Aussen-T/F 2976 18-03-2014 08:45:00 8.6 C 7.65 g/m*3 7.34 C 8.1 km/h
2977 18-03-2014 08:50:00 8.4 C 7.55 g/m*3 7.52 C 6.4 km/h
2978 18-03-2014 08:55:00 8.4 C 7.63 g/m*3 7.52 C 6.4 km/h
2979 18-03-2014 09:00:00 8.4 C 7.63 g/m*3 8.4 C 4.8 km/h
2980 18-03-2014 09:05:00 8.4 C 7.63 g/m*3 8.4 C 4.8 km/h
2981 18-03-2014 09:10:00 8.4 C 7.63 g/m*3 7.11 C 8.1 km/h
2982 18-03-2014 09:15:00 8.4 C 7.63 g/m*3 7.11 C 8.1 km/h
2983 18-03-2014 09:20:00 8.5 C 7.68 g/m*3 7.64 C 6.4 km/h
2984 18-03-2014 09:25:00 8.6 C 7.73 g/m*3 7.75 C 6.4 km/h
2985 18-03-2014 09:30:00 8.6 C 7.73 g/m*3 7.34 C 8.1 km/h
2986 18-03-2014 09:35:00 8.7 C 7.78 g/m*3 7.46 C 8.1 km/h
2987 18-03-2014 09:40:00 8.7 C 7.7 g/m*3 7.46 C 8.1 km/h
2988 18-03-2014 09:45:00 8.7 C 7.7 g/m*3 7.46 C 8.1 km/h
2989 18-03-2014 09:50:00 8.8 C 7.75 g/m*3 7.98 C 6.4 km/h
2990 18-03-2014 09:55:00 8.8 C 7.66 g/m*3 6.97 C 11.3 km/h
2991 18-03-2014 10:00:00 8.8 C 7.75 g/m*3 6.97 C 11.3 km/h
2992 18-03-2014 10:05:00 8.8 C 7.75 g/m*3 6.97 C 11.3 km/h
2993 18-03-2014 10:10:00 8.8 C 7.66 g/m*3 6.97 C 11.3 km/h
2994 18-03-2014 10:15:00 8.8 C 7.66 g/m*3 6.3 C 16.1 km/h
2995 18-03-2014 10:20:00 8.8 C 7.66 g/m*3 6.72 C 12.9 km/h
2996 18-03-2014 10:25:00 8.7 C 7.61 g/m*3 5.98 C 17.7 km/h
2997 18-03-2014 10:30:00 8.7 C 7.61 g/m*3 5.98 C 17.7 km/h
2998 18-03-2014 10:35:00 8.7 C 7.52 g/m*3 6.6 C 12.9 km/h
2999 18-03-2014 10:40:00 8.6 C 7.56 g/m*3 6.73 C 11.3 km/h
3000 18-03-2014 10:45:00 8.6 C 7.56 g/m*3 6.73 C 11.3 km/h
Sensor: Nr:Datum:Temp:Abs-Feuchte:Windchill:Wind:
Aussen-T/F 3001 18-03-2014 10:50:00 8.6 C 7.56 g/m*3 6.73 C 11.3 km/h
3002 18-03-2014 10:55:00 8.6 C 7.56 g/m*3 7.01 C 9.7 km/h
3003 18-03-2014 11:00:00 8.6 C 7.65 g/m*3 7.34 C 8.1 km/h
3004 18-03-2014 11:05:00 8.6 C 7.65 g/m*3 6.73 C 11.3 km/h
3005 18-03-2014 11:10:00 8.6 C 7.73 g/m*3 8.6 C 4.8 km/h
3006 18-03-2014 11:15:00 8.6 C 7.73 g/m*3 7.01 C 9.7 km/h
3007 18-03-2014 11:20:00 8.5 C 7.68 g/m*3 6.9 C 9.7 km/h
3008 18-03-2014 11:25:00 8.5 C 7.77 g/m*3 7.64 C 6.4 km/h
3009 18-03-2014 11:30:00 8.5 C 7.77 g/m*3 7.22 C 8.1 km/h
3010 18-03-2014 11:35:00 8.5 C 7.77 g/m*3 7.64 C 6.4 km/h
3011 18-03-2014 11:40:00 8.5 C 7.77 g/m*3 7.64 C 6.4 km/h
3012 18-03-2014 11:45:00 8.6 C 7.82 g/m*3 8.6 C 4.8 km/h
3013 18-03-2014 11:50:00 8.6 C 7.82 g/m*3 7.75 C 6.4 km/h
3014 18-03-2014 11:55:00 8.7 C 7.87 g/m*3 7.87 C 6.4 km/h
3015 18-03-2014 12:00:00 8.7 C 7.87 g/m*3 7.87 C 6.4 km/h
3016 18-03-2014 12:05:00 8.8 C 7.92 g/m*3 7.98 C 6.4 km/h
3017 18-03-2014 12:10:00 8.9 C 7.97 g/m*3 8.1 C 6.4 km/h
3018 18-03-2014 12:15:00 8.9 C 7.88 g/m*3 7.69 C 8.1 km/h
3019 18-03-2014 12:20:00 9.1 C 7.99 g/m*3 7.33 C 11.3 km/h
3020 18-03-2014 12:25:00 9.1 C 7.99 g/m*3 7.33 C 11.3 km/h
3021 18-03-2014 12:30:00 9.1 C 7.9 g/m*3 7.61 C 9.7 km/h
3022 18-03-2014 12:35:00 9.1 C 7.9 g/m*3 7.61 C 9.7 km/h
3023 18-03-2014 12:40:00 9.2 C 7.95 g/m*3 7.73 C 9.7 km/h
3024 18-03-2014 12:45:00 9.2 C 7.86 g/m*3 6.99 C 14.5 km/h
3025 18-03-2014 12:50:00 9.2 C 7.95 g/m*3 7.73 C 9.7 km/h
Sensor: Nr:Datum:Temp:Abs-Feuchte:Windchill:Wind:
Aussen-T/F 3026 18-03-2014 12:55:00 9.2 C 7.86 g/m*3 7.73 C 9.7 km/h
3027 18-03-2014 13:00:00 9.2 C 7.86 g/m*3 7.73 C 9.7 km/h
3028 18-03-2014 13:05:00 9.2 C 7.86 g/m*3 8.05 C 8.1 km/h
3029 18-03-2014 13:10:00 9.3 C 7.91 g/m*3 8.56 C 6.4 km/h
3030 18-03-2014 13:15:00 9.3 C 7.82 g/m*3 7.85 C 9.7 km/h
3031 18-03-2014 13:20:00 9.3 C 7.82 g/m*3 7.85 C 9.7 km/h
3032 18-03-2014 13:25:00 9.4 C 7.87 g/m*3 8.68 C 6.4 km/h
3033 18-03-2014 13:30:00 9.5 C 7.92 g/m*3 8.79 C 6.4 km/h
3034 18-03-2014 13:35:00 9.6 C 7.97 g/m*3 8.91 C 6.4 km/h
3035 18-03-2014 13:40:00 9.6 C 7.97 g/m*3 9.6 C 4.8 km/h
3036 18-03-2014 13:45:00 9.7 C 7.93 g/m*3 9.7 C 4.8 km/h
3037 18-03-2014 13:50:00 9.7 C 7.93 g/m*3 9.7 C 4.8 km/h
3038 18-03-2014 13:55:00 9.7 C 7.84 g/m*3 9.7 C 1.6 km/h
3039 18-03-2014 14:00:00 9.8 C 7.98 g/m*3 8.75 C 8.1 km/h
3040 18-03-2014 14:05:00 9.9 C 8.03 g/m*3 9.9 C 4.8 km/h
3041 18-03-2014 14:10:00 10.1 C 8.04 g/m*3 9.48 C 6.4 km/h
3042 18-03-2014 14:15:00 10.2 C 7.99 g/m*3 8.43 C 12.9 km/h
3043 18-03-2014 14:20:00 10.3 C 7.95 g/m*3 9.72 C 6.4 km/h
3044 18-03-2014 14:25:00 10.4 C 8 g/m*3 9.83 C 6.4 km/h
3045 18-03-2014 14:30:00 10.6 C 8 g/m*3 9.69 C 8.1 km/h
3046 18-03-2014 14:35:00 10.7 C 8.05 g/m*3 10.7 C 4.8 km/h
3047 18-03-2014 14:40:00 10.7 C 8.05 g/m*3 9.52 C 9.7 km/h
3048 18-03-2014 14:45:00 10.8 C 8.01 g/m*3 9.64 C 9.7 km/h
3049 18-03-2014 14:50:00 10.8 C 7.91 g/m*3 8.78 C 16.1 km/h
3050 18-03-2014 14:55:00 10.8 C 7.91 g/m*3 10.29 C 6.4 km/h
Sensor: Nr:Datum:Temp:Abs-Feuchte:Windchill:Wind:
Aussen-T/F 3051 18-03-2014 15:00:00 10.9 C 8.06 g/m*3 9.76 C 9.7 km/h
3052 18-03-2014 15:05:00 10.9 C 7.96 g/m*3 10.04 C 8.1 km/h
3053 18-03-2014 15:10:00 10.9 C 7.96 g/m*3 9.08 C 14.5 km/h
3054 18-03-2014 15:15:00 11 C 8.11 g/m*3 9.21 C 14.5 km/h
3055 18-03-2014 15:20:00 11.1 C 8.06 g/m*3 11.1 C 12.9 km/h
3056 18-03-2014 15:25:00 11.2 C 8.01 g/m*3 11.2 C 8.1 km/h
3057 18-03-2014 15:30:00 11.3 C 8.06 g/m*3 11.3 C 9.7 km/h
3058 18-03-2014 15:35:00 11.5 C 8.06 g/m*3 11.5 C 8.1 km/h
3059 18-03-2014 15:40:00 11.5 C 8.06 g/m*3 11.5 C 11.3 km/h
3060 18-03-2014 15:45:00 11.5 C 8.06 g/m*3 11.5 C 11.3 km/h
3061 18-03-2014 15:50:00 11.5 C 8.06 g/m*3 11.5 C 9.7 km/h
3062 18-03-2014 15:55:00 11.6 C 8.11 g/m*3 11.6 C 9.7 km/h
3063 18-03-2014 16:00:00 11.5 C 7.95 g/m*3 11.5 C 14.5 km/h
3064 18-03-2014 16:05:00 11.4 C 7.9 g/m*3 11.4 C 11.3 km/h
3065 18-03-2014 16:10:00 11.4 C 7.9 g/m*3 11.4 C 14.5 km/h
3066 18-03-2014 16:15:00 11.3 C 7.75 g/m*3 11.3 C 11.3 km/h
3067 18-03-2014 16:20:00 11.3 C 7.75 g/m*3 11.3 C 12.9 km/h
3068 18-03-2014 16:25:00 11.2 C 7.8 g/m*3 11.2 C 12.9 km/h
3069 18-03-2014 16:30:00 11.3 C 7.85 g/m*3 11.3 C 9.7 km/h
3070 18-03-2014 16:35:00 11.3 C 7.75 g/m*3 11.3 C 14.5 km/h
3071 18-03-2014 16:40:00 11.4 C 7.8 g/m*3 11.4 C 14.5 km/h
3072 18-03-2014 16:45:00 11.6 C 7.9 g/m*3 11.6 C 8.1 km/h
3073 18-03-2014 16:50:00 11.5 C 7.85 g/m*3 11.5 C 11.3 km/h
3074 18-03-2014 16:55:00 11.4 C 7.8 g/m*3 11.4 C 9.7 km/h
3075 18-03-2014 17:00:00 11.4 C 7.8 g/m*3 11.4 C 14.5 km/h
Sensor: Nr:Datum:Temp:Abs-Feuchte:Windchill:Wind:
Aussen-T/F 3076 18-03-2014 17:05:00 11.4 C 7.8 g/m*3 11.4 C 11.3 km/h
3077 18-03-2014 17:10:00 11.4 C 7.8 g/m*3 11.4 C 4.8 km/h
3078 18-03-2014 17:15:00 11.3 C 7.75 g/m*3 11.3 C 6.4 km/h
3079 18-03-2014 17:20:00 11.3 C 7.75 g/m*3 11.3 C 12.9 km/h
3080 18-03-2014 17:25:00 11.3 C 7.75 g/m*3 11.3 C 6.4 km/h
3081 18-03-2014 17:30:00 11.3 C 7.65 g/m*3 11.3 C 3.2 km/h
3082 18-03-2014 17:35:00 11.4 C 7.8 g/m*3 11.4 C 6.4 km/h
3083 18-03-2014 17:40:00 11.5 C 7.85 g/m*3 11.5 C 1.6 km/h
3084 18-03-2014 17:45:00 11.6 C 7.8 g/m*3 11.6 C 6.4 km/h
3085 18-03-2014 17:50:00 11.7 C 7.84 g/m*3 11.7 C 6.4 km/h
3086 18-03-2014 17:55:00 11.7 C 7.84 g/m*3 11.7 C 3.2 km/h
3087 18-03-2014 18:00:00 11.7 C 7.74 g/m*3 11.7 C 9.7 km/h
3088 18-03-2014 18:05:00 11.7 C 7.74 g/m*3 11.7 C 8.1 km/h
3089 18-03-2014 18:10:00 11.6 C 7.8 g/m*3 11.6 C 8.1 km/h
3090 18-03-2014 18:15:00 11.5 C 7.85 g/m*3 11.5 C 8.1 km/h
3091 18-03-2014 18:20:00 11.4 C 7.7 g/m*3 11.4 C 9.7 km/h
3092 18-03-2014 18:25:00 11.3 C 7.65 g/m*3 11.3 C 8.1 km/h
3093 18-03-2014 18:30:00 11.3 C 7.75 g/m*3 11.3 C 11.3 km/h
3094 18-03-2014 18:35:00 11.3 C 7.75 g/m*3 11.3 C 16.1 km/h
3095 18-03-2014 18:40:00 11.3 C 7.75 g/m*3 11.3 C 19.3 km/h
3096 18-03-2014 18:45:00 11.2 C 7.7 g/m*3 11.2 C 19.3 km/h
3097 18-03-2014 18:50:00 11.2 C 7.7 g/m*3 11.2 C 6.4 km/h
3098 18-03-2014 18:55:00 11.1 C 7.66 g/m*3 11.1 C 12.9 km/h
3099 18-03-2014 19:00:00 11.2 C 7.7 g/m*3 11.2 C 9.7 km/h
3100 18-03-2014 19:05:00 11.2 C 7.7 g/m*3 11.2 C 9.7 km/h
Sensor: Nr:Datum:Temp:Abs-Feuchte:Windchill:Wind:
Aussen-T/F 3101 18-03-2014 19:10:00 11.2 C 7.7 g/m*3 11.2 C 11.3 km/h
3102 18-03-2014 19:15:00 11.2 C 7.4 g/m*3 11.2 C 12.9 km/h
3103 18-03-2014 19:20:00 11.3 C 7.45 g/m*3 11.3 C 9.7 km/h
3104 18-03-2014 19:25:00 11.3 C 7.34 g/m*3 11.3 C 14.5 km/h
3105 18-03-2014 19:30:00 11.3 C 7.34 g/m*3 11.3 C 12.9 km/h
3106 18-03-2014 19:35:00 11.3 C 7.24 g/m*3 11.3 C 11.3 km/h
3107 18-03-2014 19:40:00 11.3 C 7.24 g/m*3 11.3 C 12.9 km/h
3108 18-03-2014 19:45:00 11.3 C 7.14 g/m*3 11.3 C 12.9 km/h
3109 18-03-2014 19:50:00 11.3 C 7.24 g/m*3 11.3 C 11.3 km/h
3110 18-03-2014 19:55:00 11.3 C 7.34 g/m*3 11.3 C 9.7 km/h
3111 18-03-2014 20:00:00 11.2 C 7.3 g/m*3 11.2 C 9.7 km/h
3112 18-03-2014 20:05:00 11.2 C 7.3 g/m*3 11.2 C 9.7 km/h
3113 18-03-2014 20:10:00 11.1 C 7.25 g/m*3 11.1 C 20.9 km/h
3114 18-03-2014 20:15:00 11 C 7.11 g/m*3 9.88 C 9.7 km/h
3115 18-03-2014 20:20:00 10.9 C 7.26 g/m*3 9.08 C 14.5 km/h
3116 18-03-2014 20:25:00 10.8 C 7.12 g/m*3 9.16 C 12.9 km/h
3117 18-03-2014 20:30:00 10.7 C 6.97 g/m*3 8.18 C 20.9 km/h
3118 18-03-2014 20:35:00 10.7 C 6.97 g/m*3 8.48 C 17.7 km/h
3119 18-03-2014 20:40:00 10.7 C 6.97 g/m*3 8.04 C 22.5 km/h
3120 18-03-2014 20:45:00 10.6 C 6.83 g/m*3 7.91 C 22.5 km/h
3121 18-03-2014 20:50:00 10.6 C 6.83 g/m*3 8.2 C 19.3 km/h
3122 18-03-2014 20:55:00 10.6 C 6.73 g/m*3 8.05 C 20.9 km/h
3123 18-03-2014 21:00:00 10.6 C 6.83 g/m*3 8.36 C 17.7 km/h
3124 18-03-2014 21:05:00 10.6 C 6.83 g/m*3 8.71 C 14.5 km/h
3125 18-03-2014 21:10:00 10.5 C 6.89 g/m*3 8.23 C 17.7 km/h
Sensor: Nr:Datum:Temp:Abs-Feuchte:Windchill:Wind:
Aussen-T/F 3126 18-03-2014 21:15:00 10.4 C 6.84 g/m*3 8.47 C 14.5 km/h
3127 18-03-2014 21:20:00 10.4 C 6.84 g/m*3 8.11 C 17.7 km/h
3128 18-03-2014 21:25:00 10.4 C 6.84 g/m*3 7.8 C 20.9 km/h
3129 18-03-2014 21:30:00 10.4 C 6.84 g/m*3 7.8 C 20.9 km/h
3130 18-03-2014 21:35:00 10.4 C 6.94 g/m*3 8.11 C 17.7 km/h
3131 18-03-2014 21:40:00 10.4 C 6.94 g/m*3 7.95 C 19.3 km/h
3132 18-03-2014 21:45:00 10.4 C 6.94 g/m*3 8.28 C 16.1 km/h
3133 18-03-2014 21:50:00 10.4 C 6.94 g/m*3 7.95 C 19.3 km/h
3134 18-03-2014 21:55:00 10.4 C 6.94 g/m*3 8.11 C 17.7 km/h
3135 18-03-2014 22:00:00 10.4 C 6.94 g/m*3 8.11 C 17.7 km/h
3136 18-03-2014 22:05:00 10.1 C 7.09 g/m*3 7.73 C 17.7 km/h
3137 18-03-2014 22:10:00 10.1 C 7.09 g/m*3 7.91 C 16.1 km/h
3138 18-03-2014 22:15:00 9.9 C 7 g/m*3 8.06 C 12.9 km/h
3139 18-03-2014 22:20:00 9.8 C 7.05 g/m*3 8.18 C 11.3 km/h
3140 18-03-2014 22:25:00 9.7 C 7.01 g/m*3 8.06 C 11.3 km/h
3141 18-03-2014 22:30:00 9.7 C 7.1 g/m*3 8.33 C 9.7 km/h
3142 18-03-2014 22:35:00 9.7 C 7.1 g/m*3 7.82 C 12.9 km/h
3143 18-03-2014 22:40:00 9.6 C 7.05 g/m*3 8.52 C 8.1 km/h
3144 18-03-2014 22:45:00 9.5 C 7.1 g/m*3 8.4 C 8.1 km/h
3145 18-03-2014 22:50:00 9.4 C 7.15 g/m*3 7.97 C 9.7 km/h
3146 18-03-2014 22:55:00 9.4 C 7.15 g/m*3 7.7 C 11.3 km/h
3147 18-03-2014 23:00:00 9.5 C 7.1 g/m*3 8.09 C 9.7 km/h
3148 18-03-2014 23:05:00 9.5 C 7.1 g/m*3 8.4 C 8.1 km/h
3149 18-03-2014 23:10:00 9.7 C 7.19 g/m*3 8.06 C 11.3 km/h
3150 18-03-2014 23:15:00 9.8 C 7.14 g/m*3 7.94 C 12.9 km/h
Sensor: Nr:Datum:Temp:Abs-Feuchte:Windchill:Wind:
Aussen-T/F 3151 18-03-2014 23:20:00 9.8 C 7.14 g/m*3 8.18 C 11.3 km/h
3152 18-03-2014 23:25:00 9.8 C 7.14 g/m*3 7.54 C 16.1 km/h
3153 18-03-2014 23:30:00 9.9 C 7.19 g/m*3 8.3 C 11.3 km/h
3154 18-03-2014 23:35:00 9.9 C 7.19 g/m*3 7.85 C 14.5 km/h
3155 18-03-2014 23:40:00 10 C 7.24 g/m*3 7.78 C 16.1 km/h
3156 18-03-2014 23:45:00 10.1 C 7.19 g/m*3 7.57 C 19.3 km/h
3157 18-03-2014 23:50:00 10.2 C 7.23 g/m*3 8.43 C 12.9 km/h
3158 18-03-2014 23:55:00 10.2 C 7.23 g/m*3 7.86 C 17.7 km/h
3159 19-03-2014 00:00:00 10.2 C 7.23 g/m*3 8.66 C 11.3 km/h
3160 19-03-2014 00:05:00 10.1 C 7.19 g/m*3 7.91 C 16.1 km/h
3161 19-03-2014 00:10:00 10.1 C 7.28 g/m*3 8.54 C 11.3 km/h
3162 19-03-2014 00:15:00 10 C 7.24 g/m*3 7.98 C 14.5 km/h
3163 19-03-2014 00:20:00 9.9 C 7.28 g/m*3 8.06 C 12.9 km/h
3164 19-03-2014 00:25:00 9.9 C 7.47 g/m*3 8.3 C 11.3 km/h
3165 19-03-2014 00:30:00 9.9 C 7.47 g/m*3 7.32 C 19.3 km/h
3166 19-03-2014 00:35:00 9.6 C 7.51 g/m*3 8.91 C 6.4 km/h
3167 19-03-2014 00:40:00 9.5 C 7.46 g/m*3 7.36 C 14.5 km/h
3168 19-03-2014 00:45:00 9.5 C 7.46 g/m*3 8.09 C 9.7 km/h
3169 19-03-2014 00:50:00 9.5 C 7.46 g/m*3 7.82 C 11.3 km/h
3170 19-03-2014 00:55:00 9.5 C 7.46 g/m*3 7.58 C 12.9 km/h
3171 19-03-2014 01:00:00 9.6 C 7.42 g/m*3 7.48 C 14.5 km/h
3172 19-03-2014 01:05:00 9.7 C 7.47 g/m*3 7.82 C 12.9 km/h
3173 19-03-2014 01:10:00 9.7 C 7.47 g/m*3 7.82 C 12.9 km/h
3174 19-03-2014 01:15:00 9.7 C 7.56 g/m*3 9.7 C 4.8 km/h
3175 19-03-2014 01:20:00 9.7 C 7.56 g/m*3 8.33 C 9.7 km/h
Sensor: Nr:Datum:Temp:Abs-Feuchte:Windchill:Wind:
Aussen-T/F 3176 19-03-2014 01:25:00 9.7 C 7.56 g/m*3 7.82 C 12.9 km/h
3177 19-03-2014 01:30:00 9.8 C 7.52 g/m*3 7.36 C 17.7 km/h
3178 19-03-2014 01:35:00 9.9 C 7.56 g/m*3 8.3 C 11.3 km/h
3179 19-03-2014 01:40:00 9.9 C 7.56 g/m*3 7.85 C 14.5 km/h
3180 19-03-2014 01:45:00 9.9 C 7.66 g/m*3 7.85 C 14.5 km/h
3181 19-03-2014 01:50:00 9.8 C 7.7 g/m*3 8.45 C 9.7 km/h
3182 19-03-2014 01:55:00 9.7 C 7.74 g/m*3 7.82 C 12.9 km/h
3183 19-03-2014 02:00:00 9.6 C 7.88 g/m*3 9.6 C 4.8 km/h
3184 19-03-2014 02:05:00 9.3 C 7.82 g/m*3 9.3 C 4.8 km/h
3185 19-03-2014 02:10:00 9.2 C 7.86 g/m*3 8.45 C 6.4 km/h
3186 19-03-2014 02:15:00 9.2 C 7.77 g/m*3 8.45 C 6.4 km/h
3187 19-03-2014 02:20:00 9.3 C 7.64 g/m*3 8.16 C 8.1 km/h
3188 19-03-2014 02:25:00 9.5 C 7.74 g/m*3 7.16 C 16.1 km/h
3189 19-03-2014 02:30:00 9.8 C 7.61 g/m*3 8.45 C 9.7 km/h
3190 19-03-2014 02:35:00 9.8 C 7.61 g/m*3 8.45 C 9.7 km/h
3191 19-03-2014 02:40:00 9.8 C 7.52 g/m*3 7.73 C 14.5 km/h
3192 19-03-2014 02:45:00 9.9 C 7.56 g/m*3 8.06 C 12.9 km/h
3193 19-03-2014 02:50:00 10.1 C 7.56 g/m*3 7.73 C 17.7 km/h
3194 19-03-2014 02:55:00 10.1 C 7.56 g/m*3 7.91 C 16.1 km/h
3195 19-03-2014 03:00:00 10.1 C 7.56 g/m*3 7.91 C 16.1 km/h
3196 19-03-2014 03:05:00 10 C 7.52 g/m*3 8.19 C 12.9 km/h
3197 19-03-2014 03:10:00 9.9 C 7.56 g/m*3 7.66 C 16.1 km/h
3198 19-03-2014 03:15:00 9.9 C 7.56 g/m*3 8.3 C 11.3 km/h
3199 19-03-2014 03:20:00 9.9 C 7.56 g/m*3 7.66 C 16.1 km/h
3200 19-03-2014 03:25:00 9.9 C 7.56 g/m*3 7.85 C 14.5 km/h
Sensor: Nr:Datum:Temp:Abs-Feuchte:Windchill:Wind:
Aussen-T/F 3201 19-03-2014 03:30:00 9.9 C 7.56 g/m*3 8.56 C 9.7 km/h
3202 19-03-2014 03:35:00 9.9 C 7.56 g/m*3 8.87 C 8.1 km/h
3203 19-03-2014 03:40:00 9.9 C 7.56 g/m*3 8.3 C 11.3 km/h
3204 19-03-2014 03:45:00 9.9 C 7.56 g/m*3 8.3 C 11.3 km/h
3205 19-03-2014 03:50:00 9.9 C 7.56 g/m*3 8.87 C 8.1 km/h
3206 19-03-2014 03:55:00 9.9 C 7.56 g/m*3 7.85 C 14.5 km/h
3207 19-03-2014 04:00:00 9.9 C 7.56 g/m*3 9.25 C 6.4 km/h
3208 19-03-2014 04:05:00 9.9 C 7.56 g/m*3 8.06 C 12.9 km/h
3209 19-03-2014 04:10:00 9.9 C 7.56 g/m*3 8.87 C 8.1 km/h
3210 19-03-2014 04:15:00 9.9 C 7.56 g/m*3 8.56 C 9.7 km/h
3211 19-03-2014 04:20:00 9.9 C 7.47 g/m*3 7.85 C 14.5 km/h
3212 19-03-2014 04:25:00 9.9 C 7.47 g/m*3 8.06 C 12.9 km/h
3213 19-03-2014 04:30:00 9.9 C 7.47 g/m*3 8.56 C 9.7 km/h
3214 19-03-2014 04:35:00 9.9 C 7.47 g/m*3 9.9 C 4.8 km/h
3215 19-03-2014 04:40:00 9.9 C 7.47 g/m*3 8.06 C 12.9 km/h
3216 19-03-2014 04:45:00 9.9 C 7.56 g/m*3 9.25 C 6.4 km/h
3217 19-03-2014 04:50:00 9.9 C 7.56 g/m*3 8.3 C 11.3 km/h
3218 19-03-2014 04:55:00 9.9 C 7.47 g/m*3 8.56 C 9.7 km/h
3219 19-03-2014 05:00:00 9.9 C 7.47 g/m*3 8.56 C 9.7 km/h
3220 19-03-2014 05:05:00 9.9 C 7.47 g/m*3 7.48 C 17.7 km/h
3221 19-03-2014 05:10:00 10 C 7.52 g/m*3 8.99 C 8.1 km/h
3222 19-03-2014 05:15:00 10.1 C 7.47 g/m*3 7.91 C 16.1 km/h
3223 19-03-2014 05:20:00 10.1 C 7.47 g/m*3 7.91 C 16.1 km/h
3224 19-03-2014 05:25:00 10.1 C 7.47 g/m*3 8.54 C 11.3 km/h
3225 19-03-2014 05:30:00 10 C 7.52 g/m*3 8.99 C 8.1 km/h
Sensor: Nr:Datum:Temp:Abs-Feuchte:Windchill:Wind:
Aussen-T/F 3226 19-03-2014 05:35:00 10 C 7.52 g/m*3 8.42 C